<?xml version="1.0" encoding="UTF-8" standalone="no" ?>
<gpx xmlns="http://www.topografix.com/GPX/1/1" xmlns:xsi="http://www.w3.org/2001/XMLSchema-instance" xsi:schemaLocation="http://www.topografix.com/GPX/1/1 http://www.topografix.com/GPX/1/1/gpx.xsd" version="1.1" creator="VisuGPX - https://www.visugpx.com">
  <metadata>
    <name>17 janvier 2015</name>
    <desc><![CDATA[club vtt des rochers]]></desc>
  </metadata>
  <trk>
    <name><![CDATA[17-JAN-15 17-20-02]]></name>
    <trkseg>
      <trkpt lat="44.47206" lon="0.93418">
        <ele>64.55</ele>
        <time>2015-01-17T12:44:15Z</time>
      </trkpt>
      <trkpt lat="44.47208" lon="0.93419">
        <ele>63.58</ele>
        <time>2015-01-17T12:44:43Z</time>
      </trkpt>
      <trkpt lat="44.47204" lon="0.93418">
        <ele>68.87</ele>
        <time>2015-01-17T13:08:19Z</time>
      </trkpt>
      <trkpt lat="44.47203" lon="0.93421">
        <ele>72.24</ele>
        <time>2015-01-17T13:08:44Z</time>
      </trkpt>
      <trkpt lat="44.47203" lon="0.9342">
        <ele>71.76</ele>
        <time>2015-01-17T13:08:47Z</time>
      </trkpt>
      <trkpt lat="44.47195" lon="0.93431">
        <ele>70.79</ele>
        <time>2015-01-17T13:08:56Z</time>
      </trkpt>
      <trkpt lat="44.47195" lon="0.93436">
        <ele>67.91</ele>
        <time>2015-01-17T13:09:10Z</time>
      </trkpt>
      <trkpt lat="44.47196" lon="0.93436">
        <ele>67.43</ele>
        <time>2015-01-17T13:09:27Z</time>
      </trkpt>
      <trkpt lat="44.47194" lon="0.93435">
        <ele>68.39</ele>
        <time>2015-01-17T13:09:48Z</time>
      </trkpt>
      <trkpt lat="44.47195" lon="0.93434">
        <ele>67.43</ele>
        <time>2015-01-17T13:10:08Z</time>
      </trkpt>
      <trkpt lat="44.47194" lon="0.93434">
        <ele>66.95</ele>
        <time>2015-01-17T13:10:34Z</time>
      </trkpt>
      <trkpt lat="44.47196" lon="0.93437">
        <ele>66.95</ele>
        <time>2015-01-17T13:10:47Z</time>
      </trkpt>
      <trkpt lat="44.47197" lon="0.93437">
        <ele>67.43</ele>
        <time>2015-01-17T13:10:57Z</time>
      </trkpt>
      <trkpt lat="44.47196" lon="0.93437">
        <ele>66.95</ele>
        <time>2015-01-17T13:11:12Z</time>
      </trkpt>
      <trkpt lat="44.47196" lon="0.93436">
        <ele>66.47</ele>
        <time>2015-01-17T13:11:34Z</time>
      </trkpt>
      <trkpt lat="44.47196" lon="0.93436">
        <ele>66.95</ele>
        <time>2015-01-17T13:11:58Z</time>
      </trkpt>
      <trkpt lat="44.47196" lon="0.93437">
        <ele>66.95</ele>
        <time>2015-01-17T13:12:15Z</time>
      </trkpt>
      <trkpt lat="44.47196" lon="0.93436">
        <ele>66.47</ele>
        <time>2015-01-17T13:12:34Z</time>
      </trkpt>
      <trkpt lat="44.47196" lon="0.93435">
        <ele>65.99</ele>
        <time>2015-01-17T13:12:59Z</time>
      </trkpt>
      <trkpt lat="44.47196" lon="0.93435">
        <ele>65.99</ele>
        <time>2015-01-17T13:13:12Z</time>
      </trkpt>
      <trkpt lat="44.47197" lon="0.93437">
        <ele>66.47</ele>
        <time>2015-01-17T13:13:26Z</time>
      </trkpt>
      <trkpt lat="44.47197" lon="0.93436">
        <ele>66.47</ele>
        <time>2015-01-17T13:13:47Z</time>
      </trkpt>
      <trkpt lat="44.47197" lon="0.93438">
        <ele>65.51</ele>
        <time>2015-01-17T13:14:06Z</time>
      </trkpt>
      <trkpt lat="44.47197" lon="0.93436">
        <ele>65.51</ele>
        <time>2015-01-17T13:14:20Z</time>
      </trkpt>
      <trkpt lat="44.47197" lon="0.93435">
        <ele>65.51</ele>
        <time>2015-01-17T13:14:35Z</time>
      </trkpt>
      <trkpt lat="44.47196" lon="0.93436">
        <ele>66.47</ele>
        <time>2015-01-17T13:14:50Z</time>
      </trkpt>
      <trkpt lat="44.47197" lon="0.93445">
        <ele>66.95</ele>
        <time>2015-01-17T13:15:03Z</time>
      </trkpt>
      <trkpt lat="44.47201" lon="0.9345">
        <ele>67.43</ele>
        <time>2015-01-17T13:15:06Z</time>
      </trkpt>
      <trkpt lat="44.47203" lon="0.93451">
        <ele>67.91</ele>
        <time>2015-01-17T13:15:07Z</time>
      </trkpt>
      <trkpt lat="44.47205" lon="0.93452">
        <ele>67.91</ele>
        <time>2015-01-17T13:15:08Z</time>
      </trkpt>
      <trkpt lat="44.47222" lon="0.93482">
        <ele>66.95</ele>
        <time>2015-01-17T13:15:17Z</time>
      </trkpt>
      <trkpt lat="44.47228" lon="0.93563">
        <ele>65.99</ele>
        <time>2015-01-17T13:15:33Z</time>
      </trkpt>
      <trkpt lat="44.47251" lon="0.9362">
        <ele>65.03</ele>
        <time>2015-01-17T13:15:45Z</time>
      </trkpt>
      <trkpt lat="44.47253" lon="0.93625">
        <ele>65.03</ele>
        <time>2015-01-17T13:15:46Z</time>
      </trkpt>
      <trkpt lat="44.47257" lon="0.93628">
        <ele>65.03</ele>
        <time>2015-01-17T13:15:47Z</time>
      </trkpt>
      <trkpt lat="44.47278" lon="0.9365">
        <ele>65.03</ele>
        <time>2015-01-17T13:15:53Z</time>
      </trkpt>
      <trkpt lat="44.47279" lon="0.93655">
        <ele>65.03</ele>
        <time>2015-01-17T13:15:54Z</time>
      </trkpt>
      <trkpt lat="44.47282" lon="0.93667">
        <ele>65.03</ele>
        <time>2015-01-17T13:15:56Z</time>
      </trkpt>
      <trkpt lat="44.47285" lon="0.93671">
        <ele>65.03</ele>
        <time>2015-01-17T13:15:57Z</time>
      </trkpt>
      <trkpt lat="44.47292" lon="0.93679">
        <ele>64.55</ele>
        <time>2015-01-17T13:15:59Z</time>
      </trkpt>
      <trkpt lat="44.47294" lon="0.93683">
        <ele>64.55</ele>
        <time>2015-01-17T13:16:00Z</time>
      </trkpt>
      <trkpt lat="44.47295" lon="0.93688">
        <ele>64.07</ele>
        <time>2015-01-17T13:16:01Z</time>
      </trkpt>
      <trkpt lat="44.47321" lon="0.93741">
        <ele>63.1</ele>
        <time>2015-01-17T13:16:13Z</time>
      </trkpt>
      <trkpt lat="44.47339" lon="0.93789">
        <ele>63.58</ele>
        <time>2015-01-17T13:16:23Z</time>
      </trkpt>
      <trkpt lat="44.47341" lon="0.93795">
        <ele>63.58</ele>
        <time>2015-01-17T13:16:24Z</time>
      </trkpt>
      <trkpt lat="44.47344" lon="0.93801">
        <ele>63.58</ele>
        <time>2015-01-17T13:16:25Z</time>
      </trkpt>
      <trkpt lat="44.47365" lon="0.93838">
        <ele>63.1</ele>
        <time>2015-01-17T13:16:34Z</time>
      </trkpt>
      <trkpt lat="44.47367" lon="0.93844">
        <ele>62.62</ele>
        <time>2015-01-17T13:16:35Z</time>
      </trkpt>
      <trkpt lat="44.47369" lon="0.9385">
        <ele>62.62</ele>
        <time>2015-01-17T13:16:36Z</time>
      </trkpt>
      <trkpt lat="44.4737" lon="0.93856">
        <ele>62.62</ele>
        <time>2015-01-17T13:16:37Z</time>
      </trkpt>
      <trkpt lat="44.47371" lon="0.93862">
        <ele>63.1</ele>
        <time>2015-01-17T13:16:38Z</time>
      </trkpt>
      <trkpt lat="44.47372" lon="0.93868">
        <ele>63.1</ele>
        <time>2015-01-17T13:16:39Z</time>
      </trkpt>
      <trkpt lat="44.47382" lon="0.93926">
        <ele>64.07</ele>
        <time>2015-01-17T13:16:51Z</time>
      </trkpt>
      <trkpt lat="44.47392" lon="0.93957">
        <ele>64.07</ele>
        <time>2015-01-17T13:17:03Z</time>
      </trkpt>
      <trkpt lat="44.47393" lon="0.9396">
        <ele>64.55</ele>
        <time>2015-01-17T13:17:07Z</time>
      </trkpt>
      <trkpt lat="44.47394" lon="0.9396">
        <ele>64.55</ele>
        <time>2015-01-17T13:17:08Z</time>
      </trkpt>
      <trkpt lat="44.47396" lon="0.9396">
        <ele>64.55</ele>
        <time>2015-01-17T13:17:09Z</time>
      </trkpt>
      <trkpt lat="44.47397" lon="0.93959">
        <ele>64.55</ele>
        <time>2015-01-17T13:17:10Z</time>
      </trkpt>
      <trkpt lat="44.47399" lon="0.93958">
        <ele>64.55</ele>
        <time>2015-01-17T13:17:11Z</time>
      </trkpt>
      <trkpt lat="44.47401" lon="0.93956">
        <ele>64.55</ele>
        <time>2015-01-17T13:17:12Z</time>
      </trkpt>
      <trkpt lat="44.47417" lon="0.93945">
        <ele>64.55</ele>
        <time>2015-01-17T13:17:17Z</time>
      </trkpt>
      <trkpt lat="44.47451" lon="0.93918">
        <ele>63.58</ele>
        <time>2015-01-17T13:17:24Z</time>
      </trkpt>
      <trkpt lat="44.47456" lon="0.93914">
        <ele>63.1</ele>
        <time>2015-01-17T13:17:25Z</time>
      </trkpt>
      <trkpt lat="44.47477" lon="0.93899">
        <ele>61.66</ele>
        <time>2015-01-17T13:17:29Z</time>
      </trkpt>
      <trkpt lat="44.47482" lon="0.93898">
        <ele>61.18</ele>
        <time>2015-01-17T13:17:30Z</time>
      </trkpt>
      <trkpt lat="44.47486" lon="0.93899">
        <ele>61.18</ele>
        <time>2015-01-17T13:17:31Z</time>
      </trkpt>
      <trkpt lat="44.4749" lon="0.93903">
        <ele>61.18</ele>
        <time>2015-01-17T13:17:32Z</time>
      </trkpt>
      <trkpt lat="44.47493" lon="0.93908">
        <ele>61.18</ele>
        <time>2015-01-17T13:17:33Z</time>
      </trkpt>
      <trkpt lat="44.47496" lon="0.93914">
        <ele>61.18</ele>
        <time>2015-01-17T13:17:34Z</time>
      </trkpt>
      <trkpt lat="44.47512" lon="0.93949">
        <ele>60.22</ele>
        <time>2015-01-17T13:17:41Z</time>
      </trkpt>
      <trkpt lat="44.47515" lon="0.93954">
        <ele>60.7</ele>
        <time>2015-01-17T13:17:42Z</time>
      </trkpt>
      <trkpt lat="44.47519" lon="0.93957">
        <ele>60.7</ele>
        <time>2015-01-17T13:17:43Z</time>
      </trkpt>
      <trkpt lat="44.47523" lon="0.93959">
        <ele>60.7</ele>
        <time>2015-01-17T13:17:44Z</time>
      </trkpt>
      <trkpt lat="44.47528" lon="0.9396">
        <ele>60.7</ele>
        <time>2015-01-17T13:17:45Z</time>
      </trkpt>
      <trkpt lat="44.47533" lon="0.93961">
        <ele>60.22</ele>
        <time>2015-01-17T13:17:46Z</time>
      </trkpt>
      <trkpt lat="44.47537" lon="0.93961">
        <ele>60.22</ele>
        <time>2015-01-17T13:17:47Z</time>
      </trkpt>
      <trkpt lat="44.47557" lon="0.93971">
        <ele>59.26</ele>
        <time>2015-01-17T13:17:52Z</time>
      </trkpt>
      <trkpt lat="44.47569" lon="0.93983">
        <ele>58.3</ele>
        <time>2015-01-17T13:17:55Z</time>
      </trkpt>
      <trkpt lat="44.47581" lon="0.93996">
        <ele>57.82</ele>
        <time>2015-01-17T13:17:58Z</time>
      </trkpt>
      <trkpt lat="44.47585" lon="0.93999">
        <ele>57.82</ele>
        <time>2015-01-17T13:17:59Z</time>
      </trkpt>
      <trkpt lat="44.47589" lon="0.94002">
        <ele>57.82</ele>
        <time>2015-01-17T13:18:00Z</time>
      </trkpt>
      <trkpt lat="44.47632" lon="0.94038">
        <ele>59.74</ele>
        <time>2015-01-17T13:18:13Z</time>
      </trkpt>
      <trkpt lat="44.47682" lon="0.94066">
        <ele>59.74</ele>
        <time>2015-01-17T13:18:29Z</time>
      </trkpt>
      <trkpt lat="44.47716" lon="0.94099">
        <ele>59.26</ele>
        <time>2015-01-17T13:18:41Z</time>
      </trkpt>
      <trkpt lat="44.47752" lon="0.94128">
        <ele>59.26</ele>
        <time>2015-01-17T13:18:53Z</time>
      </trkpt>
      <trkpt lat="44.47791" lon="0.94179">
        <ele>58.78</ele>
        <time>2015-01-17T13:19:08Z</time>
      </trkpt>
      <trkpt lat="44.47794" lon="0.94184">
        <ele>58.78</ele>
        <time>2015-01-17T13:19:09Z</time>
      </trkpt>
      <trkpt lat="44.47813" lon="0.94222">
        <ele>59.74</ele>
        <time>2015-01-17T13:19:18Z</time>
      </trkpt>
      <trkpt lat="44.47839" lon="0.94274">
        <ele>59.74</ele>
        <time>2015-01-17T13:19:30Z</time>
      </trkpt>
      <trkpt lat="44.47861" lon="0.94327">
        <ele>60.7</ele>
        <time>2015-01-17T13:19:42Z</time>
      </trkpt>
      <trkpt lat="44.47887" lon="0.94396">
        <ele>60.7</ele>
        <time>2015-01-17T13:19:57Z</time>
      </trkpt>
      <trkpt lat="44.47909" lon="0.9447">
        <ele>60.22</ele>
        <time>2015-01-17T13:20:12Z</time>
      </trkpt>
      <trkpt lat="44.47934" lon="0.94546">
        <ele>60.7</ele>
        <time>2015-01-17T13:20:27Z</time>
      </trkpt>
      <trkpt lat="44.47953" lon="0.94616">
        <ele>59.74</ele>
        <time>2015-01-17T13:20:41Z</time>
      </trkpt>
      <trkpt lat="44.4797" lon="0.94669">
        <ele>58.78</ele>
        <time>2015-01-17T13:20:52Z</time>
      </trkpt>
      <trkpt lat="44.47976" lon="0.94684">
        <ele>58.78</ele>
        <time>2015-01-17T13:20:55Z</time>
      </trkpt>
      <trkpt lat="44.47978" lon="0.94689">
        <ele>58.78</ele>
        <time>2015-01-17T13:20:56Z</time>
      </trkpt>
      <trkpt lat="44.47981" lon="0.94694">
        <ele>58.78</ele>
        <time>2015-01-17T13:20:57Z</time>
      </trkpt>
      <trkpt lat="44.48006" lon="0.94754">
        <ele>56.86</ele>
        <time>2015-01-17T13:21:10Z</time>
      </trkpt>
      <trkpt lat="44.48024" lon="0.94774">
        <ele>55.89</ele>
        <time>2015-01-17T13:21:16Z</time>
      </trkpt>
      <trkpt lat="44.48024" lon="0.94781">
        <ele>55.41</ele>
        <time>2015-01-17T13:21:17Z</time>
      </trkpt>
      <trkpt lat="44.48025" lon="0.94794">
        <ele>54.93</ele>
        <time>2015-01-17T13:21:19Z</time>
      </trkpt>
      <trkpt lat="44.48026" lon="0.948">
        <ele>54.93</ele>
        <time>2015-01-17T13:21:20Z</time>
      </trkpt>
      <trkpt lat="44.48037" lon="0.94853">
        <ele>55.89</ele>
        <time>2015-01-17T13:21:32Z</time>
      </trkpt>
      <trkpt lat="44.4805" lon="0.94887">
        <ele>55.89</ele>
        <time>2015-01-17T13:21:42Z</time>
      </trkpt>
      <trkpt lat="44.48052" lon="0.94899">
        <ele>55.41</ele>
        <time>2015-01-17T13:21:45Z</time>
      </trkpt>
      <trkpt lat="44.4807" lon="0.94927">
        <ele>58.78</ele>
        <time>2015-01-17T13:21:55Z</time>
      </trkpt>
      <trkpt lat="44.48071" lon="0.9493">
        <ele>58.78</ele>
        <time>2015-01-17T13:21:56Z</time>
      </trkpt>
      <trkpt lat="44.48089" lon="0.94975">
        <ele>58.3</ele>
        <time>2015-01-17T13:22:09Z</time>
      </trkpt>
      <trkpt lat="44.48105" lon="0.95012">
        <ele>59.74</ele>
        <time>2015-01-17T13:22:20Z</time>
      </trkpt>
      <trkpt lat="44.48127" lon="0.9506">
        <ele>61.18</ele>
        <time>2015-01-17T13:22:35Z</time>
      </trkpt>
      <trkpt lat="44.48139" lon="0.9508">
        <ele>60.7</ele>
        <time>2015-01-17T13:22:46Z</time>
      </trkpt>
      <trkpt lat="44.48141" lon="0.95082">
        <ele>60.7</ele>
        <time>2015-01-17T13:22:48Z</time>
      </trkpt>
      <trkpt lat="44.48146" lon="0.95093">
        <ele>61.66</ele>
        <time>2015-01-17T13:22:54Z</time>
      </trkpt>
      <trkpt lat="44.48149" lon="0.95097">
        <ele>61.66</ele>
        <time>2015-01-17T13:22:56Z</time>
      </trkpt>
      <trkpt lat="44.48153" lon="0.95105">
        <ele>61.66</ele>
        <time>2015-01-17T13:23:00Z</time>
      </trkpt>
      <trkpt lat="44.4817" lon="0.95136">
        <ele>59.74</ele>
        <time>2015-01-17T13:23:11Z</time>
      </trkpt>
      <trkpt lat="44.4819" lon="0.95182">
        <ele>58.78</ele>
        <time>2015-01-17T13:23:24Z</time>
      </trkpt>
      <trkpt lat="44.48217" lon="0.95215">
        <ele>60.22</ele>
        <time>2015-01-17T13:23:35Z</time>
      </trkpt>
      <trkpt lat="44.4824" lon="0.95254">
        <ele>61.66</ele>
        <time>2015-01-17T13:23:48Z</time>
      </trkpt>
      <trkpt lat="44.48262" lon="0.95286">
        <ele>62.62</ele>
        <time>2015-01-17T13:23:58Z</time>
      </trkpt>
      <trkpt lat="44.48285" lon="0.9532">
        <ele>62.62</ele>
        <time>2015-01-17T13:24:09Z</time>
      </trkpt>
      <trkpt lat="44.48302" lon="0.95334">
        <ele>61.66</ele>
        <time>2015-01-17T13:24:16Z</time>
      </trkpt>
      <trkpt lat="44.4831" lon="0.95344">
        <ele>60.22</ele>
        <time>2015-01-17T13:24:21Z</time>
      </trkpt>
      <trkpt lat="44.48314" lon="0.95348">
        <ele>59.74</ele>
        <time>2015-01-17T13:24:24Z</time>
      </trkpt>
      <trkpt lat="44.48318" lon="0.95355">
        <ele>59.26</ele>
        <time>2015-01-17T13:24:36Z</time>
      </trkpt>
      <trkpt lat="44.48322" lon="0.95361">
        <ele>57.34</ele>
        <time>2015-01-17T13:24:47Z</time>
      </trkpt>
      <trkpt lat="44.48329" lon="0.95371">
        <ele>57.82</ele>
        <time>2015-01-17T13:25:00Z</time>
      </trkpt>
      <trkpt lat="44.48333" lon="0.95372">
        <ele>59.26</ele>
        <time>2015-01-17T13:25:18Z</time>
      </trkpt>
      <trkpt lat="44.48335" lon="0.95374">
        <ele>60.22</ele>
        <time>2015-01-17T13:25:40Z</time>
      </trkpt>
      <trkpt lat="44.48345" lon="0.95389">
        <ele>62.62</ele>
        <time>2015-01-17T13:25:55Z</time>
      </trkpt>
      <trkpt lat="44.48353" lon="0.95413">
        <ele>63.58</ele>
        <time>2015-01-17T13:26:03Z</time>
      </trkpt>
      <trkpt lat="44.48361" lon="0.95443">
        <ele>65.99</ele>
        <time>2015-01-17T13:26:13Z</time>
      </trkpt>
      <trkpt lat="44.48376" lon="0.95487">
        <ele>64.07</ele>
        <time>2015-01-17T13:26:23Z</time>
      </trkpt>
      <trkpt lat="44.48391" lon="0.95532">
        <ele>61.18</ele>
        <time>2015-01-17T13:26:34Z</time>
      </trkpt>
      <trkpt lat="44.48402" lon="0.95574">
        <ele>60.7</ele>
        <time>2015-01-17T13:26:44Z</time>
      </trkpt>
      <trkpt lat="44.48421" lon="0.95625">
        <ele>59.74</ele>
        <time>2015-01-17T13:26:57Z</time>
      </trkpt>
      <trkpt lat="44.48442" lon="0.95673">
        <ele>57.82</ele>
        <time>2015-01-17T13:27:08Z</time>
      </trkpt>
      <trkpt lat="44.48462" lon="0.9571">
        <ele>58.78</ele>
        <time>2015-01-17T13:27:19Z</time>
      </trkpt>
      <trkpt lat="44.48479" lon="0.95744">
        <ele>64.07</ele>
        <time>2015-01-17T13:27:30Z</time>
      </trkpt>
      <trkpt lat="44.48489" lon="0.95758">
        <ele>65.51</ele>
        <time>2015-01-17T13:27:35Z</time>
      </trkpt>
      <trkpt lat="44.48526" lon="0.95808">
        <ele>63.58</ele>
        <time>2015-01-17T13:27:48Z</time>
      </trkpt>
      <trkpt lat="44.48557" lon="0.95845">
        <ele>63.58</ele>
        <time>2015-01-17T13:27:58Z</time>
      </trkpt>
      <trkpt lat="44.48586" lon="0.95883">
        <ele>65.03</ele>
        <time>2015-01-17T13:28:09Z</time>
      </trkpt>
      <trkpt lat="44.48623" lon="0.95932">
        <ele>67.43</ele>
        <time>2015-01-17T13:28:22Z</time>
      </trkpt>
      <trkpt lat="44.48663" lon="0.95974">
        <ele>66.47</ele>
        <time>2015-01-17T13:28:34Z</time>
      </trkpt>
      <trkpt lat="44.48697" lon="0.96019">
        <ele>65.99</ele>
        <time>2015-01-17T13:28:46Z</time>
      </trkpt>
      <trkpt lat="44.48713" lon="0.96043">
        <ele>65.51</ele>
        <time>2015-01-17T13:28:52Z</time>
      </trkpt>
      <trkpt lat="44.48718" lon="0.96071">
        <ele>67.91</ele>
        <time>2015-01-17T13:29:00Z</time>
      </trkpt>
      <trkpt lat="44.48727" lon="0.96087">
        <ele>69.83</ele>
        <time>2015-01-17T13:29:05Z</time>
      </trkpt>
      <trkpt lat="44.48742" lon="0.96106">
        <ele>69.83</ele>
        <time>2015-01-17T13:29:11Z</time>
      </trkpt>
      <trkpt lat="44.48757" lon="0.96108">
        <ele>68.39</ele>
        <time>2015-01-17T13:29:17Z</time>
      </trkpt>
      <trkpt lat="44.48791" lon="0.96139">
        <ele>65.51</ele>
        <time>2015-01-17T13:29:29Z</time>
      </trkpt>
      <trkpt lat="44.48808" lon="0.96161">
        <ele>65.51</ele>
        <time>2015-01-17T13:29:37Z</time>
      </trkpt>
      <trkpt lat="44.48842" lon="0.96206">
        <ele>64.55</ele>
        <time>2015-01-17T13:29:52Z</time>
      </trkpt>
      <trkpt lat="44.48845" lon="0.96213">
        <ele>64.55</ele>
        <time>2015-01-17T13:29:54Z</time>
      </trkpt>
      <trkpt lat="44.4887" lon="0.96218">
        <ele>64.55</ele>
        <time>2015-01-17T13:30:05Z</time>
      </trkpt>
      <trkpt lat="44.48883" lon="0.96226">
        <ele>64.55</ele>
        <time>2015-01-17T13:30:09Z</time>
      </trkpt>
      <trkpt lat="44.48926" lon="0.96266">
        <ele>63.58</ele>
        <time>2015-01-17T13:30:23Z</time>
      </trkpt>
      <trkpt lat="44.48932" lon="0.96284">
        <ele>62.62</ele>
        <time>2015-01-17T13:30:28Z</time>
      </trkpt>
      <trkpt lat="44.48947" lon="0.96292">
        <ele>62.14</ele>
        <time>2015-01-17T13:30:34Z</time>
      </trkpt>
      <trkpt lat="44.48978" lon="0.96321">
        <ele>60.7</ele>
        <time>2015-01-17T13:30:45Z</time>
      </trkpt>
      <trkpt lat="44.48972" lon="0.96336">
        <ele>61.66</ele>
        <time>2015-01-17T13:30:50Z</time>
      </trkpt>
      <trkpt lat="44.48937" lon="0.96383">
        <ele>65.51</ele>
        <time>2015-01-17T13:31:05Z</time>
      </trkpt>
      <trkpt lat="44.48893" lon="0.96437">
        <ele>67.91</ele>
        <time>2015-01-17T13:31:22Z</time>
      </trkpt>
      <trkpt lat="44.48892" lon="0.96441">
        <ele>67.91</ele>
        <time>2015-01-17T13:31:32Z</time>
      </trkpt>
      <trkpt lat="44.48892" lon="0.96444">
        <ele>68.87</ele>
        <time>2015-01-17T13:31:54Z</time>
      </trkpt>
      <trkpt lat="44.48892" lon="0.96446">
        <ele>69.35</ele>
        <time>2015-01-17T13:31:55Z</time>
      </trkpt>
      <trkpt lat="44.48893" lon="0.96449">
        <ele>69.35</ele>
        <time>2015-01-17T13:31:56Z</time>
      </trkpt>
      <trkpt lat="44.48894" lon="0.96452">
        <ele>69.83</ele>
        <time>2015-01-17T13:31:57Z</time>
      </trkpt>
      <trkpt lat="44.48896" lon="0.96455">
        <ele>69.83</ele>
        <time>2015-01-17T13:31:58Z</time>
      </trkpt>
      <trkpt lat="44.48897" lon="0.96458">
        <ele>69.83</ele>
        <time>2015-01-17T13:31:59Z</time>
      </trkpt>
      <trkpt lat="44.48898" lon="0.96462">
        <ele>69.83</ele>
        <time>2015-01-17T13:32:00Z</time>
      </trkpt>
      <trkpt lat="44.48917" lon="0.96498">
        <ele>70.79</ele>
        <time>2015-01-17T13:32:10Z</time>
      </trkpt>
      <trkpt lat="44.48956" lon="0.96554">
        <ele>70.31</ele>
        <time>2015-01-17T13:32:24Z</time>
      </trkpt>
      <trkpt lat="44.48992" lon="0.96624">
        <ele>68.39</ele>
        <time>2015-01-17T13:32:39Z</time>
      </trkpt>
      <trkpt lat="44.48994" lon="0.96629">
        <ele>68.39</ele>
        <time>2015-01-17T13:32:40Z</time>
      </trkpt>
      <trkpt lat="44.48996" lon="0.96634">
        <ele>68.39</ele>
        <time>2015-01-17T13:32:41Z</time>
      </trkpt>
      <trkpt lat="44.49028" lon="0.96731">
        <ele>68.87</ele>
        <time>2015-01-17T13:32:58Z</time>
      </trkpt>
      <trkpt lat="44.49033" lon="0.96748">
        <ele>69.83</ele>
        <time>2015-01-17T13:33:03Z</time>
      </trkpt>
      <trkpt lat="44.49033" lon="0.96751">
        <ele>69.83</ele>
        <time>2015-01-17T13:33:04Z</time>
      </trkpt>
      <trkpt lat="44.49033" lon="0.96755">
        <ele>69.83</ele>
        <time>2015-01-17T13:33:17Z</time>
      </trkpt>
      <trkpt lat="44.49034" lon="0.96772">
        <ele>70.79</ele>
        <time>2015-01-17T13:33:21Z</time>
      </trkpt>
      <trkpt lat="44.49036" lon="0.96777">
        <ele>70.79</ele>
        <time>2015-01-17T13:33:22Z</time>
      </trkpt>
      <trkpt lat="44.49039" lon="0.96781">
        <ele>70.79</ele>
        <time>2015-01-17T13:33:23Z</time>
      </trkpt>
      <trkpt lat="44.49042" lon="0.96783">
        <ele>70.79</ele>
        <time>2015-01-17T13:33:24Z</time>
      </trkpt>
      <trkpt lat="44.49046" lon="0.96784">
        <ele>70.79</ele>
        <time>2015-01-17T13:33:25Z</time>
      </trkpt>
      <trkpt lat="44.4905" lon="0.96783">
        <ele>70.79</ele>
        <time>2015-01-17T13:33:26Z</time>
      </trkpt>
      <trkpt lat="44.49053" lon="0.9678">
        <ele>70.31</ele>
        <time>2015-01-17T13:33:27Z</time>
      </trkpt>
      <trkpt lat="44.49056" lon="0.96775">
        <ele>70.31</ele>
        <time>2015-01-17T13:33:28Z</time>
      </trkpt>
      <trkpt lat="44.49057" lon="0.96769">
        <ele>70.31</ele>
        <time>2015-01-17T13:33:29Z</time>
      </trkpt>
      <trkpt lat="44.49058" lon="0.96762">
        <ele>69.83</ele>
        <time>2015-01-17T13:33:30Z</time>
      </trkpt>
      <trkpt lat="44.49057" lon="0.96756">
        <ele>69.83</ele>
        <time>2015-01-17T13:33:31Z</time>
      </trkpt>
      <trkpt lat="44.49056" lon="0.9675">
        <ele>69.35</ele>
        <time>2015-01-17T13:33:32Z</time>
      </trkpt>
      <trkpt lat="44.49056" lon="0.96743">
        <ele>69.35</ele>
        <time>2015-01-17T13:33:33Z</time>
      </trkpt>
      <trkpt lat="44.49057" lon="0.96736">
        <ele>69.35</ele>
        <time>2015-01-17T13:33:34Z</time>
      </trkpt>
      <trkpt lat="44.49064" lon="0.96718">
        <ele>68.39</ele>
        <time>2015-01-17T13:33:37Z</time>
      </trkpt>
      <trkpt lat="44.49112" lon="0.96643">
        <ele>67.43</ele>
        <time>2015-01-17T13:33:51Z</time>
      </trkpt>
      <trkpt lat="44.49184" lon="0.96556">
        <ele>66.47</ele>
        <time>2015-01-17T13:34:09Z</time>
      </trkpt>
      <trkpt lat="44.4924" lon="0.96493">
        <ele>67.43</ele>
        <time>2015-01-17T13:34:25Z</time>
      </trkpt>
      <trkpt lat="44.49294" lon="0.96428">
        <ele>69.83</ele>
        <time>2015-01-17T13:34:41Z</time>
      </trkpt>
      <trkpt lat="44.49344" lon="0.9637">
        <ele>70.79</ele>
        <time>2015-01-17T13:34:56Z</time>
      </trkpt>
      <trkpt lat="44.49347" lon="0.96368">
        <ele>71.27</ele>
        <time>2015-01-17T13:34:57Z</time>
      </trkpt>
      <trkpt lat="44.49351" lon="0.96366">
        <ele>71.27</ele>
        <time>2015-01-17T13:34:58Z</time>
      </trkpt>
      <trkpt lat="44.49355" lon="0.96366">
        <ele>71.27</ele>
        <time>2015-01-17T13:34:59Z</time>
      </trkpt>
      <trkpt lat="44.49359" lon="0.96367">
        <ele>71.27</ele>
        <time>2015-01-17T13:35:00Z</time>
      </trkpt>
      <trkpt lat="44.49363" lon="0.96369">
        <ele>70.79</ele>
        <time>2015-01-17T13:35:01Z</time>
      </trkpt>
      <trkpt lat="44.49368" lon="0.96373">
        <ele>70.79</ele>
        <time>2015-01-17T13:35:02Z</time>
      </trkpt>
      <trkpt lat="44.49372" lon="0.96378">
        <ele>70.31</ele>
        <time>2015-01-17T13:35:03Z</time>
      </trkpt>
      <trkpt lat="44.49375" lon="0.96384">
        <ele>70.31</ele>
        <time>2015-01-17T13:35:04Z</time>
      </trkpt>
      <trkpt lat="44.49408" lon="0.9645">
        <ele>67.43</ele>
        <time>2015-01-17T13:35:16Z</time>
      </trkpt>
      <trkpt lat="44.494" lon="0.96462">
        <ele>66.95</ele>
        <time>2015-01-17T13:35:19Z</time>
      </trkpt>
      <trkpt lat="44.49398" lon="0.96467">
        <ele>66.95</ele>
        <time>2015-01-17T13:35:20Z</time>
      </trkpt>
      <trkpt lat="44.49397" lon="0.96472">
        <ele>66.95</ele>
        <time>2015-01-17T13:35:21Z</time>
      </trkpt>
      <trkpt lat="44.49398" lon="0.96478">
        <ele>66.95</ele>
        <time>2015-01-17T13:35:22Z</time>
      </trkpt>
      <trkpt lat="44.49399" lon="0.96483">
        <ele>66.95</ele>
        <time>2015-01-17T13:35:23Z</time>
      </trkpt>
      <trkpt lat="44.49401" lon="0.96488">
        <ele>66.95</ele>
        <time>2015-01-17T13:35:24Z</time>
      </trkpt>
      <trkpt lat="44.49404" lon="0.96494">
        <ele>66.95</ele>
        <time>2015-01-17T13:35:25Z</time>
      </trkpt>
      <trkpt lat="44.49423" lon="0.96532">
        <ele>66.95</ele>
        <time>2015-01-17T13:35:32Z</time>
      </trkpt>
      <trkpt lat="44.49426" lon="0.96537">
        <ele>67.43</ele>
        <time>2015-01-17T13:35:33Z</time>
      </trkpt>
      <trkpt lat="44.49431" lon="0.96548">
        <ele>66.95</ele>
        <time>2015-01-17T13:35:35Z</time>
      </trkpt>
      <trkpt lat="44.49467" lon="0.96636">
        <ele>66.95</ele>
        <time>2015-01-17T13:35:49Z</time>
      </trkpt>
      <trkpt lat="44.49507" lon="0.96731">
        <ele>66.95</ele>
        <time>2015-01-17T13:36:03Z</time>
      </trkpt>
      <trkpt lat="44.49535" lon="0.96806">
        <ele>65.99</ele>
        <time>2015-01-17T13:36:12Z</time>
      </trkpt>
      <trkpt lat="44.49537" lon="0.96814">
        <ele>65.99</ele>
        <time>2015-01-17T13:36:13Z</time>
      </trkpt>
      <trkpt lat="44.49538" lon="0.96823">
        <ele>65.99</ele>
        <time>2015-01-17T13:36:14Z</time>
      </trkpt>
      <trkpt lat="44.4954" lon="0.96831">
        <ele>65.99</ele>
        <time>2015-01-17T13:36:15Z</time>
      </trkpt>
      <trkpt lat="44.49543" lon="0.96839">
        <ele>65.99</ele>
        <time>2015-01-17T13:36:16Z</time>
      </trkpt>
      <trkpt lat="44.49546" lon="0.96848">
        <ele>65.99</ele>
        <time>2015-01-17T13:36:17Z</time>
      </trkpt>
      <trkpt lat="44.49588" lon="0.96952">
        <ele>67.91</ele>
        <time>2015-01-17T13:36:31Z</time>
      </trkpt>
      <trkpt lat="44.49591" lon="0.96959">
        <ele>67.91</ele>
        <time>2015-01-17T13:36:32Z</time>
      </trkpt>
      <trkpt lat="44.49619" lon="0.97037">
        <ele>64.55</ele>
        <time>2015-01-17T13:36:44Z</time>
      </trkpt>
      <trkpt lat="44.49656" lon="0.97134">
        <ele>64.07</ele>
        <time>2015-01-17T13:36:58Z</time>
      </trkpt>
      <trkpt lat="44.49682" lon="0.97209">
        <ele>65.03</ele>
        <time>2015-01-17T13:37:10Z</time>
      </trkpt>
      <trkpt lat="44.49686" lon="0.97221">
        <ele>64.55</ele>
        <time>2015-01-17T13:37:18Z</time>
      </trkpt>
      <trkpt lat="44.49688" lon="0.97225">
        <ele>65.03</ele>
        <time>2015-01-17T13:37:22Z</time>
      </trkpt>
      <trkpt lat="44.49689" lon="0.97228">
        <ele>65.03</ele>
        <time>2015-01-17T13:37:23Z</time>
      </trkpt>
      <trkpt lat="44.49705" lon="0.97274">
        <ele>65.03</ele>
        <time>2015-01-17T13:37:31Z</time>
      </trkpt>
      <trkpt lat="44.49734" lon="0.97373">
        <ele>65.99</ele>
        <time>2015-01-17T13:37:43Z</time>
      </trkpt>
      <trkpt lat="44.4976" lon="0.97468">
        <ele>66.47</ele>
        <time>2015-01-17T13:37:55Z</time>
      </trkpt>
      <trkpt lat="44.4979" lon="0.97585">
        <ele>65.99</ele>
        <time>2015-01-17T13:38:10Z</time>
      </trkpt>
      <trkpt lat="44.49814" lon="0.9768">
        <ele>66.95</ele>
        <time>2015-01-17T13:38:23Z</time>
      </trkpt>
      <trkpt lat="44.49816" lon="0.97687">
        <ele>66.95</ele>
        <time>2015-01-17T13:38:24Z</time>
      </trkpt>
      <trkpt lat="44.49834" lon="0.978">
        <ele>69.35</ele>
        <time>2015-01-17T13:38:39Z</time>
      </trkpt>
      <trkpt lat="44.49837" lon="0.97829">
        <ele>69.83</ele>
        <time>2015-01-17T13:38:43Z</time>
      </trkpt>
      <trkpt lat="44.49838" lon="0.97837">
        <ele>69.83</ele>
        <time>2015-01-17T13:38:44Z</time>
      </trkpt>
      <trkpt lat="44.49842" lon="0.97882">
        <ele>69.83</ele>
        <time>2015-01-17T13:38:50Z</time>
      </trkpt>
      <trkpt lat="44.49847" lon="0.97985">
        <ele>70.79</ele>
        <time>2015-01-17T13:39:04Z</time>
      </trkpt>
      <trkpt lat="44.49846" lon="0.97992">
        <ele>70.79</ele>
        <time>2015-01-17T13:39:05Z</time>
      </trkpt>
      <trkpt lat="44.49846" lon="0.98013">
        <ele>70.31</ele>
        <time>2015-01-17T13:39:08Z</time>
      </trkpt>
      <trkpt lat="44.49846" lon="0.9802">
        <ele>70.31</ele>
        <time>2015-01-17T13:39:09Z</time>
      </trkpt>
      <trkpt lat="44.49844" lon="0.9807">
        <ele>69.83</ele>
        <time>2015-01-17T13:39:16Z</time>
      </trkpt>
      <trkpt lat="44.49843" lon="0.98077">
        <ele>70.31</ele>
        <time>2015-01-17T13:39:17Z</time>
      </trkpt>
      <trkpt lat="44.49829" lon="0.98171">
        <ele>70.31</ele>
        <time>2015-01-17T13:39:30Z</time>
      </trkpt>
      <trkpt lat="44.49796" lon="0.98282">
        <ele>69.35</ele>
        <time>2015-01-17T13:39:47Z</time>
      </trkpt>
      <trkpt lat="44.4978" lon="0.98339">
        <ele>68.39</ele>
        <time>2015-01-17T13:39:56Z</time>
      </trkpt>
      <trkpt lat="44.49778" lon="0.98344">
        <ele>68.87</ele>
        <time>2015-01-17T13:39:57Z</time>
      </trkpt>
      <trkpt lat="44.49777" lon="0.98349">
        <ele>68.87</ele>
        <time>2015-01-17T13:39:58Z</time>
      </trkpt>
      <trkpt lat="44.49776" lon="0.98353">
        <ele>68.87</ele>
        <time>2015-01-17T13:39:59Z</time>
      </trkpt>
      <trkpt lat="44.49776" lon="0.98357">
        <ele>68.87</ele>
        <time>2015-01-17T13:40:00Z</time>
      </trkpt>
      <trkpt lat="44.49774" lon="0.98365">
        <ele>68.87</ele>
        <time>2015-01-17T13:40:03Z</time>
      </trkpt>
      <trkpt lat="44.49773" lon="0.98367">
        <ele>68.87</ele>
        <time>2015-01-17T13:40:04Z</time>
      </trkpt>
      <trkpt lat="44.4977" lon="0.98376">
        <ele>67.91</ele>
        <time>2015-01-17T13:40:15Z</time>
      </trkpt>
      <trkpt lat="44.49769" lon="0.9838">
        <ele>67.91</ele>
        <time>2015-01-17T13:40:35Z</time>
      </trkpt>
      <trkpt lat="44.49755" lon="0.98429">
        <ele>68.87</ele>
        <time>2015-01-17T13:40:47Z</time>
      </trkpt>
      <trkpt lat="44.49735" lon="0.98515">
        <ele>70.79</ele>
        <time>2015-01-17T13:41:02Z</time>
      </trkpt>
      <trkpt lat="44.49733" lon="0.98526">
        <ele>70.79</ele>
        <time>2015-01-17T13:41:04Z</time>
      </trkpt>
      <trkpt lat="44.49727" lon="0.98554">
        <ele>71.27</ele>
        <time>2015-01-17T13:41:09Z</time>
      </trkpt>
      <trkpt lat="44.49713" lon="0.98654">
        <ele>70.79</ele>
        <time>2015-01-17T13:41:25Z</time>
      </trkpt>
      <trkpt lat="44.4971" lon="0.98673">
        <ele>71.27</ele>
        <time>2015-01-17T13:41:28Z</time>
      </trkpt>
      <trkpt lat="44.49708" lon="0.98691">
        <ele>70.79</ele>
        <time>2015-01-17T13:41:31Z</time>
      </trkpt>
      <trkpt lat="44.49705" lon="0.98709">
        <ele>70.31</ele>
        <time>2015-01-17T13:41:34Z</time>
      </trkpt>
      <trkpt lat="44.49704" lon="0.98715">
        <ele>70.31</ele>
        <time>2015-01-17T13:41:35Z</time>
      </trkpt>
      <trkpt lat="44.49695" lon="0.98773">
        <ele>66.95</ele>
        <time>2015-01-17T13:41:43Z</time>
      </trkpt>
      <trkpt lat="44.49693" lon="0.98778">
        <ele>66.95</ele>
        <time>2015-01-17T13:41:44Z</time>
      </trkpt>
      <trkpt lat="44.49691" lon="0.98782">
        <ele>66.47</ele>
        <time>2015-01-17T13:41:45Z</time>
      </trkpt>
      <trkpt lat="44.49689" lon="0.98784">
        <ele>66.47</ele>
        <time>2015-01-17T13:41:46Z</time>
      </trkpt>
      <trkpt lat="44.49687" lon="0.98785">
        <ele>66.47</ele>
        <time>2015-01-17T13:41:47Z</time>
      </trkpt>
      <trkpt lat="44.49685" lon="0.98786">
        <ele>66.47</ele>
        <time>2015-01-17T13:41:48Z</time>
      </trkpt>
      <trkpt lat="44.49683" lon="0.98785">
        <ele>66.47</ele>
        <time>2015-01-17T13:41:49Z</time>
      </trkpt>
      <trkpt lat="44.4968" lon="0.98784">
        <ele>66.47</ele>
        <time>2015-01-17T13:41:50Z</time>
      </trkpt>
      <trkpt lat="44.49677" lon="0.98784">
        <ele>66.47</ele>
        <time>2015-01-17T13:41:51Z</time>
      </trkpt>
      <trkpt lat="44.49659" lon="0.98777">
        <ele>65.51</ele>
        <time>2015-01-17T13:41:56Z</time>
      </trkpt>
      <trkpt lat="44.49656" lon="0.98774">
        <ele>65.03</ele>
        <time>2015-01-17T13:41:57Z</time>
      </trkpt>
      <trkpt lat="44.49648" lon="0.98768">
        <ele>64.55</ele>
        <time>2015-01-17T13:41:59Z</time>
      </trkpt>
      <trkpt lat="44.49637" lon="0.98755">
        <ele>64.07</ele>
        <time>2015-01-17T13:42:02Z</time>
      </trkpt>
      <trkpt lat="44.49635" lon="0.98749">
        <ele>63.58</ele>
        <time>2015-01-17T13:42:03Z</time>
      </trkpt>
      <trkpt lat="44.49623" lon="0.98725">
        <ele>62.62</ele>
        <time>2015-01-17T13:42:07Z</time>
      </trkpt>
      <trkpt lat="44.49618" lon="0.98723">
        <ele>62.14</ele>
        <time>2015-01-17T13:42:08Z</time>
      </trkpt>
      <trkpt lat="44.49614" lon="0.98724">
        <ele>62.14</ele>
        <time>2015-01-17T13:42:09Z</time>
      </trkpt>
      <trkpt lat="44.4961" lon="0.98727">
        <ele>62.14</ele>
        <time>2015-01-17T13:42:10Z</time>
      </trkpt>
      <trkpt lat="44.49607" lon="0.98732">
        <ele>62.14</ele>
        <time>2015-01-17T13:42:11Z</time>
      </trkpt>
      <trkpt lat="44.49607" lon="0.98737">
        <ele>62.14</ele>
        <time>2015-01-17T13:42:12Z</time>
      </trkpt>
      <trkpt lat="44.49609" lon="0.98742">
        <ele>61.66</ele>
        <time>2015-01-17T13:42:13Z</time>
      </trkpt>
      <trkpt lat="44.49611" lon="0.98746">
        <ele>61.66</ele>
        <time>2015-01-17T13:42:14Z</time>
      </trkpt>
      <trkpt lat="44.49618" lon="0.98763">
        <ele>61.18</ele>
        <time>2015-01-17T13:42:18Z</time>
      </trkpt>
      <trkpt lat="44.49617" lon="0.98768">
        <ele>61.18</ele>
        <time>2015-01-17T13:42:19Z</time>
      </trkpt>
      <trkpt lat="44.49616" lon="0.98773">
        <ele>61.18</ele>
        <time>2015-01-17T13:42:20Z</time>
      </trkpt>
      <trkpt lat="44.49592" lon="0.98797">
        <ele>62.62</ele>
        <time>2015-01-17T13:42:31Z</time>
      </trkpt>
      <trkpt lat="44.49551" lon="0.98808">
        <ele>63.1</ele>
        <time>2015-01-17T13:42:43Z</time>
      </trkpt>
      <trkpt lat="44.49519" lon="0.98822">
        <ele>61.66</ele>
        <time>2015-01-17T13:42:51Z</time>
      </trkpt>
      <trkpt lat="44.49515" lon="0.98824">
        <ele>61.18</ele>
        <time>2015-01-17T13:42:52Z</time>
      </trkpt>
      <trkpt lat="44.49511" lon="0.98827">
        <ele>60.7</ele>
        <time>2015-01-17T13:42:53Z</time>
      </trkpt>
      <trkpt lat="44.49507" lon="0.9883">
        <ele>60.7</ele>
        <time>2015-01-17T13:42:54Z</time>
      </trkpt>
      <trkpt lat="44.49504" lon="0.98834">
        <ele>60.7</ele>
        <time>2015-01-17T13:42:55Z</time>
      </trkpt>
      <trkpt lat="44.49474" lon="0.98873">
        <ele>61.18</ele>
        <time>2015-01-17T13:43:05Z</time>
      </trkpt>
      <trkpt lat="44.49473" lon="0.98878">
        <ele>61.18</ele>
        <time>2015-01-17T13:43:06Z</time>
      </trkpt>
      <trkpt lat="44.49474" lon="0.98884">
        <ele>61.18</ele>
        <time>2015-01-17T13:43:07Z</time>
      </trkpt>
      <trkpt lat="44.49476" lon="0.98889">
        <ele>61.66</ele>
        <time>2015-01-17T13:43:08Z</time>
      </trkpt>
      <trkpt lat="44.49478" lon="0.98895">
        <ele>61.66</ele>
        <time>2015-01-17T13:43:09Z</time>
      </trkpt>
      <trkpt lat="44.495" lon="0.98945">
        <ele>63.58</ele>
        <time>2015-01-17T13:43:19Z</time>
      </trkpt>
      <trkpt lat="44.49502" lon="0.98951">
        <ele>64.07</ele>
        <time>2015-01-17T13:43:20Z</time>
      </trkpt>
      <trkpt lat="44.49505" lon="0.98956">
        <ele>64.55</ele>
        <time>2015-01-17T13:43:21Z</time>
      </trkpt>
      <trkpt lat="44.49542" lon="0.99046">
        <ele>66.47</ele>
        <time>2015-01-17T13:43:39Z</time>
      </trkpt>
      <trkpt lat="44.49555" lon="0.99077">
        <ele>67.43</ele>
        <time>2015-01-17T13:43:45Z</time>
      </trkpt>
      <trkpt lat="44.49576" lon="0.99111">
        <ele>67.91</ele>
        <time>2015-01-17T13:43:52Z</time>
      </trkpt>
      <trkpt lat="44.49617" lon="0.99149">
        <ele>68.87</ele>
        <time>2015-01-17T13:44:06Z</time>
      </trkpt>
      <trkpt lat="44.49617" lon="0.99151">
        <ele>69.35</ele>
        <time>2015-01-17T13:44:13Z</time>
      </trkpt>
      <trkpt lat="44.49617" lon="0.99153">
        <ele>69.35</ele>
        <time>2015-01-17T13:44:14Z</time>
      </trkpt>
      <trkpt lat="44.49617" lon="0.99156">
        <ele>69.35</ele>
        <time>2015-01-17T13:44:15Z</time>
      </trkpt>
      <trkpt lat="44.49616" lon="0.9916">
        <ele>69.35</ele>
        <time>2015-01-17T13:44:16Z</time>
      </trkpt>
      <trkpt lat="44.49614" lon="0.99163">
        <ele>69.35</ele>
        <time>2015-01-17T13:44:17Z</time>
      </trkpt>
      <trkpt lat="44.49612" lon="0.99167">
        <ele>69.35</ele>
        <time>2015-01-17T13:44:18Z</time>
      </trkpt>
      <trkpt lat="44.49606" lon="0.9919">
        <ele>69.83</ele>
        <time>2015-01-17T13:44:23Z</time>
      </trkpt>
      <trkpt lat="44.49607" lon="0.99194">
        <ele>70.31</ele>
        <time>2015-01-17T13:44:24Z</time>
      </trkpt>
      <trkpt lat="44.49609" lon="0.99198">
        <ele>70.31</ele>
        <time>2015-01-17T13:44:25Z</time>
      </trkpt>
      <trkpt lat="44.49612" lon="0.99201">
        <ele>70.31</ele>
        <time>2015-01-17T13:44:26Z</time>
      </trkpt>
      <trkpt lat="44.49615" lon="0.99203">
        <ele>70.79</ele>
        <time>2015-01-17T13:44:27Z</time>
      </trkpt>
      <trkpt lat="44.49646" lon="0.99209">
        <ele>72.72</ele>
        <time>2015-01-17T13:44:36Z</time>
      </trkpt>
      <trkpt lat="44.4965" lon="0.99208">
        <ele>72.72</ele>
        <time>2015-01-17T13:44:37Z</time>
      </trkpt>
      <trkpt lat="44.49654" lon="0.99206">
        <ele>72.72</ele>
        <time>2015-01-17T13:44:38Z</time>
      </trkpt>
      <trkpt lat="44.49698" lon="0.99195">
        <ele>71.27</ele>
        <time>2015-01-17T13:44:49Z</time>
      </trkpt>
      <trkpt lat="44.49711" lon="0.99194">
        <ele>71.27</ele>
        <time>2015-01-17T13:44:52Z</time>
      </trkpt>
      <trkpt lat="44.49715" lon="0.99195">
        <ele>71.27</ele>
        <time>2015-01-17T13:44:53Z</time>
      </trkpt>
      <trkpt lat="44.49772" lon="0.99213">
        <ele>72.72</ele>
        <time>2015-01-17T13:45:07Z</time>
      </trkpt>
      <trkpt lat="44.49823" lon="0.99253">
        <ele>76.08</ele>
        <time>2015-01-17T13:45:22Z</time>
      </trkpt>
      <trkpt lat="44.49865" lon="0.99287">
        <ele>78</ele>
        <time>2015-01-17T13:45:35Z</time>
      </trkpt>
      <trkpt lat="44.49877" lon="0.99296">
        <ele>78</ele>
        <time>2015-01-17T13:45:38Z</time>
      </trkpt>
      <trkpt lat="44.49894" lon="0.99303">
        <ele>77.52</ele>
        <time>2015-01-17T13:45:42Z</time>
      </trkpt>
      <trkpt lat="44.49965" lon="0.9931">
        <ele>78</ele>
        <time>2015-01-17T13:45:58Z</time>
      </trkpt>
      <trkpt lat="44.49969" lon="0.99312">
        <ele>78</ele>
        <time>2015-01-17T13:45:59Z</time>
      </trkpt>
      <trkpt lat="44.50025" lon="0.9936">
        <ele>78.97</ele>
        <time>2015-01-17T13:46:15Z</time>
      </trkpt>
      <trkpt lat="44.50041" lon="0.99384">
        <ele>77.04</ele>
        <time>2015-01-17T13:46:21Z</time>
      </trkpt>
      <trkpt lat="44.50044" lon="0.9939">
        <ele>76.56</ele>
        <time>2015-01-17T13:46:22Z</time>
      </trkpt>
      <trkpt lat="44.50046" lon="0.99396">
        <ele>76.56</ele>
        <time>2015-01-17T13:46:23Z</time>
      </trkpt>
      <trkpt lat="44.50064" lon="0.9948">
        <ele>75.6</ele>
        <time>2015-01-17T13:46:35Z</time>
      </trkpt>
      <trkpt lat="44.50065" lon="0.99486">
        <ele>76.08</ele>
        <time>2015-01-17T13:46:36Z</time>
      </trkpt>
      <trkpt lat="44.50066" lon="0.99492">
        <ele>76.56</ele>
        <time>2015-01-17T13:46:37Z</time>
      </trkpt>
      <trkpt lat="44.50087" lon="0.9955">
        <ele>78.97</ele>
        <time>2015-01-17T13:46:48Z</time>
      </trkpt>
      <trkpt lat="44.50116" lon="0.99614">
        <ele>75.6</ele>
        <time>2015-01-17T13:46:59Z</time>
      </trkpt>
      <trkpt lat="44.50127" lon="0.99637">
        <ele>74.16</ele>
        <time>2015-01-17T13:47:03Z</time>
      </trkpt>
      <trkpt lat="44.50129" lon="0.99643">
        <ele>74.16</ele>
        <time>2015-01-17T13:47:04Z</time>
      </trkpt>
      <trkpt lat="44.50156" lon="0.997">
        <ele>76.56</ele>
        <time>2015-01-17T13:47:16Z</time>
      </trkpt>
      <trkpt lat="44.50186" lon="0.99736">
        <ele>79.93</ele>
        <time>2015-01-17T13:47:28Z</time>
      </trkpt>
      <trkpt lat="44.50209" lon="0.99764">
        <ele>77.52</ele>
        <time>2015-01-17T13:47:36Z</time>
      </trkpt>
      <trkpt lat="44.50238" lon="0.99791">
        <ele>76.08</ele>
        <time>2015-01-17T13:47:42Z</time>
      </trkpt>
      <trkpt lat="44.50243" lon="0.99794">
        <ele>76.08</ele>
        <time>2015-01-17T13:47:43Z</time>
      </trkpt>
      <trkpt lat="44.50286" lon="0.99822">
        <ele>78</ele>
        <time>2015-01-17T13:47:55Z</time>
      </trkpt>
      <trkpt lat="44.5033" lon="0.99849">
        <ele>76.08</ele>
        <time>2015-01-17T13:48:07Z</time>
      </trkpt>
      <trkpt lat="44.50349" lon="0.99855">
        <ele>75.12</ele>
        <time>2015-01-17T13:48:11Z</time>
      </trkpt>
      <trkpt lat="44.50385" lon="0.99855">
        <ele>74.64</ele>
        <time>2015-01-17T13:48:19Z</time>
      </trkpt>
      <trkpt lat="44.50389" lon="0.99854">
        <ele>74.64</ele>
        <time>2015-01-17T13:48:20Z</time>
      </trkpt>
      <trkpt lat="44.50444" lon="0.99848">
        <ele>78.48</ele>
        <time>2015-01-17T13:48:34Z</time>
      </trkpt>
      <trkpt lat="44.5048" lon="0.9986">
        <ele>81.85</ele>
        <time>2015-01-17T13:48:46Z</time>
      </trkpt>
      <trkpt lat="44.50488" lon="0.99865">
        <ele>81.37</ele>
        <time>2015-01-17T13:48:49Z</time>
      </trkpt>
      <trkpt lat="44.50517" lon="0.99918">
        <ele>87.62</ele>
        <time>2015-01-17T13:49:04Z</time>
      </trkpt>
      <trkpt lat="44.50553" lon="0.99969">
        <ele>92.9</ele>
        <time>2015-01-17T13:49:20Z</time>
      </trkpt>
      <trkpt lat="44.50589" lon="0.99992">
        <ele>92.42</ele>
        <time>2015-01-17T13:49:32Z</time>
      </trkpt>
      <trkpt lat="44.5059" lon="0.99993">
        <ele>91.46</ele>
        <time>2015-01-17T13:49:44Z</time>
      </trkpt>
      <trkpt lat="44.50589" lon="0.99992">
        <ele>91.46</ele>
        <time>2015-01-17T13:50:17Z</time>
      </trkpt>
      <trkpt lat="44.50589" lon="0.99992">
        <ele>90.98</ele>
        <time>2015-01-17T13:50:47Z</time>
      </trkpt>
      <trkpt lat="44.50589" lon="0.99992">
        <ele>90.98</ele>
        <time>2015-01-17T13:51:00Z</time>
      </trkpt>
      <trkpt lat="44.50591" lon="0.99992">
        <ele>90.98</ele>
        <time>2015-01-17T13:51:01Z</time>
      </trkpt>
      <trkpt lat="44.50592" lon="0.99993">
        <ele>90.98</ele>
        <time>2015-01-17T13:51:02Z</time>
      </trkpt>
      <trkpt lat="44.50594" lon="0.99994">
        <ele>90.5</ele>
        <time>2015-01-17T13:51:03Z</time>
      </trkpt>
      <trkpt lat="44.50597" lon="0.99996">
        <ele>90.5</ele>
        <time>2015-01-17T13:51:04Z</time>
      </trkpt>
      <trkpt lat="44.50599" lon="0.99997">
        <ele>90.5</ele>
        <time>2015-01-17T13:51:05Z</time>
      </trkpt>
      <trkpt lat="44.50601" lon="0.99999">
        <ele>90.5</ele>
        <time>2015-01-17T13:51:06Z</time>
      </trkpt>
      <trkpt lat="44.50604" lon="1.00001">
        <ele>90.02</ele>
        <time>2015-01-17T13:51:07Z</time>
      </trkpt>
      <trkpt lat="44.50607" lon="1.00002">
        <ele>90.02</ele>
        <time>2015-01-17T13:51:08Z</time>
      </trkpt>
      <trkpt lat="44.50636" lon="1.00018">
        <ele>90.02</ele>
        <time>2015-01-17T13:51:16Z</time>
      </trkpt>
      <trkpt lat="44.50659" lon="1.00038">
        <ele>89.06</ele>
        <time>2015-01-17T13:51:22Z</time>
      </trkpt>
      <trkpt lat="44.50663" lon="1.00042">
        <ele>88.58</ele>
        <time>2015-01-17T13:51:23Z</time>
      </trkpt>
      <trkpt lat="44.50666" lon="1.00048">
        <ele>88.1</ele>
        <time>2015-01-17T13:51:24Z</time>
      </trkpt>
      <trkpt lat="44.50669" lon="1.00055">
        <ele>87.62</ele>
        <time>2015-01-17T13:51:25Z</time>
      </trkpt>
      <trkpt lat="44.50671" lon="1.00063">
        <ele>87.14</ele>
        <time>2015-01-17T13:51:26Z</time>
      </trkpt>
      <trkpt lat="44.50673" lon="1.00072">
        <ele>86.66</ele>
        <time>2015-01-17T13:51:27Z</time>
      </trkpt>
      <trkpt lat="44.50696" lon="1.00176">
        <ele>82.33</ele>
        <time>2015-01-17T13:51:37Z</time>
      </trkpt>
      <trkpt lat="44.50704" lon="1.00204">
        <ele>81.85</ele>
        <time>2015-01-17T13:51:40Z</time>
      </trkpt>
      <trkpt lat="44.50712" lon="1.00225">
        <ele>81.85</ele>
        <time>2015-01-17T13:51:43Z</time>
      </trkpt>
      <trkpt lat="44.50728" lon="1.0026">
        <ele>81.85</ele>
        <time>2015-01-17T13:51:49Z</time>
      </trkpt>
      <trkpt lat="44.50786" lon="1.00346">
        <ele>78.48</ele>
        <time>2015-01-17T13:52:03Z</time>
      </trkpt>
      <trkpt lat="44.50832" lon="1.00408">
        <ele>80.41</ele>
        <time>2015-01-17T13:52:17Z</time>
      </trkpt>
      <trkpt lat="44.50863" lon="1.00455">
        <ele>83.77</ele>
        <time>2015-01-17T13:52:29Z</time>
      </trkpt>
      <trkpt lat="44.50878" lon="1.00474">
        <ele>81.37</ele>
        <time>2015-01-17T13:52:39Z</time>
      </trkpt>
      <trkpt lat="44.50881" lon="1.00475">
        <ele>81.85</ele>
        <time>2015-01-17T13:53:01Z</time>
      </trkpt>
      <trkpt lat="44.50882" lon="1.00474">
        <ele>82.33</ele>
        <time>2015-01-17T13:53:16Z</time>
      </trkpt>
      <trkpt lat="44.50882" lon="1.00474">
        <ele>82.33</ele>
        <time>2015-01-17T13:53:33Z</time>
      </trkpt>
      <trkpt lat="44.50883" lon="1.00474">
        <ele>82.81</ele>
        <time>2015-01-17T13:53:54Z</time>
      </trkpt>
      <trkpt lat="44.50888" lon="1.00465">
        <ele>82.33</ele>
        <time>2015-01-17T13:53:57Z</time>
      </trkpt>
      <trkpt lat="44.50891" lon="1.00461">
        <ele>81.85</ele>
        <time>2015-01-17T13:53:58Z</time>
      </trkpt>
      <trkpt lat="44.50937" lon="1.00413">
        <ele>78</ele>
        <time>2015-01-17T13:54:07Z</time>
      </trkpt>
      <trkpt lat="44.50941" lon="1.00406">
        <ele>77.52</ele>
        <time>2015-01-17T13:54:08Z</time>
      </trkpt>
      <trkpt lat="44.50945" lon="1.00398">
        <ele>77.04</ele>
        <time>2015-01-17T13:54:09Z</time>
      </trkpt>
      <trkpt lat="44.50947" lon="1.00389">
        <ele>76.56</ele>
        <time>2015-01-17T13:54:10Z</time>
      </trkpt>
      <trkpt lat="44.50949" lon="1.00381">
        <ele>76.08</ele>
        <time>2015-01-17T13:54:11Z</time>
      </trkpt>
      <trkpt lat="44.50966" lon="1.00285">
        <ele>75.6</ele>
        <time>2015-01-17T13:54:24Z</time>
      </trkpt>
      <trkpt lat="44.50984" lon="1.00209">
        <ele>78</ele>
        <time>2015-01-17T13:54:38Z</time>
      </trkpt>
      <trkpt lat="44.51007" lon="1.00191">
        <ele>81.37</ele>
        <time>2015-01-17T13:54:46Z</time>
      </trkpt>
      <trkpt lat="44.5106" lon="1.00184">
        <ele>84.25</ele>
        <time>2015-01-17T13:55:00Z</time>
      </trkpt>
      <trkpt lat="44.51072" lon="1.00181">
        <ele>82.81</ele>
        <time>2015-01-17T13:55:12Z</time>
      </trkpt>
      <trkpt lat="44.51074" lon="1.00182">
        <ele>82.33</ele>
        <time>2015-01-17T13:55:26Z</time>
      </trkpt>
      <trkpt lat="44.51076" lon="1.00183">
        <ele>82.33</ele>
        <time>2015-01-17T13:55:27Z</time>
      </trkpt>
      <trkpt lat="44.51078" lon="1.00186">
        <ele>82.33</ele>
        <time>2015-01-17T13:55:28Z</time>
      </trkpt>
      <trkpt lat="44.5108" lon="1.0019">
        <ele>82.33</ele>
        <time>2015-01-17T13:55:29Z</time>
      </trkpt>
      <trkpt lat="44.51083" lon="1.00193">
        <ele>81.85</ele>
        <time>2015-01-17T13:55:30Z</time>
      </trkpt>
      <trkpt lat="44.51086" lon="1.00197">
        <ele>81.85</ele>
        <time>2015-01-17T13:55:31Z</time>
      </trkpt>
      <trkpt lat="44.51149" lon="1.0025">
        <ele>81.37</ele>
        <time>2015-01-17T13:55:48Z</time>
      </trkpt>
      <trkpt lat="44.51213" lon="1.00329">
        <ele>81.37</ele>
        <time>2015-01-17T13:56:07Z</time>
      </trkpt>
      <trkpt lat="44.51274" lon="1.00417">
        <ele>80.89</ele>
        <time>2015-01-17T13:56:27Z</time>
      </trkpt>
      <trkpt lat="44.51311" lon="1.00437">
        <ele>81.85</ele>
        <time>2015-01-17T13:56:38Z</time>
      </trkpt>
      <trkpt lat="44.51365" lon="1.0046">
        <ele>82.81</ele>
        <time>2015-01-17T13:56:54Z</time>
      </trkpt>
      <trkpt lat="44.51409" lon="1.00492">
        <ele>84.73</ele>
        <time>2015-01-17T13:57:07Z</time>
      </trkpt>
      <trkpt lat="44.51448" lon="1.00535">
        <ele>86.66</ele>
        <time>2015-01-17T13:57:20Z</time>
      </trkpt>
      <trkpt lat="44.51479" lon="1.00559">
        <ele>85.21</ele>
        <time>2015-01-17T13:57:28Z</time>
      </trkpt>
      <trkpt lat="44.51493" lon="1.00568">
        <ele>84.25</ele>
        <time>2015-01-17T13:57:31Z</time>
      </trkpt>
      <trkpt lat="44.51498" lon="1.00571">
        <ele>84.25</ele>
        <time>2015-01-17T13:57:32Z</time>
      </trkpt>
      <trkpt lat="44.51583" lon="1.0061">
        <ele>80.89</ele>
        <time>2015-01-17T13:57:47Z</time>
      </trkpt>
      <trkpt lat="44.51619" lon="1.00629">
        <ele>79.93</ele>
        <time>2015-01-17T13:57:54Z</time>
      </trkpt>
      <trkpt lat="44.51624" lon="1.0063">
        <ele>79.45</ele>
        <time>2015-01-17T13:57:55Z</time>
      </trkpt>
      <trkpt lat="44.51629" lon="1.0063">
        <ele>79.45</ele>
        <time>2015-01-17T13:57:56Z</time>
      </trkpt>
      <trkpt lat="44.51633" lon="1.00627">
        <ele>79.45</ele>
        <time>2015-01-17T13:57:57Z</time>
      </trkpt>
      <trkpt lat="44.51636" lon="1.00624">
        <ele>79.45</ele>
        <time>2015-01-17T13:57:58Z</time>
      </trkpt>
      <trkpt lat="44.51705" lon="1.00572">
        <ele>80.89</ele>
        <time>2015-01-17T13:58:17Z</time>
      </trkpt>
      <trkpt lat="44.51756" lon="1.00542">
        <ele>82.81</ele>
        <time>2015-01-17T13:58:31Z</time>
      </trkpt>
      <trkpt lat="44.51797" lon="1.00509">
        <ele>86.18</ele>
        <time>2015-01-17T13:58:44Z</time>
      </trkpt>
      <trkpt lat="44.51836" lon="1.00484">
        <ele>89.06</ele>
        <time>2015-01-17T13:58:56Z</time>
      </trkpt>
      <trkpt lat="44.51873" lon="1.00476">
        <ele>90.02</ele>
        <time>2015-01-17T13:59:08Z</time>
      </trkpt>
      <trkpt lat="44.51922" lon="1.00455">
        <ele>90.02</ele>
        <time>2015-01-17T13:59:23Z</time>
      </trkpt>
      <trkpt lat="44.51954" lon="1.00407">
        <ele>88.58</ele>
        <time>2015-01-17T13:59:36Z</time>
      </trkpt>
      <trkpt lat="44.51989" lon="1.00346">
        <ele>88.1</ele>
        <time>2015-01-17T13:59:52Z</time>
      </trkpt>
      <trkpt lat="44.52023" lon="1.00294">
        <ele>90.02</ele>
        <time>2015-01-17T14:00:07Z</time>
      </trkpt>
      <trkpt lat="44.52047" lon="1.00256">
        <ele>91.46</ele>
        <time>2015-01-17T14:00:17Z</time>
      </trkpt>
      <trkpt lat="44.52072" lon="1.00228">
        <ele>91.46</ele>
        <time>2015-01-17T14:00:24Z</time>
      </trkpt>
      <trkpt lat="44.5212" lon="1.00181">
        <ele>94.35</ele>
        <time>2015-01-17T14:00:38Z</time>
      </trkpt>
      <trkpt lat="44.52173" lon="1.00126">
        <ele>94.35</ele>
        <time>2015-01-17T14:00:53Z</time>
      </trkpt>
      <trkpt lat="44.52213" lon="1.00095">
        <ele>92.9</ele>
        <time>2015-01-17T14:01:04Z</time>
      </trkpt>
      <trkpt lat="44.52256" lon="1.00073">
        <ele>92.9</ele>
        <time>2015-01-17T14:01:17Z</time>
      </trkpt>
      <trkpt lat="44.52304" lon="1.00047">
        <ele>90.98</ele>
        <time>2015-01-17T14:01:31Z</time>
      </trkpt>
      <trkpt lat="44.52341" lon="1.0002">
        <ele>92.42</ele>
        <time>2015-01-17T14:01:45Z</time>
      </trkpt>
      <trkpt lat="44.52376" lon="1.00004">
        <ele>94.35</ele>
        <time>2015-01-17T14:01:58Z</time>
      </trkpt>
      <trkpt lat="44.52404" lon="0.9998">
        <ele>97.71</ele>
        <time>2015-01-17T14:02:09Z</time>
      </trkpt>
      <trkpt lat="44.52437" lon="0.99979">
        <ele>97.23</ele>
        <time>2015-01-17T14:02:20Z</time>
      </trkpt>
      <trkpt lat="44.52477" lon="0.99985">
        <ele>96.27</ele>
        <time>2015-01-17T14:02:31Z</time>
      </trkpt>
      <trkpt lat="44.52517" lon="0.99986">
        <ele>96.75</ele>
        <time>2015-01-17T14:02:42Z</time>
      </trkpt>
      <trkpt lat="44.52578" lon="0.99982">
        <ele>97.71</ele>
        <time>2015-01-17T14:02:55Z</time>
      </trkpt>
      <trkpt lat="44.52632" lon="0.99974">
        <ele>99.63</ele>
        <time>2015-01-17T14:03:08Z</time>
      </trkpt>
      <trkpt lat="44.52663" lon="0.99959">
        <ele>96.75</ele>
        <time>2015-01-17T14:03:16Z</time>
      </trkpt>
      <trkpt lat="44.52676" lon="0.9995">
        <ele>96.27</ele>
        <time>2015-01-17T14:03:19Z</time>
      </trkpt>
      <trkpt lat="44.52694" lon="0.99934">
        <ele>95.31</ele>
        <time>2015-01-17T14:03:29Z</time>
      </trkpt>
      <trkpt lat="44.52697" lon="0.99937">
        <ele>95.31</ele>
        <time>2015-01-17T14:03:41Z</time>
      </trkpt>
      <trkpt lat="44.52698" lon="0.99939">
        <ele>95.79</ele>
        <time>2015-01-17T14:04:01Z</time>
      </trkpt>
      <trkpt lat="44.52698" lon="0.99938">
        <ele>96.27</ele>
        <time>2015-01-17T14:04:26Z</time>
      </trkpt>
      <trkpt lat="44.52698" lon="0.99938">
        <ele>96.75</ele>
        <time>2015-01-17T14:04:39Z</time>
      </trkpt>
      <trkpt lat="44.52699" lon="0.99939">
        <ele>96.75</ele>
        <time>2015-01-17T14:04:40Z</time>
      </trkpt>
      <trkpt lat="44.5272" lon="0.99973">
        <ele>95.79</ele>
        <time>2015-01-17T14:04:50Z</time>
      </trkpt>
      <trkpt lat="44.52729" lon="0.99988">
        <ele>96.75</ele>
        <time>2015-01-17T14:05:00Z</time>
      </trkpt>
      <trkpt lat="44.52734" lon="0.99984">
        <ele>98.19</ele>
        <time>2015-01-17T14:05:09Z</time>
      </trkpt>
      <trkpt lat="44.52738" lon="0.99978">
        <ele>98.67</ele>
        <time>2015-01-17T14:05:21Z</time>
      </trkpt>
      <trkpt lat="44.52745" lon="0.99973">
        <ele>101.08</ele>
        <time>2015-01-17T14:05:33Z</time>
      </trkpt>
      <trkpt lat="44.52755" lon="0.99963">
        <ele>102.52</ele>
        <time>2015-01-17T14:05:47Z</time>
      </trkpt>
      <trkpt lat="44.52767" lon="0.99953">
        <ele>105.4</ele>
        <time>2015-01-17T14:06:00Z</time>
      </trkpt>
      <trkpt lat="44.52775" lon="0.99945">
        <ele>110.21</ele>
        <time>2015-01-17T14:06:14Z</time>
      </trkpt>
      <trkpt lat="44.52787" lon="0.99933">
        <ele>117.42</ele>
        <time>2015-01-17T14:06:28Z</time>
      </trkpt>
      <trkpt lat="44.52798" lon="0.99924">
        <ele>120.78</ele>
        <time>2015-01-17T14:06:43Z</time>
      </trkpt>
      <trkpt lat="44.52804" lon="0.99915">
        <ele>122.22</ele>
        <time>2015-01-17T14:06:56Z</time>
      </trkpt>
      <trkpt lat="44.52816" lon="0.99914">
        <ele>124.15</ele>
        <time>2015-01-17T14:07:11Z</time>
      </trkpt>
      <trkpt lat="44.52827" lon="0.99914">
        <ele>126.55</ele>
        <time>2015-01-17T14:07:26Z</time>
      </trkpt>
      <trkpt lat="44.52836" lon="0.99914">
        <ele>127.51</ele>
        <time>2015-01-17T14:07:36Z</time>
      </trkpt>
      <trkpt lat="44.5285" lon="0.99913">
        <ele>129.43</ele>
        <time>2015-01-17T14:07:51Z</time>
      </trkpt>
      <trkpt lat="44.52861" lon="0.99915">
        <ele>130.88</ele>
        <time>2015-01-17T14:08:01Z</time>
      </trkpt>
      <trkpt lat="44.52875" lon="0.99914">
        <ele>134.72</ele>
        <time>2015-01-17T14:08:16Z</time>
      </trkpt>
      <trkpt lat="44.52885" lon="0.99913">
        <ele>137.61</ele>
        <time>2015-01-17T14:08:32Z</time>
      </trkpt>
      <trkpt lat="44.52897" lon="0.99912">
        <ele>140.49</ele>
        <time>2015-01-17T14:08:50Z</time>
      </trkpt>
      <trkpt lat="44.52905" lon="0.99911">
        <ele>143.37</ele>
        <time>2015-01-17T14:09:01Z</time>
      </trkpt>
      <trkpt lat="44.52912" lon="0.9991">
        <ele>144.34</ele>
        <time>2015-01-17T14:09:13Z</time>
      </trkpt>
      <trkpt lat="44.52923" lon="0.99905">
        <ele>146.26</ele>
        <time>2015-01-17T14:09:27Z</time>
      </trkpt>
      <trkpt lat="44.52935" lon="0.99901">
        <ele>149.14</ele>
        <time>2015-01-17T14:09:41Z</time>
      </trkpt>
      <trkpt lat="44.52947" lon="0.99894">
        <ele>152.03</ele>
        <time>2015-01-17T14:09:54Z</time>
      </trkpt>
      <trkpt lat="44.52961" lon="0.99887">
        <ele>152.99</ele>
        <time>2015-01-17T14:10:08Z</time>
      </trkpt>
      <trkpt lat="44.52978" lon="0.9988">
        <ele>153.95</ele>
        <time>2015-01-17T14:10:22Z</time>
      </trkpt>
      <trkpt lat="44.52983" lon="0.99878">
        <ele>154.91</ele>
        <time>2015-01-17T14:10:27Z</time>
      </trkpt>
      <trkpt lat="44.52988" lon="0.99871">
        <ele>156.35</ele>
        <time>2015-01-17T14:10:40Z</time>
      </trkpt>
      <trkpt lat="44.5299" lon="0.99869">
        <ele>154.91</ele>
        <time>2015-01-17T14:11:14Z</time>
      </trkpt>
      <trkpt lat="44.5299" lon="0.99871">
        <ele>154.91</ele>
        <time>2015-01-17T14:11:50Z</time>
      </trkpt>
      <trkpt lat="44.52989" lon="0.99872">
        <ele>154.43</ele>
        <time>2015-01-17T14:12:21Z</time>
      </trkpt>
      <trkpt lat="44.5299" lon="0.99872">
        <ele>155.39</ele>
        <time>2015-01-17T14:12:56Z</time>
      </trkpt>
      <trkpt lat="44.52992" lon="0.99871">
        <ele>155.39</ele>
        <time>2015-01-17T14:13:30Z</time>
      </trkpt>
      <trkpt lat="44.52993" lon="0.99871">
        <ele>156.35</ele>
        <time>2015-01-17T14:14:08Z</time>
      </trkpt>
      <trkpt lat="44.52992" lon="0.9987">
        <ele>155.39</ele>
        <time>2015-01-17T14:14:35Z</time>
      </trkpt>
      <trkpt lat="44.52991" lon="0.9987">
        <ele>154.91</ele>
        <time>2015-01-17T14:14:59Z</time>
      </trkpt>
      <trkpt lat="44.52991" lon="0.9987">
        <ele>154.43</ele>
        <time>2015-01-17T14:15:34Z</time>
      </trkpt>
      <trkpt lat="44.52991" lon="0.99871">
        <ele>152.99</ele>
        <time>2015-01-17T14:16:06Z</time>
      </trkpt>
      <trkpt lat="44.52991" lon="0.99872">
        <ele>153.47</ele>
        <time>2015-01-17T14:16:36Z</time>
      </trkpt>
      <trkpt lat="44.52992" lon="0.99872">
        <ele>153.95</ele>
        <time>2015-01-17T14:17:04Z</time>
      </trkpt>
      <trkpt lat="44.5299" lon="0.99869">
        <ele>154.91</ele>
        <time>2015-01-17T14:17:28Z</time>
      </trkpt>
      <trkpt lat="44.5299" lon="0.9987">
        <ele>154.91</ele>
        <time>2015-01-17T14:17:55Z</time>
      </trkpt>
      <trkpt lat="44.52991" lon="0.99871">
        <ele>154.43</ele>
        <time>2015-01-17T14:18:29Z</time>
      </trkpt>
      <trkpt lat="44.52992" lon="0.99872">
        <ele>153.95</ele>
        <time>2015-01-17T14:19:03Z</time>
      </trkpt>
      <trkpt lat="44.52991" lon="0.99873">
        <ele>154.43</ele>
        <time>2015-01-17T14:19:41Z</time>
      </trkpt>
      <trkpt lat="44.5299" lon="0.99872">
        <ele>153.95</ele>
        <time>2015-01-17T14:20:04Z</time>
      </trkpt>
      <trkpt lat="44.5299" lon="0.99874">
        <ele>152.99</ele>
        <time>2015-01-17T14:20:25Z</time>
      </trkpt>
      <trkpt lat="44.5299" lon="0.99874">
        <ele>151.54</ele>
        <time>2015-01-17T14:20:54Z</time>
      </trkpt>
      <trkpt lat="44.52992" lon="0.99873">
        <ele>152.03</ele>
        <time>2015-01-17T14:21:21Z</time>
      </trkpt>
      <trkpt lat="44.52993" lon="0.99872">
        <ele>152.99</ele>
        <time>2015-01-17T14:21:25Z</time>
      </trkpt>
      <trkpt lat="44.5301" lon="0.99855">
        <ele>152.99</ele>
        <time>2015-01-17T14:21:37Z</time>
      </trkpt>
      <trkpt lat="44.53031" lon="0.99834">
        <ele>156.83</ele>
        <time>2015-01-17T14:21:47Z</time>
      </trkpt>
      <trkpt lat="44.53051" lon="0.99804">
        <ele>162.12</ele>
        <time>2015-01-17T14:21:59Z</time>
      </trkpt>
      <trkpt lat="44.53069" lon="0.99774">
        <ele>166.93</ele>
        <time>2015-01-17T14:22:12Z</time>
      </trkpt>
      <trkpt lat="44.53077" lon="0.99752">
        <ele>169.33</ele>
        <time>2015-01-17T14:22:21Z</time>
      </trkpt>
      <trkpt lat="44.53076" lon="0.99749">
        <ele>169.81</ele>
        <time>2015-01-17T14:22:22Z</time>
      </trkpt>
      <trkpt lat="44.53076" lon="0.99746">
        <ele>169.81</ele>
        <time>2015-01-17T14:22:23Z</time>
      </trkpt>
      <trkpt lat="44.53076" lon="0.99743">
        <ele>170.29</ele>
        <time>2015-01-17T14:22:24Z</time>
      </trkpt>
      <trkpt lat="44.53076" lon="0.99739">
        <ele>170.29</ele>
        <time>2015-01-17T14:22:25Z</time>
      </trkpt>
      <trkpt lat="44.53076" lon="0.99736">
        <ele>170.77</ele>
        <time>2015-01-17T14:22:26Z</time>
      </trkpt>
      <trkpt lat="44.53077" lon="0.99733">
        <ele>170.77</ele>
        <time>2015-01-17T14:22:27Z</time>
      </trkpt>
      <trkpt lat="44.53072" lon="0.99701">
        <ele>170.77</ele>
        <time>2015-01-17T14:22:40Z</time>
      </trkpt>
      <trkpt lat="44.5307" lon="0.99694">
        <ele>170.77</ele>
        <time>2015-01-17T14:22:43Z</time>
      </trkpt>
      <trkpt lat="44.53071" lon="0.99693">
        <ele>170.29</ele>
        <time>2015-01-17T14:22:44Z</time>
      </trkpt>
      <trkpt lat="44.53074" lon="0.99693">
        <ele>170.77</ele>
        <time>2015-01-17T14:22:53Z</time>
      </trkpt>
      <trkpt lat="44.53074" lon="0.99692">
        <ele>170.77</ele>
        <time>2015-01-17T14:23:16Z</time>
      </trkpt>
      <trkpt lat="44.53074" lon="0.99692">
        <ele>171.25</ele>
        <time>2015-01-17T14:23:42Z</time>
      </trkpt>
      <trkpt lat="44.53074" lon="0.99692">
        <ele>171.25</ele>
        <time>2015-01-17T14:24:01Z</time>
      </trkpt>
      <trkpt lat="44.53073" lon="0.99692">
        <ele>169.81</ele>
        <time>2015-01-17T14:24:31Z</time>
      </trkpt>
      <trkpt lat="44.53073" lon="0.99692">
        <ele>170.29</ele>
        <time>2015-01-17T14:24:55Z</time>
      </trkpt>
      <trkpt lat="44.53074" lon="0.99691">
        <ele>170.77</ele>
        <time>2015-01-17T14:25:16Z</time>
      </trkpt>
      <trkpt lat="44.53073" lon="0.99694">
        <ele>171.25</ele>
        <time>2015-01-17T14:25:35Z</time>
      </trkpt>
      <trkpt lat="44.53076" lon="0.9969">
        <ele>172.69</ele>
        <time>2015-01-17T14:25:56Z</time>
      </trkpt>
      <trkpt lat="44.53078" lon="0.99691">
        <ele>172.69</ele>
        <time>2015-01-17T14:25:57Z</time>
      </trkpt>
      <trkpt lat="44.53079" lon="0.99692">
        <ele>172.69</ele>
        <time>2015-01-17T14:25:58Z</time>
      </trkpt>
      <trkpt lat="44.53081" lon="0.99693">
        <ele>172.69</ele>
        <time>2015-01-17T14:25:59Z</time>
      </trkpt>
      <trkpt lat="44.53082" lon="0.99694">
        <ele>172.69</ele>
        <time>2015-01-17T14:26:00Z</time>
      </trkpt>
      <trkpt lat="44.53083" lon="0.99695">
        <ele>172.69</ele>
        <time>2015-01-17T14:26:01Z</time>
      </trkpt>
      <trkpt lat="44.53085" lon="0.99695">
        <ele>172.69</ele>
        <time>2015-01-17T14:26:02Z</time>
      </trkpt>
      <trkpt lat="44.53087" lon="0.99695">
        <ele>172.69</ele>
        <time>2015-01-17T14:26:03Z</time>
      </trkpt>
      <trkpt lat="44.53089" lon="0.99696">
        <ele>172.69</ele>
        <time>2015-01-17T14:26:04Z</time>
      </trkpt>
      <trkpt lat="44.53091" lon="0.99697">
        <ele>172.69</ele>
        <time>2015-01-17T14:26:05Z</time>
      </trkpt>
      <trkpt lat="44.53094" lon="0.99697">
        <ele>172.69</ele>
        <time>2015-01-17T14:26:06Z</time>
      </trkpt>
      <trkpt lat="44.53122" lon="0.99695">
        <ele>174.14</ele>
        <time>2015-01-17T14:26:18Z</time>
      </trkpt>
      <trkpt lat="44.53147" lon="0.99671">
        <ele>175.58</ele>
        <time>2015-01-17T14:26:31Z</time>
      </trkpt>
      <trkpt lat="44.53179" lon="0.99632">
        <ele>177.98</ele>
        <time>2015-01-17T14:26:48Z</time>
      </trkpt>
      <trkpt lat="44.53199" lon="0.99597">
        <ele>181.35</ele>
        <time>2015-01-17T14:27:02Z</time>
      </trkpt>
      <trkpt lat="44.53222" lon="0.99573">
        <ele>184.23</ele>
        <time>2015-01-17T14:27:14Z</time>
      </trkpt>
      <trkpt lat="44.53236" lon="0.9954">
        <ele>188.08</ele>
        <time>2015-01-17T14:27:25Z</time>
      </trkpt>
      <trkpt lat="44.53246" lon="0.99506">
        <ele>191.44</ele>
        <time>2015-01-17T14:27:36Z</time>
      </trkpt>
      <trkpt lat="44.53265" lon="0.9948">
        <ele>193.36</ele>
        <time>2015-01-17T14:27:48Z</time>
      </trkpt>
      <trkpt lat="44.53285" lon="0.9947">
        <ele>194.32</ele>
        <time>2015-01-17T14:27:59Z</time>
      </trkpt>
      <trkpt lat="44.53318" lon="0.99463">
        <ele>195.77</ele>
        <time>2015-01-17T14:28:14Z</time>
      </trkpt>
      <trkpt lat="44.53346" lon="0.99454">
        <ele>198.65</ele>
        <time>2015-01-17T14:28:27Z</time>
      </trkpt>
      <trkpt lat="44.53373" lon="0.99448">
        <ele>201.05</ele>
        <time>2015-01-17T14:28:39Z</time>
      </trkpt>
      <trkpt lat="44.53374" lon="0.99448">
        <ele>201.05</ele>
        <time>2015-01-17T14:28:40Z</time>
      </trkpt>
      <trkpt lat="44.53376" lon="0.99448">
        <ele>201.53</ele>
        <time>2015-01-17T14:28:41Z</time>
      </trkpt>
      <trkpt lat="44.53407" lon="0.99441">
        <ele>203.94</ele>
        <time>2015-01-17T14:28:53Z</time>
      </trkpt>
      <trkpt lat="44.53434" lon="0.99435">
        <ele>206.82</ele>
        <time>2015-01-17T14:29:05Z</time>
      </trkpt>
      <trkpt lat="44.53459" lon="0.99423">
        <ele>210.19</ele>
        <time>2015-01-17T14:29:15Z</time>
      </trkpt>
      <trkpt lat="44.53484" lon="0.99405">
        <ele>211.63</ele>
        <time>2015-01-17T14:29:28Z</time>
      </trkpt>
      <trkpt lat="44.53488" lon="0.99401">
        <ele>211.63</ele>
        <time>2015-01-17T14:29:31Z</time>
      </trkpt>
      <trkpt lat="44.5349" lon="0.99399">
        <ele>211.63</ele>
        <time>2015-01-17T14:29:32Z</time>
      </trkpt>
      <trkpt lat="44.53492" lon="0.99398">
        <ele>211.63</ele>
        <time>2015-01-17T14:29:33Z</time>
      </trkpt>
      <trkpt lat="44.53494" lon="0.99396">
        <ele>211.63</ele>
        <time>2015-01-17T14:29:34Z</time>
      </trkpt>
      <trkpt lat="44.53496" lon="0.99395">
        <ele>211.63</ele>
        <time>2015-01-17T14:29:35Z</time>
      </trkpt>
      <trkpt lat="44.53513" lon="0.99378">
        <ele>211.15</ele>
        <time>2015-01-17T14:29:47Z</time>
      </trkpt>
      <trkpt lat="44.53539" lon="0.99357">
        <ele>206.82</ele>
        <time>2015-01-17T14:30:01Z</time>
      </trkpt>
      <trkpt lat="44.53552" lon="0.99348">
        <ele>204.9</ele>
        <time>2015-01-17T14:30:05Z</time>
      </trkpt>
      <trkpt lat="44.5357" lon="0.99336">
        <ele>203.46</ele>
        <time>2015-01-17T14:30:09Z</time>
      </trkpt>
      <trkpt lat="44.53575" lon="0.99333">
        <ele>202.49</ele>
        <time>2015-01-17T14:30:10Z</time>
      </trkpt>
      <trkpt lat="44.53598" lon="0.99318">
        <ele>199.13</ele>
        <time>2015-01-17T14:30:15Z</time>
      </trkpt>
      <trkpt lat="44.53611" lon="0.99311">
        <ele>196.25</ele>
        <time>2015-01-17T14:30:18Z</time>
      </trkpt>
      <trkpt lat="44.53615" lon="0.9931">
        <ele>195.28</ele>
        <time>2015-01-17T14:30:19Z</time>
      </trkpt>
      <trkpt lat="44.5364" lon="0.99308">
        <ele>191.44</ele>
        <time>2015-01-17T14:30:24Z</time>
      </trkpt>
      <trkpt lat="44.5365" lon="0.9931">
        <ele>189.52</ele>
        <time>2015-01-17T14:30:26Z</time>
      </trkpt>
      <trkpt lat="44.53654" lon="0.99311">
        <ele>189.04</ele>
        <time>2015-01-17T14:30:27Z</time>
      </trkpt>
      <trkpt lat="44.53674" lon="0.99316">
        <ele>189.52</ele>
        <time>2015-01-17T14:30:31Z</time>
      </trkpt>
      <trkpt lat="44.53741" lon="0.99333">
        <ele>199.61</ele>
        <time>2015-01-17T14:30:46Z</time>
      </trkpt>
      <trkpt lat="44.53809" lon="0.99364">
        <ele>199.13</ele>
        <time>2015-01-17T14:31:00Z</time>
      </trkpt>
      <trkpt lat="44.53844" lon="0.99379">
        <ele>202.01</ele>
        <time>2015-01-17T14:31:11Z</time>
      </trkpt>
      <trkpt lat="44.53865" lon="0.99361">
        <ele>204.42</ele>
        <time>2015-01-17T14:31:22Z</time>
      </trkpt>
      <trkpt lat="44.53872" lon="0.99347">
        <ele>205.86</ele>
        <time>2015-01-17T14:31:30Z</time>
      </trkpt>
      <trkpt lat="44.53873" lon="0.99345">
        <ele>205.86</ele>
        <time>2015-01-17T14:31:31Z</time>
      </trkpt>
      <trkpt lat="44.53873" lon="0.99343">
        <ele>205.86</ele>
        <time>2015-01-17T14:31:32Z</time>
      </trkpt>
      <trkpt lat="44.53874" lon="0.9934">
        <ele>205.86</ele>
        <time>2015-01-17T14:31:33Z</time>
      </trkpt>
      <trkpt lat="44.53874" lon="0.99338">
        <ele>206.34</ele>
        <time>2015-01-17T14:31:34Z</time>
      </trkpt>
      <trkpt lat="44.53876" lon="0.99337">
        <ele>206.34</ele>
        <time>2015-01-17T14:31:35Z</time>
      </trkpt>
      <trkpt lat="44.53876" lon="0.99335">
        <ele>206.34</ele>
        <time>2015-01-17T14:31:36Z</time>
      </trkpt>
      <trkpt lat="44.53877" lon="0.99333">
        <ele>206.34</ele>
        <time>2015-01-17T14:31:37Z</time>
      </trkpt>
      <trkpt lat="44.53878" lon="0.99331">
        <ele>206.34</ele>
        <time>2015-01-17T14:31:38Z</time>
      </trkpt>
      <trkpt lat="44.53879" lon="0.99328">
        <ele>206.34</ele>
        <time>2015-01-17T14:31:39Z</time>
      </trkpt>
      <trkpt lat="44.5388" lon="0.99327">
        <ele>206.34</ele>
        <time>2015-01-17T14:31:40Z</time>
      </trkpt>
      <trkpt lat="44.5388" lon="0.99325">
        <ele>207.3</ele>
        <time>2015-01-17T14:31:52Z</time>
      </trkpt>
      <trkpt lat="44.5388" lon="0.99322">
        <ele>205.86</ele>
        <time>2015-01-17T14:32:24Z</time>
      </trkpt>
      <trkpt lat="44.53881" lon="0.99319">
        <ele>206.34</ele>
        <time>2015-01-17T14:32:25Z</time>
      </trkpt>
      <trkpt lat="44.53881" lon="0.99317">
        <ele>206.34</ele>
        <time>2015-01-17T14:32:26Z</time>
      </trkpt>
      <trkpt lat="44.53882" lon="0.99315">
        <ele>206.34</ele>
        <time>2015-01-17T14:32:27Z</time>
      </trkpt>
      <trkpt lat="44.53882" lon="0.99312">
        <ele>206.34</ele>
        <time>2015-01-17T14:32:28Z</time>
      </trkpt>
      <trkpt lat="44.53883" lon="0.9931">
        <ele>206.34</ele>
        <time>2015-01-17T14:32:29Z</time>
      </trkpt>
      <trkpt lat="44.53884" lon="0.99307">
        <ele>206.34</ele>
        <time>2015-01-17T14:32:30Z</time>
      </trkpt>
      <trkpt lat="44.53884" lon="0.99305">
        <ele>206.34</ele>
        <time>2015-01-17T14:32:31Z</time>
      </trkpt>
      <trkpt lat="44.53885" lon="0.99303">
        <ele>206.34</ele>
        <time>2015-01-17T14:32:32Z</time>
      </trkpt>
      <trkpt lat="44.53886" lon="0.99301">
        <ele>206.34</ele>
        <time>2015-01-17T14:32:33Z</time>
      </trkpt>
      <trkpt lat="44.53887" lon="0.99298">
        <ele>206.34</ele>
        <time>2015-01-17T14:32:35Z</time>
      </trkpt>
      <trkpt lat="44.53888" lon="0.99292">
        <ele>206.82</ele>
        <time>2015-01-17T14:32:44Z</time>
      </trkpt>
      <trkpt lat="44.53886" lon="0.99291">
        <ele>206.82</ele>
        <time>2015-01-17T14:32:45Z</time>
      </trkpt>
      <trkpt lat="44.53884" lon="0.99291">
        <ele>206.34</ele>
        <time>2015-01-17T14:32:46Z</time>
      </trkpt>
      <trkpt lat="44.53881" lon="0.99291">
        <ele>206.34</ele>
        <time>2015-01-17T14:32:47Z</time>
      </trkpt>
      <trkpt lat="44.53878" lon="0.99292">
        <ele>206.34</ele>
        <time>2015-01-17T14:32:48Z</time>
      </trkpt>
      <trkpt lat="44.53862" lon="0.99287">
        <ele>204.42</ele>
        <time>2015-01-17T14:32:53Z</time>
      </trkpt>
      <trkpt lat="44.53847" lon="0.99283">
        <ele>203.46</ele>
        <time>2015-01-17T14:32:56Z</time>
      </trkpt>
      <trkpt lat="44.53821" lon="0.99261">
        <ele>202.98</ele>
        <time>2015-01-17T14:33:03Z</time>
      </trkpt>
      <trkpt lat="44.53782" lon="0.99249">
        <ele>205.86</ele>
        <time>2015-01-17T14:33:18Z</time>
      </trkpt>
      <trkpt lat="44.53764" lon="0.9924">
        <ele>208.26</ele>
        <time>2015-01-17T14:33:27Z</time>
      </trkpt>
      <trkpt lat="44.53759" lon="0.99221">
        <ele>207.3</ele>
        <time>2015-01-17T14:33:33Z</time>
      </trkpt>
      <trkpt lat="44.53751" lon="0.99189">
        <ele>206.34</ele>
        <time>2015-01-17T14:33:39Z</time>
      </trkpt>
      <trkpt lat="44.53762" lon="0.99159">
        <ele>203.46</ele>
        <time>2015-01-17T14:33:47Z</time>
      </trkpt>
      <trkpt lat="44.5377" lon="0.9916">
        <ele>202.01</ele>
        <time>2015-01-17T14:33:49Z</time>
      </trkpt>
      <trkpt lat="44.53804" lon="0.99165">
        <ele>195.77</ele>
        <time>2015-01-17T14:33:59Z</time>
      </trkpt>
      <trkpt lat="44.53841" lon="0.99152">
        <ele>191.44</ele>
        <time>2015-01-17T14:34:09Z</time>
      </trkpt>
      <trkpt lat="44.53882" lon="0.99124">
        <ele>186.15</ele>
        <time>2015-01-17T14:34:21Z</time>
      </trkpt>
      <trkpt lat="44.5392" lon="0.99085">
        <ele>183.27</ele>
        <time>2015-01-17T14:34:32Z</time>
      </trkpt>
      <trkpt lat="44.53924" lon="0.99079">
        <ele>183.27</ele>
        <time>2015-01-17T14:34:33Z</time>
      </trkpt>
      <trkpt lat="44.53948" lon="0.99038">
        <ele>183.27</ele>
        <time>2015-01-17T14:34:41Z</time>
      </trkpt>
      <trkpt lat="44.53929" lon="0.99022">
        <ele>178.94</ele>
        <time>2015-01-17T14:34:51Z</time>
      </trkpt>
      <trkpt lat="44.53925" lon="0.99022">
        <ele>178.46</ele>
        <time>2015-01-17T14:34:52Z</time>
      </trkpt>
      <trkpt lat="44.53917" lon="0.99023">
        <ele>177.98</ele>
        <time>2015-01-17T14:34:54Z</time>
      </trkpt>
      <trkpt lat="44.53896" lon="0.99019">
        <ele>176.06</ele>
        <time>2015-01-17T14:34:58Z</time>
      </trkpt>
      <trkpt lat="44.53884" lon="0.98999">
        <ele>175.1</ele>
        <time>2015-01-17T14:35:02Z</time>
      </trkpt>
      <trkpt lat="44.5387" lon="0.9897">
        <ele>171.25</ele>
        <time>2015-01-17T14:35:09Z</time>
      </trkpt>
      <trkpt lat="44.53875" lon="0.98961">
        <ele>166.45</ele>
        <time>2015-01-17T14:35:14Z</time>
      </trkpt>
      <trkpt lat="44.53897" lon="0.98956">
        <ele>158.75</ele>
        <time>2015-01-17T14:35:26Z</time>
      </trkpt>
      <trkpt lat="44.53921" lon="0.98949">
        <ele>158.27</ele>
        <time>2015-01-17T14:35:38Z</time>
      </trkpt>
      <trkpt lat="44.53937" lon="0.98936">
        <ele>156.35</ele>
        <time>2015-01-17T14:35:46Z</time>
      </trkpt>
      <trkpt lat="44.53943" lon="0.98926">
        <ele>154.43</ele>
        <time>2015-01-17T14:35:51Z</time>
      </trkpt>
      <trkpt lat="44.53948" lon="0.98906">
        <ele>154.43</ele>
        <time>2015-01-17T14:36:02Z</time>
      </trkpt>
      <trkpt lat="44.53965" lon="0.98889">
        <ele>156.35</ele>
        <time>2015-01-17T14:36:11Z</time>
      </trkpt>
      <trkpt lat="44.53982" lon="0.98868">
        <ele>157.31</ele>
        <time>2015-01-17T14:36:23Z</time>
      </trkpt>
      <trkpt lat="44.54003" lon="0.9885">
        <ele>153.95</ele>
        <time>2015-01-17T14:36:35Z</time>
      </trkpt>
      <trkpt lat="44.54026" lon="0.98836">
        <ele>151.54</ele>
        <time>2015-01-17T14:36:47Z</time>
      </trkpt>
      <trkpt lat="44.54027" lon="0.98836">
        <ele>151.06</ele>
        <time>2015-01-17T14:36:48Z</time>
      </trkpt>
      <trkpt lat="44.54032" lon="0.98833">
        <ele>150.58</ele>
        <time>2015-01-17T14:36:50Z</time>
      </trkpt>
      <trkpt lat="44.54043" lon="0.98828">
        <ele>149.14</ele>
        <time>2015-01-17T14:36:55Z</time>
      </trkpt>
      <trkpt lat="44.54071" lon="0.98812">
        <ele>146.74</ele>
        <time>2015-01-17T14:37:08Z</time>
      </trkpt>
      <trkpt lat="44.54092" lon="0.98798">
        <ele>145.3</ele>
        <time>2015-01-17T14:37:19Z</time>
      </trkpt>
      <trkpt lat="44.54111" lon="0.98771">
        <ele>146.26</ele>
        <time>2015-01-17T14:37:31Z</time>
      </trkpt>
      <trkpt lat="44.54134" lon="0.98747">
        <ele>145.78</ele>
        <time>2015-01-17T14:37:45Z</time>
      </trkpt>
      <trkpt lat="44.54156" lon="0.98722">
        <ele>147.22</ele>
        <time>2015-01-17T14:37:57Z</time>
      </trkpt>
      <trkpt lat="44.54163" lon="0.9871">
        <ele>147.7</ele>
        <time>2015-01-17T14:38:03Z</time>
      </trkpt>
      <trkpt lat="44.54178" lon="0.98679">
        <ele>154.91</ele>
        <time>2015-01-17T14:38:15Z</time>
      </trkpt>
      <trkpt lat="44.5418" lon="0.98676">
        <ele>156.35</ele>
        <time>2015-01-17T14:38:16Z</time>
      </trkpt>
      <trkpt lat="44.5419" lon="0.98654">
        <ele>162.6</ele>
        <time>2015-01-17T14:38:22Z</time>
      </trkpt>
      <trkpt lat="44.54204" lon="0.98634">
        <ele>168.37</ele>
        <time>2015-01-17T14:38:31Z</time>
      </trkpt>
      <trkpt lat="44.54209" lon="0.98628">
        <ele>169.33</ele>
        <time>2015-01-17T14:38:35Z</time>
      </trkpt>
      <trkpt lat="44.54236" lon="0.98607">
        <ele>171.73</ele>
        <time>2015-01-17T14:38:48Z</time>
      </trkpt>
      <trkpt lat="44.54242" lon="0.98605">
        <ele>171.73</ele>
        <time>2015-01-17T14:38:51Z</time>
      </trkpt>
      <trkpt lat="44.54244" lon="0.98593">
        <ele>175.1</ele>
        <time>2015-01-17T14:39:01Z</time>
      </trkpt>
      <trkpt lat="44.54244" lon="0.98589">
        <ele>175.58</ele>
        <time>2015-01-17T14:39:20Z</time>
      </trkpt>
      <trkpt lat="44.54245" lon="0.98589">
        <ele>177.5</ele>
        <time>2015-01-17T14:39:45Z</time>
      </trkpt>
      <trkpt lat="44.54245" lon="0.98588">
        <ele>176.54</ele>
        <time>2015-01-17T14:40:05Z</time>
      </trkpt>
      <trkpt lat="44.54245" lon="0.98586">
        <ele>176.06</ele>
        <time>2015-01-17T14:40:23Z</time>
      </trkpt>
      <trkpt lat="44.54245" lon="0.98586">
        <ele>175.58</ele>
        <time>2015-01-17T14:40:49Z</time>
      </trkpt>
      <trkpt lat="44.54244" lon="0.98587">
        <ele>175.1</ele>
        <time>2015-01-17T14:41:08Z</time>
      </trkpt>
      <trkpt lat="44.54242" lon="0.9858">
        <ele>174.14</ele>
        <time>2015-01-17T14:41:13Z</time>
      </trkpt>
      <trkpt lat="44.54232" lon="0.98548">
        <ele>178.46</ele>
        <time>2015-01-17T14:41:24Z</time>
      </trkpt>
      <trkpt lat="44.54223" lon="0.98493">
        <ele>183.75</ele>
        <time>2015-01-17T14:41:37Z</time>
      </trkpt>
      <trkpt lat="44.54229" lon="0.98464">
        <ele>186.63</ele>
        <time>2015-01-17T14:41:46Z</time>
      </trkpt>
      <trkpt lat="44.54245" lon="0.98433">
        <ele>189.52</ele>
        <time>2015-01-17T14:41:54Z</time>
      </trkpt>
      <trkpt lat="44.54267" lon="0.98398">
        <ele>190.48</ele>
        <time>2015-01-17T14:42:06Z</time>
      </trkpt>
      <trkpt lat="44.54291" lon="0.9838">
        <ele>191.44</ele>
        <time>2015-01-17T14:42:17Z</time>
      </trkpt>
      <trkpt lat="44.54313" lon="0.98357">
        <ele>186.15</ele>
        <time>2015-01-17T14:42:28Z</time>
      </trkpt>
      <trkpt lat="44.54322" lon="0.98314">
        <ele>188.08</ele>
        <time>2015-01-17T14:42:39Z</time>
      </trkpt>
      <trkpt lat="44.54333" lon="0.98257">
        <ele>192.88</ele>
        <time>2015-01-17T14:42:52Z</time>
      </trkpt>
      <trkpt lat="44.54351" lon="0.9822">
        <ele>196.73</ele>
        <time>2015-01-17T14:43:03Z</time>
      </trkpt>
      <trkpt lat="44.5438" lon="0.982">
        <ele>198.65</ele>
        <time>2015-01-17T14:43:15Z</time>
      </trkpt>
      <trkpt lat="44.54423" lon="0.98179">
        <ele>199.13</ele>
        <time>2015-01-17T14:43:30Z</time>
      </trkpt>
      <trkpt lat="44.5444" lon="0.98163">
        <ele>201.53</ele>
        <time>2015-01-17T14:43:38Z</time>
      </trkpt>
      <trkpt lat="44.54442" lon="0.98163">
        <ele>201.53</ele>
        <time>2015-01-17T14:43:39Z</time>
      </trkpt>
      <trkpt lat="44.54444" lon="0.98163">
        <ele>201.53</ele>
        <time>2015-01-17T14:43:40Z</time>
      </trkpt>
      <trkpt lat="44.54446" lon="0.98163">
        <ele>201.53</ele>
        <time>2015-01-17T14:43:41Z</time>
      </trkpt>
      <trkpt lat="44.54447" lon="0.98161">
        <ele>202.01</ele>
        <time>2015-01-17T14:43:53Z</time>
      </trkpt>
      <trkpt lat="44.54447" lon="0.98159">
        <ele>202.98</ele>
        <time>2015-01-17T14:44:15Z</time>
      </trkpt>
      <trkpt lat="44.54448" lon="0.98159">
        <ele>202.98</ele>
        <time>2015-01-17T14:44:36Z</time>
      </trkpt>
      <trkpt lat="44.54447" lon="0.9816">
        <ele>203.46</ele>
        <time>2015-01-17T14:44:58Z</time>
      </trkpt>
      <trkpt lat="44.54449" lon="0.98161">
        <ele>202.98</ele>
        <time>2015-01-17T14:45:11Z</time>
      </trkpt>
      <trkpt lat="44.5445" lon="0.98163">
        <ele>202.98</ele>
        <time>2015-01-17T14:45:12Z</time>
      </trkpt>
      <trkpt lat="44.54451" lon="0.98166">
        <ele>202.49</ele>
        <time>2015-01-17T14:45:13Z</time>
      </trkpt>
      <trkpt lat="44.54452" lon="0.9817">
        <ele>202.49</ele>
        <time>2015-01-17T14:45:14Z</time>
      </trkpt>
      <trkpt lat="44.54453" lon="0.98173">
        <ele>202.49</ele>
        <time>2015-01-17T14:45:15Z</time>
      </trkpt>
      <trkpt lat="44.54455" lon="0.98176">
        <ele>202.49</ele>
        <time>2015-01-17T14:45:16Z</time>
      </trkpt>
      <trkpt lat="44.54456" lon="0.98179">
        <ele>202.49</ele>
        <time>2015-01-17T14:45:17Z</time>
      </trkpt>
      <trkpt lat="44.54458" lon="0.98182">
        <ele>202.49</ele>
        <time>2015-01-17T14:45:18Z</time>
      </trkpt>
      <trkpt lat="44.5446" lon="0.98185">
        <ele>202.98</ele>
        <time>2015-01-17T14:45:19Z</time>
      </trkpt>
      <trkpt lat="44.54487" lon="0.98226">
        <ele>205.86</ele>
        <time>2015-01-17T14:45:33Z</time>
      </trkpt>
      <trkpt lat="44.54526" lon="0.98241">
        <ele>211.63</ele>
        <time>2015-01-17T14:45:47Z</time>
      </trkpt>
      <trkpt lat="44.54534" lon="0.98239">
        <ele>212.59</ele>
        <time>2015-01-17T14:45:51Z</time>
      </trkpt>
      <trkpt lat="44.54535" lon="0.98239">
        <ele>210.67</ele>
        <time>2015-01-17T14:46:03Z</time>
      </trkpt>
      <trkpt lat="44.54535" lon="0.98241">
        <ele>207.78</ele>
        <time>2015-01-17T14:46:12Z</time>
      </trkpt>
      <trkpt lat="44.54538" lon="0.98223">
        <ele>203.94</ele>
        <time>2015-01-17T14:46:21Z</time>
      </trkpt>
      <trkpt lat="44.54539" lon="0.98223">
        <ele>203.46</ele>
        <time>2015-01-17T14:46:39Z</time>
      </trkpt>
      <trkpt lat="44.54546" lon="0.98208">
        <ele>202.49</ele>
        <time>2015-01-17T14:46:46Z</time>
      </trkpt>
      <trkpt lat="44.54548" lon="0.98173">
        <ele>198.65</ele>
        <time>2015-01-17T14:46:52Z</time>
      </trkpt>
      <trkpt lat="44.54554" lon="0.98134">
        <ele>193.84</ele>
        <time>2015-01-17T14:46:57Z</time>
      </trkpt>
      <trkpt lat="44.54582" lon="0.98072">
        <ele>187.11</ele>
        <time>2015-01-17T14:47:04Z</time>
      </trkpt>
      <trkpt lat="44.54596" lon="0.98056">
        <ele>185.67</ele>
        <time>2015-01-17T14:47:07Z</time>
      </trkpt>
      <trkpt lat="44.54604" lon="0.98046">
        <ele>185.19</ele>
        <time>2015-01-17T14:47:13Z</time>
      </trkpt>
      <trkpt lat="44.54605" lon="0.98046">
        <ele>185.67</ele>
        <time>2015-01-17T14:47:24Z</time>
      </trkpt>
      <trkpt lat="44.54608" lon="0.98034">
        <ele>185.67</ele>
        <time>2015-01-17T14:47:29Z</time>
      </trkpt>
      <trkpt lat="44.54612" lon="0.98019">
        <ele>185.67</ele>
        <time>2015-01-17T14:47:32Z</time>
      </trkpt>
      <trkpt lat="44.54615" lon="0.98008">
        <ele>185.19</ele>
        <time>2015-01-17T14:47:34Z</time>
      </trkpt>
      <trkpt lat="44.54629" lon="0.97982">
        <ele>183.75</ele>
        <time>2015-01-17T14:47:39Z</time>
      </trkpt>
      <trkpt lat="44.54653" lon="0.97954">
        <ele>181.35</ele>
        <time>2015-01-17T14:47:47Z</time>
      </trkpt>
      <trkpt lat="44.54665" lon="0.97932">
        <ele>181.83</ele>
        <time>2015-01-17T14:47:51Z</time>
      </trkpt>
      <trkpt lat="44.54682" lon="0.97922">
        <ele>180.87</ele>
        <time>2015-01-17T14:48:03Z</time>
      </trkpt>
      <trkpt lat="44.54685" lon="0.97922">
        <ele>183.75</ele>
        <time>2015-01-17T14:48:29Z</time>
      </trkpt>
      <trkpt lat="44.54685" lon="0.97921">
        <ele>183.75</ele>
        <time>2015-01-17T14:48:37Z</time>
      </trkpt>
      <trkpt lat="44.54698" lon="0.97935">
        <ele>182.31</ele>
        <time>2015-01-17T14:48:46Z</time>
      </trkpt>
      <trkpt lat="44.54712" lon="0.97946">
        <ele>182.31</ele>
        <time>2015-01-17T14:48:54Z</time>
      </trkpt>
      <trkpt lat="44.54729" lon="0.97964">
        <ele>183.75</ele>
        <time>2015-01-17T14:49:04Z</time>
      </trkpt>
      <trkpt lat="44.54751" lon="0.97951">
        <ele>183.75</ele>
        <time>2015-01-17T14:49:14Z</time>
      </trkpt>
      <trkpt lat="44.54773" lon="0.97919">
        <ele>181.83</ele>
        <time>2015-01-17T14:49:25Z</time>
      </trkpt>
      <trkpt lat="44.54793" lon="0.97894">
        <ele>178.94</ele>
        <time>2015-01-17T14:49:34Z</time>
      </trkpt>
      <trkpt lat="44.54823" lon="0.97873">
        <ele>177.98</ele>
        <time>2015-01-17T14:49:44Z</time>
      </trkpt>
      <trkpt lat="44.54853" lon="0.97877">
        <ele>181.35</ele>
        <time>2015-01-17T14:49:54Z</time>
      </trkpt>
      <trkpt lat="44.54881" lon="0.97888">
        <ele>182.79</ele>
        <time>2015-01-17T14:50:05Z</time>
      </trkpt>
      <trkpt lat="44.54884" lon="0.97889">
        <ele>182.79</ele>
        <time>2015-01-17T14:50:06Z</time>
      </trkpt>
      <trkpt lat="44.5492" lon="0.97875">
        <ele>187.59</ele>
        <time>2015-01-17T14:50:19Z</time>
      </trkpt>
      <trkpt lat="44.54938" lon="0.97864">
        <ele>187.59</ele>
        <time>2015-01-17T14:50:29Z</time>
      </trkpt>
      <trkpt lat="44.54942" lon="0.97859">
        <ele>189.04</ele>
        <time>2015-01-17T14:50:32Z</time>
      </trkpt>
      <trkpt lat="44.54946" lon="0.97854">
        <ele>190.48</ele>
        <time>2015-01-17T14:50:34Z</time>
      </trkpt>
      <trkpt lat="44.54949" lon="0.97842">
        <ele>194.8</ele>
        <time>2015-01-17T14:50:42Z</time>
      </trkpt>
      <trkpt lat="44.54949" lon="0.97836">
        <ele>195.77</ele>
        <time>2015-01-17T14:50:45Z</time>
      </trkpt>
      <trkpt lat="44.54953" lon="0.97815">
        <ele>196.73</ele>
        <time>2015-01-17T14:50:56Z</time>
      </trkpt>
      <trkpt lat="44.54958" lon="0.97801">
        <ele>197.21</ele>
        <time>2015-01-17T14:51:08Z</time>
      </trkpt>
      <trkpt lat="44.54958" lon="0.97798">
        <ele>197.21</ele>
        <time>2015-01-17T14:51:29Z</time>
      </trkpt>
      <trkpt lat="44.54959" lon="0.97796">
        <ele>197.21</ele>
        <time>2015-01-17T14:51:34Z</time>
      </trkpt>
      <trkpt lat="44.54974" lon="0.97763">
        <ele>200.57</ele>
        <time>2015-01-17T14:51:48Z</time>
      </trkpt>
      <trkpt lat="44.54976" lon="0.97742">
        <ele>201.05</ele>
        <time>2015-01-17T14:51:56Z</time>
      </trkpt>
      <trkpt lat="44.54975" lon="0.97706">
        <ele>198.65</ele>
        <time>2015-01-17T14:52:08Z</time>
      </trkpt>
      <trkpt lat="44.54974" lon="0.977">
        <ele>196.25</ele>
        <time>2015-01-17T14:52:11Z</time>
      </trkpt>
      <trkpt lat="44.54966" lon="0.97677">
        <ele>190.96</ele>
        <time>2015-01-17T14:52:22Z</time>
      </trkpt>
      <trkpt lat="44.54959" lon="0.97613">
        <ele>188.08</ele>
        <time>2015-01-17T14:52:36Z</time>
      </trkpt>
      <trkpt lat="44.54963" lon="0.97596">
        <ele>187.11</ele>
        <time>2015-01-17T14:52:43Z</time>
      </trkpt>
      <trkpt lat="44.54966" lon="0.97574">
        <ele>187.59</ele>
        <time>2015-01-17T14:52:56Z</time>
      </trkpt>
      <trkpt lat="44.54967" lon="0.97574">
        <ele>187.11</ele>
        <time>2015-01-17T14:53:20Z</time>
      </trkpt>
      <trkpt lat="44.54967" lon="0.97573">
        <ele>186.63</ele>
        <time>2015-01-17T14:53:31Z</time>
      </trkpt>
      <trkpt lat="44.54974" lon="0.9754">
        <ele>190</ele>
        <time>2015-01-17T14:53:42Z</time>
      </trkpt>
      <trkpt lat="44.54972" lon="0.97486">
        <ele>188.56</ele>
        <time>2015-01-17T14:53:52Z</time>
      </trkpt>
      <trkpt lat="44.54966" lon="0.97467">
        <ele>187.59</ele>
        <time>2015-01-17T14:53:56Z</time>
      </trkpt>
      <trkpt lat="44.54958" lon="0.97453">
        <ele>187.11</ele>
        <time>2015-01-17T14:53:59Z</time>
      </trkpt>
      <trkpt lat="44.54948" lon="0.97429">
        <ele>186.63</ele>
        <time>2015-01-17T14:54:03Z</time>
      </trkpt>
      <trkpt lat="44.54954" lon="0.97382">
        <ele>184.71</ele>
        <time>2015-01-17T14:54:13Z</time>
      </trkpt>
      <trkpt lat="44.54957" lon="0.97373">
        <ele>183.27</ele>
        <time>2015-01-17T14:54:16Z</time>
      </trkpt>
      <trkpt lat="44.54964" lon="0.9734">
        <ele>185.67</ele>
        <time>2015-01-17T14:54:26Z</time>
      </trkpt>
      <trkpt lat="44.54968" lon="0.97321">
        <ele>186.63</ele>
        <time>2015-01-17T14:54:31Z</time>
      </trkpt>
      <trkpt lat="44.54983" lon="0.97291">
        <ele>186.15</ele>
        <time>2015-01-17T14:54:42Z</time>
      </trkpt>
      <trkpt lat="44.55008" lon="0.97268">
        <ele>184.71</ele>
        <time>2015-01-17T14:54:51Z</time>
      </trkpt>
      <trkpt lat="44.55022" lon="0.9725">
        <ele>186.15</ele>
        <time>2015-01-17T14:54:56Z</time>
      </trkpt>
      <trkpt lat="44.55035" lon="0.97186">
        <ele>189.52</ele>
        <time>2015-01-17T14:55:05Z</time>
      </trkpt>
      <trkpt lat="44.55047" lon="0.97152">
        <ele>190.96</ele>
        <time>2015-01-17T14:55:09Z</time>
      </trkpt>
      <trkpt lat="44.55051" lon="0.97108">
        <ele>192.4</ele>
        <time>2015-01-17T14:55:14Z</time>
      </trkpt>
      <trkpt lat="44.55053" lon="0.97077">
        <ele>191.44</ele>
        <time>2015-01-17T14:55:19Z</time>
      </trkpt>
      <trkpt lat="44.55064" lon="0.97051">
        <ele>187.11</ele>
        <time>2015-01-17T14:55:25Z</time>
      </trkpt>
      <trkpt lat="44.55075" lon="0.97019">
        <ele>187.59</ele>
        <time>2015-01-17T14:55:32Z</time>
      </trkpt>
      <trkpt lat="44.55081" lon="0.96987">
        <ele>187.59</ele>
        <time>2015-01-17T14:55:38Z</time>
      </trkpt>
      <trkpt lat="44.55096" lon="0.96962">
        <ele>184.71</ele>
        <time>2015-01-17T14:55:44Z</time>
      </trkpt>
      <trkpt lat="44.55106" lon="0.96955">
        <ele>183.27</ele>
        <time>2015-01-17T14:55:47Z</time>
      </trkpt>
      <trkpt lat="44.55125" lon="0.96946">
        <ele>178.46</ele>
        <time>2015-01-17T14:55:52Z</time>
      </trkpt>
      <trkpt lat="44.55133" lon="0.96917">
        <ele>174.14</ele>
        <time>2015-01-17T14:55:58Z</time>
      </trkpt>
      <trkpt lat="44.5514" lon="0.96908">
        <ele>165.48</ele>
        <time>2015-01-17T14:56:11Z</time>
      </trkpt>
      <trkpt lat="44.55141" lon="0.96908">
        <ele>162.12</ele>
        <time>2015-01-17T14:56:27Z</time>
      </trkpt>
      <trkpt lat="44.55141" lon="0.96906">
        <ele>159.24</ele>
        <time>2015-01-17T14:56:42Z</time>
      </trkpt>
      <trkpt lat="44.55139" lon="0.96902">
        <ele>155.87</ele>
        <time>2015-01-17T14:57:08Z</time>
      </trkpt>
      <trkpt lat="44.5514" lon="0.96904">
        <ele>156.83</ele>
        <time>2015-01-17T14:57:30Z</time>
      </trkpt>
      <trkpt lat="44.55152" lon="0.96892">
        <ele>153.47</ele>
        <time>2015-01-17T14:57:47Z</time>
      </trkpt>
      <trkpt lat="44.55183" lon="0.96863">
        <ele>148.66</ele>
        <time>2015-01-17T14:57:55Z</time>
      </trkpt>
      <trkpt lat="44.55188" lon="0.96855">
        <ele>147.7</ele>
        <time>2015-01-17T14:57:57Z</time>
      </trkpt>
      <trkpt lat="44.55196" lon="0.96817">
        <ele>145.3</ele>
        <time>2015-01-17T14:58:02Z</time>
      </trkpt>
      <trkpt lat="44.55193" lon="0.96722">
        <ele>139.53</ele>
        <time>2015-01-17T14:58:13Z</time>
      </trkpt>
      <trkpt lat="44.55191" lon="0.9669">
        <ele>138.57</ele>
        <time>2015-01-17T14:58:17Z</time>
      </trkpt>
      <trkpt lat="44.55195" lon="0.96644">
        <ele>137.61</ele>
        <time>2015-01-17T14:58:22Z</time>
      </trkpt>
      <trkpt lat="44.55212" lon="0.96584">
        <ele>136.64</ele>
        <time>2015-01-17T14:58:30Z</time>
      </trkpt>
      <trkpt lat="44.55248" lon="0.96565">
        <ele>135.2</ele>
        <time>2015-01-17T14:58:39Z</time>
      </trkpt>
      <trkpt lat="44.55254" lon="0.96558">
        <ele>133.76</ele>
        <time>2015-01-17T14:58:49Z</time>
      </trkpt>
      <trkpt lat="44.55254" lon="0.96558">
        <ele>133.76</ele>
        <time>2015-01-17T14:58:51Z</time>
      </trkpt>
      <trkpt lat="44.55255" lon="0.96549">
        <ele>133.28</ele>
        <time>2015-01-17T14:58:56Z</time>
      </trkpt>
      <trkpt lat="44.55253" lon="0.96499">
        <ele>127.99</ele>
        <time>2015-01-17T14:59:07Z</time>
      </trkpt>
      <trkpt lat="44.55253" lon="0.96479">
        <ele>127.03</ele>
        <time>2015-01-17T14:59:10Z</time>
      </trkpt>
      <trkpt lat="44.55267" lon="0.96413">
        <ele>127.03</ele>
        <time>2015-01-17T14:59:20Z</time>
      </trkpt>
      <trkpt lat="44.5527" lon="0.96407">
        <ele>127.03</ele>
        <time>2015-01-17T14:59:21Z</time>
      </trkpt>
      <trkpt lat="44.55278" lon="0.96381">
        <ele>126.55</ele>
        <time>2015-01-17T14:59:25Z</time>
      </trkpt>
      <trkpt lat="44.55284" lon="0.96355">
        <ele>126.07</ele>
        <time>2015-01-17T14:59:29Z</time>
      </trkpt>
      <trkpt lat="44.55291" lon="0.96322">
        <ele>126.55</ele>
        <time>2015-01-17T14:59:34Z</time>
      </trkpt>
      <trkpt lat="44.55291" lon="0.96315">
        <ele>127.03</ele>
        <time>2015-01-17T14:59:35Z</time>
      </trkpt>
      <trkpt lat="44.55293" lon="0.96308">
        <ele>127.03</ele>
        <time>2015-01-17T14:59:36Z</time>
      </trkpt>
      <trkpt lat="44.55294" lon="0.96302">
        <ele>127.51</ele>
        <time>2015-01-17T14:59:37Z</time>
      </trkpt>
      <trkpt lat="44.55295" lon="0.96295">
        <ele>127.51</ele>
        <time>2015-01-17T14:59:38Z</time>
      </trkpt>
      <trkpt lat="44.55299" lon="0.9627">
        <ele>127.51</ele>
        <time>2015-01-17T14:59:42Z</time>
      </trkpt>
      <trkpt lat="44.55298" lon="0.96256">
        <ele>127.51</ele>
        <time>2015-01-17T14:59:44Z</time>
      </trkpt>
      <trkpt lat="44.55295" lon="0.96233">
        <ele>125.59</ele>
        <time>2015-01-17T14:59:47Z</time>
      </trkpt>
      <trkpt lat="44.55281" lon="0.96181">
        <ele>124.15</ele>
        <time>2015-01-17T14:59:54Z</time>
      </trkpt>
      <trkpt lat="44.55278" lon="0.96174">
        <ele>123.67</ele>
        <time>2015-01-17T14:59:55Z</time>
      </trkpt>
      <trkpt lat="44.55263" lon="0.96144">
        <ele>121.74</ele>
        <time>2015-01-17T15:00:00Z</time>
      </trkpt>
      <trkpt lat="44.55257" lon="0.96135">
        <ele>121.26</ele>
        <time>2015-01-17T15:00:02Z</time>
      </trkpt>
      <trkpt lat="44.55253" lon="0.9613">
        <ele>120.78</ele>
        <time>2015-01-17T15:00:03Z</time>
      </trkpt>
      <trkpt lat="44.55238" lon="0.96107">
        <ele>119.82</ele>
        <time>2015-01-17T15:00:07Z</time>
      </trkpt>
      <trkpt lat="44.55219" lon="0.96061">
        <ele>115.01</ele>
        <time>2015-01-17T15:00:14Z</time>
      </trkpt>
      <trkpt lat="44.55217" lon="0.96054">
        <ele>114.05</ele>
        <time>2015-01-17T15:00:15Z</time>
      </trkpt>
      <trkpt lat="44.55217" lon="0.96048">
        <ele>113.57</ele>
        <time>2015-01-17T15:00:16Z</time>
      </trkpt>
      <trkpt lat="44.55216" lon="0.96042">
        <ele>113.57</ele>
        <time>2015-01-17T15:00:17Z</time>
      </trkpt>
      <trkpt lat="44.55216" lon="0.96036">
        <ele>113.09</ele>
        <time>2015-01-17T15:00:18Z</time>
      </trkpt>
      <trkpt lat="44.55216" lon="0.9603">
        <ele>113.09</ele>
        <time>2015-01-17T15:00:19Z</time>
      </trkpt>
      <trkpt lat="44.55217" lon="0.96024">
        <ele>113.09</ele>
        <time>2015-01-17T15:00:20Z</time>
      </trkpt>
      <trkpt lat="44.55218" lon="0.96019">
        <ele>113.09</ele>
        <time>2015-01-17T15:00:21Z</time>
      </trkpt>
      <trkpt lat="44.55223" lon="0.96002">
        <ele>112.61</ele>
        <time>2015-01-17T15:00:24Z</time>
      </trkpt>
      <trkpt lat="44.55227" lon="0.9599">
        <ele>111.65</ele>
        <time>2015-01-17T15:00:26Z</time>
      </trkpt>
      <trkpt lat="44.5523" lon="0.95984">
        <ele>111.65</ele>
        <time>2015-01-17T15:00:27Z</time>
      </trkpt>
      <trkpt lat="44.55242" lon="0.95953">
        <ele>108.29</ele>
        <time>2015-01-17T15:00:32Z</time>
      </trkpt>
      <trkpt lat="44.55245" lon="0.95946">
        <ele>107.81</ele>
        <time>2015-01-17T15:00:33Z</time>
      </trkpt>
      <trkpt lat="44.55247" lon="0.95939">
        <ele>107.81</ele>
        <time>2015-01-17T15:00:34Z</time>
      </trkpt>
      <trkpt lat="44.5525" lon="0.95932">
        <ele>107.32</ele>
        <time>2015-01-17T15:00:35Z</time>
      </trkpt>
      <trkpt lat="44.55253" lon="0.95925">
        <ele>107.32</ele>
        <time>2015-01-17T15:00:36Z</time>
      </trkpt>
      <trkpt lat="44.55278" lon="0.95858">
        <ele>106.36</ele>
        <time>2015-01-17T15:00:45Z</time>
      </trkpt>
      <trkpt lat="44.55281" lon="0.95851">
        <ele>106.36</ele>
        <time>2015-01-17T15:00:46Z</time>
      </trkpt>
      <trkpt lat="44.55284" lon="0.95845">
        <ele>106.36</ele>
        <time>2015-01-17T15:00:47Z</time>
      </trkpt>
      <trkpt lat="44.55288" lon="0.9584">
        <ele>106.36</ele>
        <time>2015-01-17T15:00:48Z</time>
      </trkpt>
      <trkpt lat="44.55291" lon="0.95835">
        <ele>106.36</ele>
        <time>2015-01-17T15:00:49Z</time>
      </trkpt>
      <trkpt lat="44.55317" lon="0.95807">
        <ele>106.36</ele>
        <time>2015-01-17T15:00:56Z</time>
      </trkpt>
      <trkpt lat="44.55323" lon="0.95797">
        <ele>106.36</ele>
        <time>2015-01-17T15:00:58Z</time>
      </trkpt>
      <trkpt lat="44.55326" lon="0.95792">
        <ele>106.36</ele>
        <time>2015-01-17T15:00:59Z</time>
      </trkpt>
      <trkpt lat="44.55329" lon="0.95786">
        <ele>106.36</ele>
        <time>2015-01-17T15:01:00Z</time>
      </trkpt>
      <trkpt lat="44.55331" lon="0.95779">
        <ele>106.84</ele>
        <time>2015-01-17T15:01:01Z</time>
      </trkpt>
      <trkpt lat="44.55333" lon="0.95773">
        <ele>106.84</ele>
        <time>2015-01-17T15:01:02Z</time>
      </trkpt>
      <trkpt lat="44.55336" lon="0.9576">
        <ele>106.84</ele>
        <time>2015-01-17T15:01:04Z</time>
      </trkpt>
      <trkpt lat="44.55337" lon="0.95753">
        <ele>106.84</ele>
        <time>2015-01-17T15:01:05Z</time>
      </trkpt>
      <trkpt lat="44.55338" lon="0.9574">
        <ele>107.32</ele>
        <time>2015-01-17T15:01:07Z</time>
      </trkpt>
      <trkpt lat="44.55339" lon="0.95735">
        <ele>107.81</ele>
        <time>2015-01-17T15:01:08Z</time>
      </trkpt>
      <trkpt lat="44.55339" lon="0.95714">
        <ele>108.77</ele>
        <time>2015-01-17T15:01:16Z</time>
      </trkpt>
      <trkpt lat="44.55322" lon="0.95703">
        <ele>109.73</ele>
        <time>2015-01-17T15:01:23Z</time>
      </trkpt>
      <trkpt lat="44.55282" lon="0.95703">
        <ele>109.25</ele>
        <time>2015-01-17T15:01:36Z</time>
      </trkpt>
      <trkpt lat="44.55273" lon="0.95677">
        <ele>106.84</ele>
        <time>2015-01-17T15:01:45Z</time>
      </trkpt>
      <trkpt lat="44.55278" lon="0.95652">
        <ele>106.36</ele>
        <time>2015-01-17T15:01:54Z</time>
      </trkpt>
      <trkpt lat="44.5529" lon="0.95626">
        <ele>109.73</ele>
        <time>2015-01-17T15:02:04Z</time>
      </trkpt>
      <trkpt lat="44.55308" lon="0.956">
        <ele>115.5</ele>
        <time>2015-01-17T15:02:14Z</time>
      </trkpt>
      <trkpt lat="44.55315" lon="0.95589">
        <ele>116.94</ele>
        <time>2015-01-17T15:02:18Z</time>
      </trkpt>
      <trkpt lat="44.5532" lon="0.95551">
        <ele>118.38</ele>
        <time>2015-01-17T15:02:28Z</time>
      </trkpt>
      <trkpt lat="44.5532" lon="0.95548">
        <ele>118.38</ele>
        <time>2015-01-17T15:02:29Z</time>
      </trkpt>
      <trkpt lat="44.55317" lon="0.95511">
        <ele>120.3</ele>
        <time>2015-01-17T15:02:40Z</time>
      </trkpt>
      <trkpt lat="44.55318" lon="0.9549">
        <ele>121.26</ele>
        <time>2015-01-17T15:02:47Z</time>
      </trkpt>
      <trkpt lat="44.55323" lon="0.95477">
        <ele>122.22</ele>
        <time>2015-01-17T15:02:52Z</time>
      </trkpt>
      <trkpt lat="44.55327" lon="0.95441">
        <ele>122.22</ele>
        <time>2015-01-17T15:03:01Z</time>
      </trkpt>
      <trkpt lat="44.55327" lon="0.9543">
        <ele>121.26</ele>
        <time>2015-01-17T15:03:03Z</time>
      </trkpt>
      <trkpt lat="44.55326" lon="0.95387">
        <ele>121.74</ele>
        <time>2015-01-17T15:03:09Z</time>
      </trkpt>
      <trkpt lat="44.55331" lon="0.95343">
        <ele>121.26</ele>
        <time>2015-01-17T15:03:15Z</time>
      </trkpt>
      <trkpt lat="44.55335" lon="0.95322">
        <ele>121.74</ele>
        <time>2015-01-17T15:03:18Z</time>
      </trkpt>
      <trkpt lat="44.55338" lon="0.9531">
        <ele>121.74</ele>
        <time>2015-01-17T15:03:20Z</time>
      </trkpt>
      <trkpt lat="44.55339" lon="0.95278">
        <ele>120.78</ele>
        <time>2015-01-17T15:03:25Z</time>
      </trkpt>
      <trkpt lat="44.55329" lon="0.95207">
        <ele>115.98</ele>
        <time>2015-01-17T15:03:37Z</time>
      </trkpt>
      <trkpt lat="44.55321" lon="0.95143">
        <ele>113.57</ele>
        <time>2015-01-17T15:03:48Z</time>
      </trkpt>
      <trkpt lat="44.55302" lon="0.95095">
        <ele>97.71</ele>
        <time>2015-01-17T15:03:59Z</time>
      </trkpt>
      <trkpt lat="44.5528" lon="0.95053">
        <ele>82.33</ele>
        <time>2015-01-17T15:04:10Z</time>
      </trkpt>
      <trkpt lat="44.55269" lon="0.95044">
        <ele>91.46</ele>
        <time>2015-01-17T15:04:23Z</time>
      </trkpt>
      <trkpt lat="44.55266" lon="0.95041">
        <ele>99.15</ele>
        <time>2015-01-17T15:04:45Z</time>
      </trkpt>
      <trkpt lat="44.55265" lon="0.95041">
        <ele>98.67</ele>
        <time>2015-01-17T15:05:05Z</time>
      </trkpt>
      <trkpt lat="44.55265" lon="0.9504">
        <ele>98.67</ele>
        <time>2015-01-17T15:05:25Z</time>
      </trkpt>
      <trkpt lat="44.55265" lon="0.95041">
        <ele>98.67</ele>
        <time>2015-01-17T15:05:48Z</time>
      </trkpt>
      <trkpt lat="44.55265" lon="0.9504">
        <ele>97.71</ele>
        <time>2015-01-17T15:06:08Z</time>
      </trkpt>
      <trkpt lat="44.55264" lon="0.9504">
        <ele>98.67</ele>
        <time>2015-01-17T15:06:29Z</time>
      </trkpt>
      <trkpt lat="44.55263" lon="0.95039">
        <ele>98.67</ele>
        <time>2015-01-17T15:06:52Z</time>
      </trkpt>
      <trkpt lat="44.55262" lon="0.95039">
        <ele>98.67</ele>
        <time>2015-01-17T15:06:56Z</time>
      </trkpt>
      <trkpt lat="44.55254" lon="0.9504">
        <ele>99.15</ele>
        <time>2015-01-17T15:07:01Z</time>
      </trkpt>
      <trkpt lat="44.55252" lon="0.9504">
        <ele>99.15</ele>
        <time>2015-01-17T15:07:02Z</time>
      </trkpt>
      <trkpt lat="44.5525" lon="0.9504">
        <ele>99.15</ele>
        <time>2015-01-17T15:07:03Z</time>
      </trkpt>
      <trkpt lat="44.55247" lon="0.9504">
        <ele>99.15</ele>
        <time>2015-01-17T15:07:04Z</time>
      </trkpt>
      <trkpt lat="44.55245" lon="0.9504">
        <ele>99.63</ele>
        <time>2015-01-17T15:07:05Z</time>
      </trkpt>
      <trkpt lat="44.55243" lon="0.9504">
        <ele>99.63</ele>
        <time>2015-01-17T15:07:06Z</time>
      </trkpt>
      <trkpt lat="44.5524" lon="0.9504">
        <ele>99.63</ele>
        <time>2015-01-17T15:07:07Z</time>
      </trkpt>
      <trkpt lat="44.55213" lon="0.95039">
        <ele>101.08</ele>
        <time>2015-01-17T15:07:18Z</time>
      </trkpt>
      <trkpt lat="44.5519" lon="0.95038">
        <ele>104.44</ele>
        <time>2015-01-17T15:07:30Z</time>
      </trkpt>
      <trkpt lat="44.55172" lon="0.95036">
        <ele>103.96</ele>
        <time>2015-01-17T15:07:40Z</time>
      </trkpt>
      <trkpt lat="44.55144" lon="0.9503">
        <ele>103.96</ele>
        <time>2015-01-17T15:07:52Z</time>
      </trkpt>
      <trkpt lat="44.55124" lon="0.95035">
        <ele>102.52</ele>
        <time>2015-01-17T15:08:02Z</time>
      </trkpt>
      <trkpt lat="44.5511" lon="0.95041">
        <ele>102.52</ele>
        <time>2015-01-17T15:08:09Z</time>
      </trkpt>
      <trkpt lat="44.55108" lon="0.95042">
        <ele>102.52</ele>
        <time>2015-01-17T15:08:10Z</time>
      </trkpt>
      <trkpt lat="44.55107" lon="0.95044">
        <ele>102.52</ele>
        <time>2015-01-17T15:08:11Z</time>
      </trkpt>
      <trkpt lat="44.55105" lon="0.95045">
        <ele>102.52</ele>
        <time>2015-01-17T15:08:12Z</time>
      </trkpt>
      <trkpt lat="44.55103" lon="0.95045">
        <ele>102.52</ele>
        <time>2015-01-17T15:08:13Z</time>
      </trkpt>
      <trkpt lat="44.55101" lon="0.95046">
        <ele>102.52</ele>
        <time>2015-01-17T15:08:14Z</time>
      </trkpt>
      <trkpt lat="44.55099" lon="0.95047">
        <ele>102.52</ele>
        <time>2015-01-17T15:08:15Z</time>
      </trkpt>
      <trkpt lat="44.55045" lon="0.95051">
        <ele>106.36</ele>
        <time>2015-01-17T15:08:30Z</time>
      </trkpt>
      <trkpt lat="44.54996" lon="0.95041">
        <ele>118.38</ele>
        <time>2015-01-17T15:08:46Z</time>
      </trkpt>
      <trkpt lat="44.54987" lon="0.95041">
        <ele>119.82</ele>
        <time>2015-01-17T15:08:49Z</time>
      </trkpt>
      <trkpt lat="44.5496" lon="0.95034">
        <ele>120.3</ele>
        <time>2015-01-17T15:09:01Z</time>
      </trkpt>
      <trkpt lat="44.54959" lon="0.95033">
        <ele>120.78</ele>
        <time>2015-01-17T15:09:02Z</time>
      </trkpt>
      <trkpt lat="44.54956" lon="0.95032">
        <ele>120.78</ele>
        <time>2015-01-17T15:09:03Z</time>
      </trkpt>
      <trkpt lat="44.54954" lon="0.95032">
        <ele>120.78</ele>
        <time>2015-01-17T15:09:04Z</time>
      </trkpt>
      <trkpt lat="44.54952" lon="0.95031">
        <ele>121.26</ele>
        <time>2015-01-17T15:09:05Z</time>
      </trkpt>
      <trkpt lat="44.54914" lon="0.95015">
        <ele>118.86</ele>
        <time>2015-01-17T15:09:18Z</time>
      </trkpt>
      <trkpt lat="44.54909" lon="0.95013">
        <ele>118.38</ele>
        <time>2015-01-17T15:09:19Z</time>
      </trkpt>
      <trkpt lat="44.54905" lon="0.95011">
        <ele>117.9</ele>
        <time>2015-01-17T15:09:20Z</time>
      </trkpt>
      <trkpt lat="44.5489" lon="0.95002">
        <ele>116.46</ele>
        <time>2015-01-17T15:09:23Z</time>
      </trkpt>
      <trkpt lat="44.54852" lon="0.94984">
        <ele>115.01</ele>
        <time>2015-01-17T15:09:31Z</time>
      </trkpt>
      <trkpt lat="44.54847" lon="0.94983">
        <ele>115.01</ele>
        <time>2015-01-17T15:09:32Z</time>
      </trkpt>
      <trkpt lat="44.54795" lon="0.94976">
        <ele>109.73</ele>
        <time>2015-01-17T15:09:42Z</time>
      </trkpt>
      <trkpt lat="44.54791" lon="0.94975">
        <ele>108.77</ele>
        <time>2015-01-17T15:09:43Z</time>
      </trkpt>
      <trkpt lat="44.54742" lon="0.94985">
        <ele>99.63</ele>
        <time>2015-01-17T15:09:53Z</time>
      </trkpt>
      <trkpt lat="44.54727" lon="0.94993">
        <ele>96.75</ele>
        <time>2015-01-17T15:09:56Z</time>
      </trkpt>
      <trkpt lat="44.54707" lon="0.94995">
        <ele>93.39</ele>
        <time>2015-01-17T15:10:00Z</time>
      </trkpt>
      <trkpt lat="44.54675" lon="0.94996">
        <ele>89.06</ele>
        <time>2015-01-17T15:10:08Z</time>
      </trkpt>
      <trkpt lat="44.54645" lon="0.94979">
        <ele>84.73</ele>
        <time>2015-01-17T15:10:17Z</time>
      </trkpt>
      <trkpt lat="44.54637" lon="0.94977">
        <ele>85.21</ele>
        <time>2015-01-17T15:10:19Z</time>
      </trkpt>
      <trkpt lat="44.54597" lon="0.94963">
        <ele>86.66</ele>
        <time>2015-01-17T15:10:31Z</time>
      </trkpt>
      <trkpt lat="44.54583" lon="0.94937">
        <ele>88.1</ele>
        <time>2015-01-17T15:10:41Z</time>
      </trkpt>
      <trkpt lat="44.54583" lon="0.94938">
        <ele>88.1</ele>
        <time>2015-01-17T15:10:55Z</time>
      </trkpt>
      <trkpt lat="44.54584" lon="0.94941">
        <ele>86.18</ele>
        <time>2015-01-17T15:11:30Z</time>
      </trkpt>
      <trkpt lat="44.54582" lon="0.94943">
        <ele>86.18</ele>
        <time>2015-01-17T15:11:59Z</time>
      </trkpt>
      <trkpt lat="44.54581" lon="0.94943">
        <ele>86.66</ele>
        <time>2015-01-17T15:12:21Z</time>
      </trkpt>
      <trkpt lat="44.54581" lon="0.94944">
        <ele>88.58</ele>
        <time>2015-01-17T15:12:46Z</time>
      </trkpt>
      <trkpt lat="44.54582" lon="0.94944">
        <ele>88.58</ele>
        <time>2015-01-17T15:13:08Z</time>
      </trkpt>
      <trkpt lat="44.54582" lon="0.94946">
        <ele>90.02</ele>
        <time>2015-01-17T15:13:33Z</time>
      </trkpt>
      <trkpt lat="44.54583" lon="0.94946">
        <ele>90.02</ele>
        <time>2015-01-17T15:13:56Z</time>
      </trkpt>
      <trkpt lat="44.54582" lon="0.94946">
        <ele>90.5</ele>
        <time>2015-01-17T15:14:23Z</time>
      </trkpt>
      <trkpt lat="44.54582" lon="0.94946">
        <ele>91.46</ele>
        <time>2015-01-17T15:14:44Z</time>
      </trkpt>
      <trkpt lat="44.5458" lon="0.94946">
        <ele>92.42</ele>
        <time>2015-01-17T15:15:09Z</time>
      </trkpt>
      <trkpt lat="44.5458" lon="0.94947">
        <ele>93.39</ele>
        <time>2015-01-17T15:15:32Z</time>
      </trkpt>
      <trkpt lat="44.54581" lon="0.94946">
        <ele>93.87</ele>
        <time>2015-01-17T15:15:58Z</time>
      </trkpt>
      <trkpt lat="44.54581" lon="0.94945">
        <ele>93.39</ele>
        <time>2015-01-17T15:16:20Z</time>
      </trkpt>
      <trkpt lat="44.54581" lon="0.94944">
        <ele>92.9</ele>
        <time>2015-01-17T15:16:38Z</time>
      </trkpt>
      <trkpt lat="44.54581" lon="0.94943">
        <ele>90.98</ele>
        <time>2015-01-17T15:17:06Z</time>
      </trkpt>
      <trkpt lat="44.5458" lon="0.94943">
        <ele>90.02</ele>
        <time>2015-01-17T15:17:32Z</time>
      </trkpt>
      <trkpt lat="44.54579" lon="0.94942">
        <ele>90.02</ele>
        <time>2015-01-17T15:18:00Z</time>
      </trkpt>
      <trkpt lat="44.54579" lon="0.94942">
        <ele>91.46</ele>
        <time>2015-01-17T15:18:28Z</time>
      </trkpt>
      <trkpt lat="44.5458" lon="0.94942">
        <ele>92.42</ele>
        <time>2015-01-17T15:18:52Z</time>
      </trkpt>
      <trkpt lat="44.54581" lon="0.94942">
        <ele>92.9</ele>
        <time>2015-01-17T15:19:10Z</time>
      </trkpt>
      <trkpt lat="44.54583" lon="0.94944">
        <ele>91.94</ele>
        <time>2015-01-17T15:19:39Z</time>
      </trkpt>
      <trkpt lat="44.54582" lon="0.94945">
        <ele>92.9</ele>
        <time>2015-01-17T15:20:09Z</time>
      </trkpt>
      <trkpt lat="44.5458" lon="0.94944">
        <ele>92.9</ele>
        <time>2015-01-17T15:20:39Z</time>
      </trkpt>
      <trkpt lat="44.5458" lon="0.94944">
        <ele>92.9</ele>
        <time>2015-01-17T15:21:01Z</time>
      </trkpt>
      <trkpt lat="44.54581" lon="0.94944">
        <ele>91.46</ele>
        <time>2015-01-17T15:21:32Z</time>
      </trkpt>
      <trkpt lat="44.54581" lon="0.94943">
        <ele>90.98</ele>
        <time>2015-01-17T15:21:59Z</time>
      </trkpt>
      <trkpt lat="44.5458" lon="0.94944">
        <ele>91.46</ele>
        <time>2015-01-17T15:22:14Z</time>
      </trkpt>
      <trkpt lat="44.5458" lon="0.94946">
        <ele>91.46</ele>
        <time>2015-01-17T15:22:29Z</time>
      </trkpt>
      <trkpt lat="44.54579" lon="0.94947">
        <ele>91.46</ele>
        <time>2015-01-17T15:22:47Z</time>
      </trkpt>
      <trkpt lat="44.54579" lon="0.94947">
        <ele>91.94</ele>
        <time>2015-01-17T15:23:11Z</time>
      </trkpt>
      <trkpt lat="44.54577" lon="0.94949">
        <ele>90.98</ele>
        <time>2015-01-17T15:23:20Z</time>
      </trkpt>
      <trkpt lat="44.54572" lon="0.94949">
        <ele>91.46</ele>
        <time>2015-01-17T15:23:25Z</time>
      </trkpt>
      <trkpt lat="44.54571" lon="0.94948">
        <ele>91.94</ele>
        <time>2015-01-17T15:23:26Z</time>
      </trkpt>
      <trkpt lat="44.54571" lon="0.94946">
        <ele>91.94</ele>
        <time>2015-01-17T15:23:27Z</time>
      </trkpt>
      <trkpt lat="44.54569" lon="0.94945">
        <ele>91.94</ele>
        <time>2015-01-17T15:23:28Z</time>
      </trkpt>
      <trkpt lat="44.54568" lon="0.94944">
        <ele>91.94</ele>
        <time>2015-01-17T15:23:29Z</time>
      </trkpt>
      <trkpt lat="44.54567" lon="0.94943">
        <ele>91.94</ele>
        <time>2015-01-17T15:23:30Z</time>
      </trkpt>
      <trkpt lat="44.54565" lon="0.94942">
        <ele>91.94</ele>
        <time>2015-01-17T15:23:31Z</time>
      </trkpt>
      <trkpt lat="44.54563" lon="0.9494">
        <ele>91.94</ele>
        <time>2015-01-17T15:23:32Z</time>
      </trkpt>
      <trkpt lat="44.54561" lon="0.94939">
        <ele>92.42</ele>
        <time>2015-01-17T15:23:33Z</time>
      </trkpt>
      <trkpt lat="44.54533" lon="0.94924">
        <ele>96.27</ele>
        <time>2015-01-17T15:23:46Z</time>
      </trkpt>
      <trkpt lat="44.54533" lon="0.94921">
        <ele>96.27</ele>
        <time>2015-01-17T15:23:47Z</time>
      </trkpt>
      <trkpt lat="44.54534" lon="0.94919">
        <ele>96.27</ele>
        <time>2015-01-17T15:23:48Z</time>
      </trkpt>
      <trkpt lat="44.54536" lon="0.94917">
        <ele>96.27</ele>
        <time>2015-01-17T15:23:49Z</time>
      </trkpt>
      <trkpt lat="44.54537" lon="0.94914">
        <ele>96.27</ele>
        <time>2015-01-17T15:23:50Z</time>
      </trkpt>
      <trkpt lat="44.54538" lon="0.94912">
        <ele>96.27</ele>
        <time>2015-01-17T15:23:51Z</time>
      </trkpt>
      <trkpt lat="44.5454" lon="0.9491">
        <ele>96.27</ele>
        <time>2015-01-17T15:23:52Z</time>
      </trkpt>
      <trkpt lat="44.54562" lon="0.94876">
        <ele>93.87</ele>
        <time>2015-01-17T15:24:06Z</time>
      </trkpt>
      <trkpt lat="44.54562" lon="0.94876">
        <ele>93.39</ele>
        <time>2015-01-17T15:24:23Z</time>
      </trkpt>
      <trkpt lat="44.54561" lon="0.94874">
        <ele>93.39</ele>
        <time>2015-01-17T15:24:31Z</time>
      </trkpt>
      <trkpt lat="44.5456" lon="0.94872">
        <ele>93.39</ele>
        <time>2015-01-17T15:24:32Z</time>
      </trkpt>
      <trkpt lat="44.54559" lon="0.94869">
        <ele>93.39</ele>
        <time>2015-01-17T15:24:33Z</time>
      </trkpt>
      <trkpt lat="44.54556" lon="0.94868">
        <ele>93.39</ele>
        <time>2015-01-17T15:24:34Z</time>
      </trkpt>
      <trkpt lat="44.54553" lon="0.94866">
        <ele>93.39</ele>
        <time>2015-01-17T15:24:35Z</time>
      </trkpt>
      <trkpt lat="44.5455" lon="0.94864">
        <ele>93.39</ele>
        <time>2015-01-17T15:24:36Z</time>
      </trkpt>
      <trkpt lat="44.54549" lon="0.9486">
        <ele>93.39</ele>
        <time>2015-01-17T15:24:37Z</time>
      </trkpt>
      <trkpt lat="44.54548" lon="0.94855">
        <ele>93.39</ele>
        <time>2015-01-17T15:24:38Z</time>
      </trkpt>
      <trkpt lat="44.54549" lon="0.94851">
        <ele>93.39</ele>
        <time>2015-01-17T15:24:39Z</time>
      </trkpt>
      <trkpt lat="44.54549" lon="0.94846">
        <ele>93.39</ele>
        <time>2015-01-17T15:24:40Z</time>
      </trkpt>
      <trkpt lat="44.54562" lon="0.94807">
        <ele>94.83</ele>
        <time>2015-01-17T15:24:51Z</time>
      </trkpt>
      <trkpt lat="44.54581" lon="0.94763">
        <ele>96.75</ele>
        <time>2015-01-17T15:25:05Z</time>
      </trkpt>
      <trkpt lat="44.54592" lon="0.94734">
        <ele>98.67</ele>
        <time>2015-01-17T15:25:15Z</time>
      </trkpt>
      <trkpt lat="44.54611" lon="0.94692">
        <ele>101.56</ele>
        <time>2015-01-17T15:25:28Z</time>
      </trkpt>
      <trkpt lat="44.54617" lon="0.94677">
        <ele>103</ele>
        <time>2015-01-17T15:25:33Z</time>
      </trkpt>
      <trkpt lat="44.54617" lon="0.94674">
        <ele>103.48</ele>
        <time>2015-01-17T15:25:34Z</time>
      </trkpt>
      <trkpt lat="44.54618" lon="0.94672">
        <ele>103.96</ele>
        <time>2015-01-17T15:25:35Z</time>
      </trkpt>
      <trkpt lat="44.5462" lon="0.9467">
        <ele>104.44</ele>
        <time>2015-01-17T15:25:36Z</time>
      </trkpt>
      <trkpt lat="44.54622" lon="0.94668">
        <ele>104.44</ele>
        <time>2015-01-17T15:25:37Z</time>
      </trkpt>
      <trkpt lat="44.54623" lon="0.94666">
        <ele>104.92</ele>
        <time>2015-01-17T15:25:38Z</time>
      </trkpt>
      <trkpt lat="44.54647" lon="0.94633">
        <ele>104.44</ele>
        <time>2015-01-17T15:25:51Z</time>
      </trkpt>
      <trkpt lat="44.54656" lon="0.94611">
        <ele>106.36</ele>
        <time>2015-01-17T15:25:58Z</time>
      </trkpt>
      <trkpt lat="44.54661" lon="0.94592">
        <ele>108.29</ele>
        <time>2015-01-17T15:26:03Z</time>
      </trkpt>
      <trkpt lat="44.54648" lon="0.94563">
        <ele>109.73</ele>
        <time>2015-01-17T15:26:13Z</time>
      </trkpt>
      <trkpt lat="44.5461" lon="0.94538">
        <ele>104.92</ele>
        <time>2015-01-17T15:26:24Z</time>
      </trkpt>
      <trkpt lat="44.54602" lon="0.94532">
        <ele>105.88</ele>
        <time>2015-01-17T15:26:34Z</time>
      </trkpt>
      <trkpt lat="44.54601" lon="0.94532">
        <ele>104.44</ele>
        <time>2015-01-17T15:26:52Z</time>
      </trkpt>
      <trkpt lat="44.546" lon="0.94532">
        <ele>103.96</ele>
        <time>2015-01-17T15:26:55Z</time>
      </trkpt>
      <trkpt lat="44.54588" lon="0.94527">
        <ele>102.04</ele>
        <time>2015-01-17T15:27:00Z</time>
      </trkpt>
      <trkpt lat="44.54579" lon="0.94523">
        <ele>101.56</ele>
        <time>2015-01-17T15:27:02Z</time>
      </trkpt>
      <trkpt lat="44.5456" lon="0.94508">
        <ele>100.11</ele>
        <time>2015-01-17T15:27:06Z</time>
      </trkpt>
      <trkpt lat="44.54556" lon="0.94503">
        <ele>99.63</ele>
        <time>2015-01-17T15:27:07Z</time>
      </trkpt>
      <trkpt lat="44.54553" lon="0.94498">
        <ele>99.15</ele>
        <time>2015-01-17T15:27:08Z</time>
      </trkpt>
      <trkpt lat="44.5455" lon="0.94492">
        <ele>98.67</ele>
        <time>2015-01-17T15:27:09Z</time>
      </trkpt>
      <trkpt lat="44.54549" lon="0.94485">
        <ele>98.19</ele>
        <time>2015-01-17T15:27:10Z</time>
      </trkpt>
      <trkpt lat="44.54548" lon="0.94478">
        <ele>97.71</ele>
        <time>2015-01-17T15:27:11Z</time>
      </trkpt>
      <trkpt lat="44.54547" lon="0.94471">
        <ele>97.71</ele>
        <time>2015-01-17T15:27:12Z</time>
      </trkpt>
      <trkpt lat="44.54546" lon="0.94464">
        <ele>97.71</ele>
        <time>2015-01-17T15:27:13Z</time>
      </trkpt>
      <trkpt lat="44.54544" lon="0.94458">
        <ele>97.23</ele>
        <time>2015-01-17T15:27:14Z</time>
      </trkpt>
      <trkpt lat="44.54542" lon="0.94452">
        <ele>97.23</ele>
        <time>2015-01-17T15:27:15Z</time>
      </trkpt>
      <trkpt lat="44.5454" lon="0.94446">
        <ele>97.23</ele>
        <time>2015-01-17T15:27:16Z</time>
      </trkpt>
      <trkpt lat="44.54535" lon="0.94424">
        <ele>95.79</ele>
        <time>2015-01-17T15:27:19Z</time>
      </trkpt>
      <trkpt lat="44.54531" lon="0.94409">
        <ele>95.31</ele>
        <time>2015-01-17T15:27:21Z</time>
      </trkpt>
      <trkpt lat="44.54528" lon="0.94402">
        <ele>94.83</ele>
        <time>2015-01-17T15:27:22Z</time>
      </trkpt>
      <trkpt lat="44.54522" lon="0.94388">
        <ele>94.35</ele>
        <time>2015-01-17T15:27:24Z</time>
      </trkpt>
      <trkpt lat="44.54512" lon="0.9437">
        <ele>93.39</ele>
        <time>2015-01-17T15:27:27Z</time>
      </trkpt>
      <trkpt lat="44.54508" lon="0.94365">
        <ele>92.9</ele>
        <time>2015-01-17T15:27:28Z</time>
      </trkpt>
      <trkpt lat="44.54496" lon="0.9435">
        <ele>92.42</ele>
        <time>2015-01-17T15:27:31Z</time>
      </trkpt>
      <trkpt lat="44.54493" lon="0.94347">
        <ele>92.42</ele>
        <time>2015-01-17T15:27:32Z</time>
      </trkpt>
      <trkpt lat="44.54491" lon="0.94344">
        <ele>92.9</ele>
        <time>2015-01-17T15:27:33Z</time>
      </trkpt>
      <trkpt lat="44.54488" lon="0.94342">
        <ele>92.9</ele>
        <time>2015-01-17T15:27:34Z</time>
      </trkpt>
      <trkpt lat="44.54485" lon="0.9434">
        <ele>92.9</ele>
        <time>2015-01-17T15:27:35Z</time>
      </trkpt>
      <trkpt lat="44.54482" lon="0.94338">
        <ele>92.9</ele>
        <time>2015-01-17T15:27:36Z</time>
      </trkpt>
      <trkpt lat="44.54478" lon="0.94335">
        <ele>92.42</ele>
        <time>2015-01-17T15:27:37Z</time>
      </trkpt>
      <trkpt lat="44.54474" lon="0.94331">
        <ele>92.42</ele>
        <time>2015-01-17T15:27:38Z</time>
      </trkpt>
      <trkpt lat="44.54463" lon="0.9432">
        <ele>91.94</ele>
        <time>2015-01-17T15:27:41Z</time>
      </trkpt>
      <trkpt lat="44.54416" lon="0.94268">
        <ele>90.02</ele>
        <time>2015-01-17T15:27:52Z</time>
      </trkpt>
      <trkpt lat="44.54386" lon="0.94234">
        <ele>89.54</ele>
        <time>2015-01-17T15:28:02Z</time>
      </trkpt>
      <trkpt lat="44.54364" lon="0.94192">
        <ele>93.39</ele>
        <time>2015-01-17T15:28:13Z</time>
      </trkpt>
      <trkpt lat="44.54344" lon="0.94156">
        <ele>94.35</ele>
        <time>2015-01-17T15:28:23Z</time>
      </trkpt>
      <trkpt lat="44.54316" lon="0.94146">
        <ele>93.87</ele>
        <time>2015-01-17T15:28:31Z</time>
      </trkpt>
      <trkpt lat="44.54297" lon="0.94147">
        <ele>94.35</ele>
        <time>2015-01-17T15:28:35Z</time>
      </trkpt>
      <trkpt lat="44.54252" lon="0.94148">
        <ele>93.39</ele>
        <time>2015-01-17T15:28:48Z</time>
      </trkpt>
      <trkpt lat="44.54233" lon="0.94155">
        <ele>95.31</ele>
        <time>2015-01-17T15:28:55Z</time>
      </trkpt>
      <trkpt lat="44.54225" lon="0.94165">
        <ele>95.79</ele>
        <time>2015-01-17T15:28:58Z</time>
      </trkpt>
      <trkpt lat="44.54223" lon="0.94171">
        <ele>96.27</ele>
        <time>2015-01-17T15:28:59Z</time>
      </trkpt>
      <trkpt lat="44.54222" lon="0.94177">
        <ele>96.27</ele>
        <time>2015-01-17T15:29:00Z</time>
      </trkpt>
      <trkpt lat="44.54221" lon="0.94183">
        <ele>96.27</ele>
        <time>2015-01-17T15:29:01Z</time>
      </trkpt>
      <trkpt lat="44.54221" lon="0.9419">
        <ele>96.75</ele>
        <time>2015-01-17T15:29:02Z</time>
      </trkpt>
      <trkpt lat="44.54221" lon="0.94196">
        <ele>96.27</ele>
        <time>2015-01-17T15:29:03Z</time>
      </trkpt>
      <trkpt lat="44.54223" lon="0.94267">
        <ele>94.35</ele>
        <time>2015-01-17T15:29:15Z</time>
      </trkpt>
      <trkpt lat="44.54206" lon="0.9431">
        <ele>94.35</ele>
        <time>2015-01-17T15:29:25Z</time>
      </trkpt>
      <trkpt lat="44.54201" lon="0.9432">
        <ele>94.35</ele>
        <time>2015-01-17T15:29:27Z</time>
      </trkpt>
      <trkpt lat="44.54173" lon="0.94367">
        <ele>93.39</ele>
        <time>2015-01-17T15:29:38Z</time>
      </trkpt>
      <trkpt lat="44.54144" lon="0.94393">
        <ele>94.83</ele>
        <time>2015-01-17T15:29:49Z</time>
      </trkpt>
      <trkpt lat="44.54109" lon="0.94416">
        <ele>93.87</ele>
        <time>2015-01-17T15:30:01Z</time>
      </trkpt>
      <trkpt lat="44.54067" lon="0.94446">
        <ele>94.83</ele>
        <time>2015-01-17T15:30:18Z</time>
      </trkpt>
      <trkpt lat="44.54046" lon="0.94459">
        <ele>95.79</ele>
        <time>2015-01-17T15:30:26Z</time>
      </trkpt>
      <trkpt lat="44.54044" lon="0.94461">
        <ele>96.27</ele>
        <time>2015-01-17T15:30:27Z</time>
      </trkpt>
      <trkpt lat="44.54015" lon="0.94473">
        <ele>94.83</ele>
        <time>2015-01-17T15:30:38Z</time>
      </trkpt>
      <trkpt lat="44.53976" lon="0.9448">
        <ele>94.35</ele>
        <time>2015-01-17T15:30:51Z</time>
      </trkpt>
      <trkpt lat="44.53965" lon="0.94477">
        <ele>94.35</ele>
        <time>2015-01-17T15:30:55Z</time>
      </trkpt>
      <trkpt lat="44.5392" lon="0.94465">
        <ele>91.94</ele>
        <time>2015-01-17T15:31:08Z</time>
      </trkpt>
      <trkpt lat="44.53868" lon="0.94426">
        <ele>89.54</ele>
        <time>2015-01-17T15:31:23Z</time>
      </trkpt>
      <trkpt lat="44.53818" lon="0.94391">
        <ele>90.5</ele>
        <time>2015-01-17T15:31:38Z</time>
      </trkpt>
      <trkpt lat="44.53765" lon="0.94364">
        <ele>90.98</ele>
        <time>2015-01-17T15:31:53Z</time>
      </trkpt>
      <trkpt lat="44.5371" lon="0.94336">
        <ele>90.02</ele>
        <time>2015-01-17T15:32:08Z</time>
      </trkpt>
      <trkpt lat="44.53683" lon="0.94334">
        <ele>90.98</ele>
        <time>2015-01-17T15:32:18Z</time>
      </trkpt>
      <trkpt lat="44.53648" lon="0.94311">
        <ele>90.5</ele>
        <time>2015-01-17T15:32:31Z</time>
      </trkpt>
      <trkpt lat="44.53605" lon="0.9429">
        <ele>90.98</ele>
        <time>2015-01-17T15:32:44Z</time>
      </trkpt>
      <trkpt lat="44.53574" lon="0.94272">
        <ele>90.98</ele>
        <time>2015-01-17T15:32:58Z</time>
      </trkpt>
      <trkpt lat="44.53549" lon="0.94262">
        <ele>90.98</ele>
        <time>2015-01-17T15:33:08Z</time>
      </trkpt>
      <trkpt lat="44.53509" lon="0.9425">
        <ele>90.02</ele>
        <time>2015-01-17T15:33:21Z</time>
      </trkpt>
      <trkpt lat="44.53494" lon="0.94246">
        <ele>89.54</ele>
        <time>2015-01-17T15:33:27Z</time>
      </trkpt>
      <trkpt lat="44.53492" lon="0.94245">
        <ele>89.54</ele>
        <time>2015-01-17T15:33:28Z</time>
      </trkpt>
      <trkpt lat="44.5349" lon="0.94242">
        <ele>89.06</ele>
        <time>2015-01-17T15:33:29Z</time>
      </trkpt>
      <trkpt lat="44.53488" lon="0.94239">
        <ele>89.06</ele>
        <time>2015-01-17T15:33:30Z</time>
      </trkpt>
      <trkpt lat="44.53486" lon="0.94236">
        <ele>89.06</ele>
        <time>2015-01-17T15:33:31Z</time>
      </trkpt>
      <trkpt lat="44.5344" lon="0.94202">
        <ele>87.14</ele>
        <time>2015-01-17T15:33:44Z</time>
      </trkpt>
      <trkpt lat="44.53432" lon="0.94198">
        <ele>86.66</ele>
        <time>2015-01-17T15:33:46Z</time>
      </trkpt>
      <trkpt lat="44.5337" lon="0.94162">
        <ele>82.81</ele>
        <time>2015-01-17T15:34:00Z</time>
      </trkpt>
      <trkpt lat="44.53345" lon="0.94154">
        <ele>83.29</ele>
        <time>2015-01-17T15:34:05Z</time>
      </trkpt>
      <trkpt lat="44.53284" lon="0.94134">
        <ele>83.77</ele>
        <time>2015-01-17T15:34:18Z</time>
      </trkpt>
      <trkpt lat="44.5326" lon="0.94116">
        <ele>84.25</ele>
        <time>2015-01-17T15:34:24Z</time>
      </trkpt>
      <trkpt lat="44.53256" lon="0.94112">
        <ele>84.73</ele>
        <time>2015-01-17T15:34:25Z</time>
      </trkpt>
      <trkpt lat="44.53187" lon="0.94067">
        <ele>85.69</ele>
        <time>2015-01-17T15:34:42Z</time>
      </trkpt>
      <trkpt lat="44.53113" lon="0.94045">
        <ele>88.1</ele>
        <time>2015-01-17T15:35:00Z</time>
      </trkpt>
      <trkpt lat="44.53109" lon="0.94044">
        <ele>88.58</ele>
        <time>2015-01-17T15:35:01Z</time>
      </trkpt>
      <trkpt lat="44.5304" lon="0.94009">
        <ele>89.06</ele>
        <time>2015-01-17T15:35:18Z</time>
      </trkpt>
      <trkpt lat="44.52983" lon="0.93973">
        <ele>88.1</ele>
        <time>2015-01-17T15:35:32Z</time>
      </trkpt>
      <trkpt lat="44.52975" lon="0.93969">
        <ele>88.1</ele>
        <time>2015-01-17T15:35:34Z</time>
      </trkpt>
      <trkpt lat="44.52903" lon="0.93938">
        <ele>90.5</ele>
        <time>2015-01-17T15:35:51Z</time>
      </trkpt>
      <trkpt lat="44.52898" lon="0.93936">
        <ele>90.5</ele>
        <time>2015-01-17T15:35:52Z</time>
      </trkpt>
      <trkpt lat="44.52836" lon="0.9391">
        <ele>91.46</ele>
        <time>2015-01-17T15:36:07Z</time>
      </trkpt>
      <trkpt lat="44.52816" lon="0.93904">
        <ele>91.46</ele>
        <time>2015-01-17T15:36:12Z</time>
      </trkpt>
      <trkpt lat="44.52756" lon="0.93883">
        <ele>89.54</ele>
        <time>2015-01-17T15:36:28Z</time>
      </trkpt>
      <trkpt lat="44.52752" lon="0.93883">
        <ele>89.54</ele>
        <time>2015-01-17T15:36:39Z</time>
      </trkpt>
      <trkpt lat="44.5275" lon="0.93884">
        <ele>89.54</ele>
        <time>2015-01-17T15:36:40Z</time>
      </trkpt>
      <trkpt lat="44.52748" lon="0.93887">
        <ele>89.06</ele>
        <time>2015-01-17T15:36:41Z</time>
      </trkpt>
      <trkpt lat="44.52746" lon="0.93892">
        <ele>89.06</ele>
        <time>2015-01-17T15:36:42Z</time>
      </trkpt>
      <trkpt lat="44.52745" lon="0.93897">
        <ele>89.06</ele>
        <time>2015-01-17T15:36:43Z</time>
      </trkpt>
      <trkpt lat="44.52744" lon="0.93903">
        <ele>89.06</ele>
        <time>2015-01-17T15:36:44Z</time>
      </trkpt>
      <trkpt lat="44.52742" lon="0.9391">
        <ele>89.06</ele>
        <time>2015-01-17T15:36:45Z</time>
      </trkpt>
      <trkpt lat="44.5274" lon="0.93916">
        <ele>88.58</ele>
        <time>2015-01-17T15:36:46Z</time>
      </trkpt>
      <trkpt lat="44.52737" lon="0.93923">
        <ele>88.58</ele>
        <time>2015-01-17T15:36:47Z</time>
      </trkpt>
      <trkpt lat="44.52732" lon="0.93936">
        <ele>87.62</ele>
        <time>2015-01-17T15:36:49Z</time>
      </trkpt>
      <trkpt lat="44.5273" lon="0.93944">
        <ele>86.66</ele>
        <time>2015-01-17T15:36:50Z</time>
      </trkpt>
      <trkpt lat="44.52728" lon="0.93952">
        <ele>86.18</ele>
        <time>2015-01-17T15:36:51Z</time>
      </trkpt>
      <trkpt lat="44.52718" lon="0.94019">
        <ele>82.33</ele>
        <time>2015-01-17T15:36:58Z</time>
      </trkpt>
      <trkpt lat="44.52715" lon="0.94029">
        <ele>81.85</ele>
        <time>2015-01-17T15:36:59Z</time>
      </trkpt>
      <trkpt lat="44.52697" lon="0.94073">
        <ele>81.37</ele>
        <time>2015-01-17T15:37:05Z</time>
      </trkpt>
      <trkpt lat="44.52693" lon="0.94073">
        <ele>81.37</ele>
        <time>2015-01-17T15:37:06Z</time>
      </trkpt>
      <trkpt lat="44.52686" lon="0.94067">
        <ele>81.37</ele>
        <time>2015-01-17T15:37:08Z</time>
      </trkpt>
      <trkpt lat="44.52676" lon="0.94056">
        <ele>81.37</ele>
        <time>2015-01-17T15:37:11Z</time>
      </trkpt>
      <trkpt lat="44.52651" lon="0.94034">
        <ele>80.41</ele>
        <time>2015-01-17T15:37:17Z</time>
      </trkpt>
      <trkpt lat="44.52597" lon="0.93988">
        <ele>79.93</ele>
        <time>2015-01-17T15:37:32Z</time>
      </trkpt>
      <trkpt lat="44.52525" lon="0.93929">
        <ele>78.48</ele>
        <time>2015-01-17T15:37:50Z</time>
      </trkpt>
      <trkpt lat="44.52438" lon="0.93866">
        <ele>78</ele>
        <time>2015-01-17T15:38:10Z</time>
      </trkpt>
      <trkpt lat="44.52365" lon="0.93824">
        <ele>77.52</ele>
        <time>2015-01-17T15:38:26Z</time>
      </trkpt>
      <trkpt lat="44.52309" lon="0.93797">
        <ele>77.52</ele>
        <time>2015-01-17T15:38:39Z</time>
      </trkpt>
      <trkpt lat="44.523" lon="0.93792">
        <ele>77.04</ele>
        <time>2015-01-17T15:38:41Z</time>
      </trkpt>
      <trkpt lat="44.52254" lon="0.93777">
        <ele>77.52</ele>
        <time>2015-01-17T15:38:54Z</time>
      </trkpt>
      <trkpt lat="44.5223" lon="0.93771">
        <ele>77.04</ele>
        <time>2015-01-17T15:39:00Z</time>
      </trkpt>
      <trkpt lat="44.52196" lon="0.93759">
        <ele>76.56</ele>
        <time>2015-01-17T15:39:08Z</time>
      </trkpt>
      <trkpt lat="44.52184" lon="0.93756">
        <ele>76.08</ele>
        <time>2015-01-17T15:39:11Z</time>
      </trkpt>
      <trkpt lat="44.52165" lon="0.93752">
        <ele>76.56</ele>
        <time>2015-01-17T15:39:15Z</time>
      </trkpt>
      <trkpt lat="44.52122" lon="0.93749">
        <ele>80.41</ele>
        <time>2015-01-17T15:39:28Z</time>
      </trkpt>
      <trkpt lat="44.52111" lon="0.9372">
        <ele>85.69</ele>
        <time>2015-01-17T15:39:37Z</time>
      </trkpt>
      <trkpt lat="44.52117" lon="0.93682">
        <ele>86.18</ele>
        <time>2015-01-17T15:39:47Z</time>
      </trkpt>
      <trkpt lat="44.52127" lon="0.93626">
        <ele>85.69</ele>
        <time>2015-01-17T15:40:02Z</time>
      </trkpt>
      <trkpt lat="44.52136" lon="0.93602">
        <ele>87.62</ele>
        <time>2015-01-17T15:40:11Z</time>
      </trkpt>
      <trkpt lat="44.5215" lon="0.93592">
        <ele>89.06</ele>
        <time>2015-01-17T15:40:18Z</time>
      </trkpt>
      <trkpt lat="44.52147" lon="0.93586">
        <ele>91.46</ele>
        <time>2015-01-17T15:40:28Z</time>
      </trkpt>
      <trkpt lat="44.52147" lon="0.93586">
        <ele>92.42</ele>
        <time>2015-01-17T15:40:44Z</time>
      </trkpt>
      <trkpt lat="44.52146" lon="0.93584">
        <ele>91.94</ele>
        <time>2015-01-17T15:41:01Z</time>
      </trkpt>
      <trkpt lat="44.52146" lon="0.93584">
        <ele>91.94</ele>
        <time>2015-01-17T15:41:27Z</time>
      </trkpt>
      <trkpt lat="44.52144" lon="0.93584">
        <ele>92.9</ele>
        <time>2015-01-17T15:41:44Z</time>
      </trkpt>
      <trkpt lat="44.52143" lon="0.9358">
        <ele>93.87</ele>
        <time>2015-01-17T15:41:58Z</time>
      </trkpt>
      <trkpt lat="44.52143" lon="0.93581">
        <ele>94.35</ele>
        <time>2015-01-17T15:42:17Z</time>
      </trkpt>
      <trkpt lat="44.52143" lon="0.9358">
        <ele>94.83</ele>
        <time>2015-01-17T15:42:46Z</time>
      </trkpt>
      <trkpt lat="44.52143" lon="0.9358">
        <ele>93.87</ele>
        <time>2015-01-17T15:42:52Z</time>
      </trkpt>
      <trkpt lat="44.52141" lon="0.93577">
        <ele>93.87</ele>
        <time>2015-01-17T15:43:06Z</time>
      </trkpt>
      <trkpt lat="44.5214" lon="0.93577">
        <ele>93.39</ele>
        <time>2015-01-17T15:43:18Z</time>
      </trkpt>
      <trkpt lat="44.52124" lon="0.93549">
        <ele>94.35</ele>
        <time>2015-01-17T15:43:30Z</time>
      </trkpt>
      <trkpt lat="44.52123" lon="0.93543">
        <ele>94.35</ele>
        <time>2015-01-17T15:43:31Z</time>
      </trkpt>
      <trkpt lat="44.52122" lon="0.93537">
        <ele>94.83</ele>
        <time>2015-01-17T15:43:32Z</time>
      </trkpt>
      <trkpt lat="44.52122" lon="0.93532">
        <ele>94.83</ele>
        <time>2015-01-17T15:43:33Z</time>
      </trkpt>
      <trkpt lat="44.52122" lon="0.93526">
        <ele>95.31</ele>
        <time>2015-01-17T15:43:34Z</time>
      </trkpt>
      <trkpt lat="44.52122" lon="0.9352">
        <ele>95.31</ele>
        <time>2015-01-17T15:43:35Z</time>
      </trkpt>
      <trkpt lat="44.52123" lon="0.93514">
        <ele>95.79</ele>
        <time>2015-01-17T15:43:36Z</time>
      </trkpt>
      <trkpt lat="44.52125" lon="0.93508">
        <ele>95.79</ele>
        <time>2015-01-17T15:43:37Z</time>
      </trkpt>
      <trkpt lat="44.52126" lon="0.93502">
        <ele>95.79</ele>
        <time>2015-01-17T15:43:38Z</time>
      </trkpt>
      <trkpt lat="44.52128" lon="0.93496">
        <ele>95.31</ele>
        <time>2015-01-17T15:43:39Z</time>
      </trkpt>
      <trkpt lat="44.52131" lon="0.9349">
        <ele>95.31</ele>
        <time>2015-01-17T15:43:40Z</time>
      </trkpt>
      <trkpt lat="44.52134" lon="0.93484">
        <ele>94.83</ele>
        <time>2015-01-17T15:43:41Z</time>
      </trkpt>
      <trkpt lat="44.52142" lon="0.93467">
        <ele>93.87</ele>
        <time>2015-01-17T15:43:44Z</time>
      </trkpt>
      <trkpt lat="44.52152" lon="0.93451">
        <ele>93.87</ele>
        <time>2015-01-17T15:43:47Z</time>
      </trkpt>
      <trkpt lat="44.52175" lon="0.93391">
        <ele>93.39</ele>
        <time>2015-01-17T15:43:55Z</time>
      </trkpt>
      <trkpt lat="44.52176" lon="0.93382">
        <ele>93.39</ele>
        <time>2015-01-17T15:43:56Z</time>
      </trkpt>
      <trkpt lat="44.52179" lon="0.93346">
        <ele>92.9</ele>
        <time>2015-01-17T15:44:00Z</time>
      </trkpt>
      <trkpt lat="44.52179" lon="0.93336">
        <ele>92.9</ele>
        <time>2015-01-17T15:44:01Z</time>
      </trkpt>
      <trkpt lat="44.52178" lon="0.93326">
        <ele>92.9</ele>
        <time>2015-01-17T15:44:02Z</time>
      </trkpt>
      <trkpt lat="44.52176" lon="0.93317">
        <ele>92.9</ele>
        <time>2015-01-17T15:44:03Z</time>
      </trkpt>
      <trkpt lat="44.52174" lon="0.93307">
        <ele>92.9</ele>
        <time>2015-01-17T15:44:04Z</time>
      </trkpt>
      <trkpt lat="44.52141" lon="0.93211">
        <ele>89.54</ele>
        <time>2015-01-17T15:44:16Z</time>
      </trkpt>
      <trkpt lat="44.52137" lon="0.93206">
        <ele>89.54</ele>
        <time>2015-01-17T15:44:17Z</time>
      </trkpt>
      <trkpt lat="44.52133" lon="0.93201">
        <ele>89.06</ele>
        <time>2015-01-17T15:44:18Z</time>
      </trkpt>
      <trkpt lat="44.52124" lon="0.93192">
        <ele>88.58</ele>
        <time>2015-01-17T15:44:20Z</time>
      </trkpt>
      <trkpt lat="44.52114" lon="0.93186">
        <ele>87.62</ele>
        <time>2015-01-17T15:44:22Z</time>
      </trkpt>
      <trkpt lat="44.52109" lon="0.93184">
        <ele>87.62</ele>
        <time>2015-01-17T15:44:23Z</time>
      </trkpt>
      <trkpt lat="44.52104" lon="0.93183">
        <ele>87.62</ele>
        <time>2015-01-17T15:44:24Z</time>
      </trkpt>
      <trkpt lat="44.521" lon="0.93182">
        <ele>87.62</ele>
        <time>2015-01-17T15:44:25Z</time>
      </trkpt>
      <trkpt lat="44.52095" lon="0.93183">
        <ele>87.62</ele>
        <time>2015-01-17T15:44:26Z</time>
      </trkpt>
      <trkpt lat="44.5209" lon="0.93184">
        <ele>87.62</ele>
        <time>2015-01-17T15:44:27Z</time>
      </trkpt>
      <trkpt lat="44.52086" lon="0.93185">
        <ele>87.62</ele>
        <time>2015-01-17T15:44:28Z</time>
      </trkpt>
      <trkpt lat="44.52029" lon="0.93213">
        <ele>87.14</ele>
        <time>2015-01-17T15:44:41Z</time>
      </trkpt>
      <trkpt lat="44.51979" lon="0.93237">
        <ele>88.1</ele>
        <time>2015-01-17T15:44:54Z</time>
      </trkpt>
      <trkpt lat="44.5196" lon="0.93249">
        <ele>88.1</ele>
        <time>2015-01-17T15:44:59Z</time>
      </trkpt>
      <trkpt lat="44.519" lon="0.93297">
        <ele>89.06</ele>
        <time>2015-01-17T15:45:15Z</time>
      </trkpt>
      <trkpt lat="44.51852" lon="0.93323">
        <ele>90.02</ele>
        <time>2015-01-17T15:45:27Z</time>
      </trkpt>
      <trkpt lat="44.51848" lon="0.93324">
        <ele>90.02</ele>
        <time>2015-01-17T15:45:28Z</time>
      </trkpt>
      <trkpt lat="44.51794" lon="0.93345">
        <ele>92.9</ele>
        <time>2015-01-17T15:45:43Z</time>
      </trkpt>
      <trkpt lat="44.51745" lon="0.93347">
        <ele>93.87</ele>
        <time>2015-01-17T15:45:58Z</time>
      </trkpt>
      <trkpt lat="44.51704" lon="0.9334">
        <ele>96.27</ele>
        <time>2015-01-17T15:46:13Z</time>
      </trkpt>
      <trkpt lat="44.51702" lon="0.93343">
        <ele>97.23</ele>
        <time>2015-01-17T15:46:26Z</time>
      </trkpt>
      <trkpt lat="44.51702" lon="0.93344">
        <ele>97.23</ele>
        <time>2015-01-17T15:46:41Z</time>
      </trkpt>
      <trkpt lat="44.51703" lon="0.93346">
        <ele>96.75</ele>
        <time>2015-01-17T15:46:42Z</time>
      </trkpt>
      <trkpt lat="44.51703" lon="0.93349">
        <ele>96.75</ele>
        <time>2015-01-17T15:46:43Z</time>
      </trkpt>
      <trkpt lat="44.51704" lon="0.93352">
        <ele>96.75</ele>
        <time>2015-01-17T15:46:44Z</time>
      </trkpt>
      <trkpt lat="44.51704" lon="0.93355">
        <ele>96.75</ele>
        <time>2015-01-17T15:46:45Z</time>
      </trkpt>
      <trkpt lat="44.51704" lon="0.93359">
        <ele>97.23</ele>
        <time>2015-01-17T15:46:46Z</time>
      </trkpt>
      <trkpt lat="44.51704" lon="0.93363">
        <ele>97.23</ele>
        <time>2015-01-17T15:46:47Z</time>
      </trkpt>
      <trkpt lat="44.51705" lon="0.93367">
        <ele>97.23</ele>
        <time>2015-01-17T15:46:48Z</time>
      </trkpt>
      <trkpt lat="44.51705" lon="0.93428">
        <ele>93.87</ele>
        <time>2015-01-17T15:47:00Z</time>
      </trkpt>
      <trkpt lat="44.51699" lon="0.9353">
        <ele>90.5</ele>
        <time>2015-01-17T15:47:11Z</time>
      </trkpt>
      <trkpt lat="44.51697" lon="0.93572">
        <ele>87.62</ele>
        <time>2015-01-17T15:47:15Z</time>
      </trkpt>
      <trkpt lat="44.51695" lon="0.93581">
        <ele>87.14</ele>
        <time>2015-01-17T15:47:16Z</time>
      </trkpt>
      <trkpt lat="44.5169" lon="0.93589">
        <ele>86.18</ele>
        <time>2015-01-17T15:47:17Z</time>
      </trkpt>
      <trkpt lat="44.51685" lon="0.93594">
        <ele>85.21</ele>
        <time>2015-01-17T15:47:18Z</time>
      </trkpt>
      <trkpt lat="44.51679" lon="0.93598">
        <ele>84.73</ele>
        <time>2015-01-17T15:47:19Z</time>
      </trkpt>
      <trkpt lat="44.51674" lon="0.93602">
        <ele>83.77</ele>
        <time>2015-01-17T15:47:20Z</time>
      </trkpt>
      <trkpt lat="44.51671" lon="0.93607">
        <ele>83.77</ele>
        <time>2015-01-17T15:47:21Z</time>
      </trkpt>
      <trkpt lat="44.51668" lon="0.93612">
        <ele>83.77</ele>
        <time>2015-01-17T15:47:22Z</time>
      </trkpt>
      <trkpt lat="44.51667" lon="0.93617">
        <ele>83.77</ele>
        <time>2015-01-17T15:47:23Z</time>
      </trkpt>
      <trkpt lat="44.51667" lon="0.93622">
        <ele>83.77</ele>
        <time>2015-01-17T15:47:24Z</time>
      </trkpt>
      <trkpt lat="44.51667" lon="0.93626">
        <ele>83.77</ele>
        <time>2015-01-17T15:47:25Z</time>
      </trkpt>
      <trkpt lat="44.51667" lon="0.9363">
        <ele>84.25</ele>
        <time>2015-01-17T15:47:26Z</time>
      </trkpt>
      <trkpt lat="44.51667" lon="0.93634">
        <ele>83.77</ele>
        <time>2015-01-17T15:47:27Z</time>
      </trkpt>
      <trkpt lat="44.51667" lon="0.93637">
        <ele>83.29</ele>
        <time>2015-01-17T15:47:28Z</time>
      </trkpt>
      <trkpt lat="44.51668" lon="0.93641">
        <ele>83.29</ele>
        <time>2015-01-17T15:47:29Z</time>
      </trkpt>
      <trkpt lat="44.51668" lon="0.93645">
        <ele>82.81</ele>
        <time>2015-01-17T15:47:30Z</time>
      </trkpt>
      <trkpt lat="44.51667" lon="0.93649">
        <ele>82.81</ele>
        <time>2015-01-17T15:47:31Z</time>
      </trkpt>
      <trkpt lat="44.51666" lon="0.93652">
        <ele>82.33</ele>
        <time>2015-01-17T15:47:32Z</time>
      </trkpt>
      <trkpt lat="44.51665" lon="0.93655">
        <ele>81.85</ele>
        <time>2015-01-17T15:47:33Z</time>
      </trkpt>
      <trkpt lat="44.51665" lon="0.93657">
        <ele>81.85</ele>
        <time>2015-01-17T15:47:34Z</time>
      </trkpt>
      <trkpt lat="44.51654" lon="0.9366">
        <ele>79.93</ele>
        <time>2015-01-17T15:47:42Z</time>
      </trkpt>
      <trkpt lat="44.51614" lon="0.93651">
        <ele>78</ele>
        <time>2015-01-17T15:47:56Z</time>
      </trkpt>
      <trkpt lat="44.5156" lon="0.93656">
        <ele>78.48</ele>
        <time>2015-01-17T15:48:12Z</time>
      </trkpt>
      <trkpt lat="44.51506" lon="0.93667">
        <ele>77.04</ele>
        <time>2015-01-17T15:48:26Z</time>
      </trkpt>
      <trkpt lat="44.51457" lon="0.93679">
        <ele>77.04</ele>
        <time>2015-01-17T15:48:39Z</time>
      </trkpt>
      <trkpt lat="44.51407" lon="0.93691">
        <ele>76.56</ele>
        <time>2015-01-17T15:48:52Z</time>
      </trkpt>
      <trkpt lat="44.51368" lon="0.93703">
        <ele>76.56</ele>
        <time>2015-01-17T15:49:02Z</time>
      </trkpt>
      <trkpt lat="44.51364" lon="0.93705">
        <ele>76.56</ele>
        <time>2015-01-17T15:49:03Z</time>
      </trkpt>
      <trkpt lat="44.5136" lon="0.93707">
        <ele>76.08</ele>
        <time>2015-01-17T15:49:04Z</time>
      </trkpt>
      <trkpt lat="44.51343" lon="0.93714">
        <ele>75.6</ele>
        <time>2015-01-17T15:49:08Z</time>
      </trkpt>
      <trkpt lat="44.51339" lon="0.93716">
        <ele>76.08</ele>
        <time>2015-01-17T15:49:09Z</time>
      </trkpt>
      <trkpt lat="44.51327" lon="0.93722">
        <ele>75.6</ele>
        <time>2015-01-17T15:49:12Z</time>
      </trkpt>
      <trkpt lat="44.51269" lon="0.93749">
        <ele>75.12</ele>
        <time>2015-01-17T15:49:26Z</time>
      </trkpt>
      <trkpt lat="44.51266" lon="0.93752">
        <ele>75.12</ele>
        <time>2015-01-17T15:49:27Z</time>
      </trkpt>
      <trkpt lat="44.51262" lon="0.93753">
        <ele>75.6</ele>
        <time>2015-01-17T15:49:28Z</time>
      </trkpt>
      <trkpt lat="44.51205" lon="0.93781">
        <ele>75.12</ele>
        <time>2015-01-17T15:49:43Z</time>
      </trkpt>
      <trkpt lat="44.51158" lon="0.93812">
        <ele>76.08</ele>
        <time>2015-01-17T15:49:56Z</time>
      </trkpt>
      <trkpt lat="44.51156" lon="0.93817">
        <ele>76.08</ele>
        <time>2015-01-17T15:49:57Z</time>
      </trkpt>
      <trkpt lat="44.51155" lon="0.9382">
        <ele>75.6</ele>
        <time>2015-01-17T15:49:58Z</time>
      </trkpt>
      <trkpt lat="44.51153" lon="0.93823">
        <ele>75.6</ele>
        <time>2015-01-17T15:49:59Z</time>
      </trkpt>
      <trkpt lat="44.5115" lon="0.93826">
        <ele>76.08</ele>
        <time>2015-01-17T15:50:00Z</time>
      </trkpt>
      <trkpt lat="44.51147" lon="0.93829">
        <ele>76.08</ele>
        <time>2015-01-17T15:50:01Z</time>
      </trkpt>
      <trkpt lat="44.5111" lon="0.93844">
        <ele>76.08</ele>
        <time>2015-01-17T15:50:12Z</time>
      </trkpt>
      <trkpt lat="44.51063" lon="0.93869">
        <ele>75.12</ele>
        <time>2015-01-17T15:50:25Z</time>
      </trkpt>
      <trkpt lat="44.51016" lon="0.93904">
        <ele>75.6</ele>
        <time>2015-01-17T15:50:38Z</time>
      </trkpt>
      <trkpt lat="44.50986" lon="0.93926">
        <ele>75.6</ele>
        <time>2015-01-17T15:50:47Z</time>
      </trkpt>
      <trkpt lat="44.50949" lon="0.93954">
        <ele>75.6</ele>
        <time>2015-01-17T15:50:57Z</time>
      </trkpt>
      <trkpt lat="44.50891" lon="0.93996">
        <ele>77.52</ele>
        <time>2015-01-17T15:51:12Z</time>
      </trkpt>
      <trkpt lat="44.50887" lon="0.93999">
        <ele>77.52</ele>
        <time>2015-01-17T15:51:13Z</time>
      </trkpt>
      <trkpt lat="44.50857" lon="0.94022">
        <ele>78</ele>
        <time>2015-01-17T15:51:21Z</time>
      </trkpt>
      <trkpt lat="44.50854" lon="0.94025">
        <ele>78</ele>
        <time>2015-01-17T15:51:22Z</time>
      </trkpt>
      <trkpt lat="44.50834" lon="0.94039">
        <ele>78</ele>
        <time>2015-01-17T15:51:27Z</time>
      </trkpt>
      <trkpt lat="44.5083" lon="0.94042">
        <ele>78.48</ele>
        <time>2015-01-17T15:51:28Z</time>
      </trkpt>
      <trkpt lat="44.50776" lon="0.94086">
        <ele>78.97</ele>
        <time>2015-01-17T15:51:43Z</time>
      </trkpt>
      <trkpt lat="44.50772" lon="0.94089">
        <ele>78.97</ele>
        <time>2015-01-17T15:51:44Z</time>
      </trkpt>
      <trkpt lat="44.50723" lon="0.94123">
        <ele>81.85</ele>
        <time>2015-01-17T15:52:00Z</time>
      </trkpt>
      <trkpt lat="44.50721" lon="0.94126">
        <ele>81.85</ele>
        <time>2015-01-17T15:52:12Z</time>
      </trkpt>
      <trkpt lat="44.50722" lon="0.94126">
        <ele>80.89</ele>
        <time>2015-01-17T15:52:32Z</time>
      </trkpt>
      <trkpt lat="44.50721" lon="0.94127">
        <ele>80.89</ele>
        <time>2015-01-17T15:52:36Z</time>
      </trkpt>
      <trkpt lat="44.5072" lon="0.94129">
        <ele>80.89</ele>
        <time>2015-01-17T15:52:37Z</time>
      </trkpt>
      <trkpt lat="44.50718" lon="0.9413">
        <ele>80.89</ele>
        <time>2015-01-17T15:52:38Z</time>
      </trkpt>
      <trkpt lat="44.50717" lon="0.94133">
        <ele>80.89</ele>
        <time>2015-01-17T15:52:39Z</time>
      </trkpt>
      <trkpt lat="44.50716" lon="0.94135">
        <ele>80.89</ele>
        <time>2015-01-17T15:52:40Z</time>
      </trkpt>
      <trkpt lat="44.50714" lon="0.94138">
        <ele>80.89</ele>
        <time>2015-01-17T15:52:41Z</time>
      </trkpt>
      <trkpt lat="44.507" lon="0.94145">
        <ele>80.41</ele>
        <time>2015-01-17T15:52:45Z</time>
      </trkpt>
      <trkpt lat="44.50686" lon="0.94149">
        <ele>79.45</ele>
        <time>2015-01-17T15:52:48Z</time>
      </trkpt>
      <trkpt lat="44.50651" lon="0.94155">
        <ele>78.48</ele>
        <time>2015-01-17T15:52:54Z</time>
      </trkpt>
      <trkpt lat="44.50646" lon="0.94156">
        <ele>78.48</ele>
        <time>2015-01-17T15:52:55Z</time>
      </trkpt>
      <trkpt lat="44.5064" lon="0.94157">
        <ele>78</ele>
        <time>2015-01-17T15:52:56Z</time>
      </trkpt>
      <trkpt lat="44.50608" lon="0.94157">
        <ele>77.04</ele>
        <time>2015-01-17T15:53:01Z</time>
      </trkpt>
      <trkpt lat="44.50524" lon="0.94168">
        <ele>75.12</ele>
        <time>2015-01-17T15:53:15Z</time>
      </trkpt>
      <trkpt lat="44.50513" lon="0.94169">
        <ele>74.64</ele>
        <time>2015-01-17T15:53:17Z</time>
      </trkpt>
      <trkpt lat="44.50493" lon="0.94171">
        <ele>74.16</ele>
        <time>2015-01-17T15:53:21Z</time>
      </trkpt>
      <trkpt lat="44.50428" lon="0.94175">
        <ele>74.16</ele>
        <time>2015-01-17T15:53:36Z</time>
      </trkpt>
      <trkpt lat="44.50416" lon="0.94176">
        <ele>74.16</ele>
        <time>2015-01-17T15:53:39Z</time>
      </trkpt>
      <trkpt lat="44.50393" lon="0.94178">
        <ele>74.16</ele>
        <time>2015-01-17T15:53:45Z</time>
      </trkpt>
      <trkpt lat="44.50335" lon="0.94183">
        <ele>73.2</ele>
        <time>2015-01-17T15:53:59Z</time>
      </trkpt>
      <trkpt lat="44.50277" lon="0.94188">
        <ele>73.68</ele>
        <time>2015-01-17T15:54:14Z</time>
      </trkpt>
      <trkpt lat="44.50242" lon="0.94188">
        <ele>73.68</ele>
        <time>2015-01-17T15:54:23Z</time>
      </trkpt>
      <trkpt lat="44.50192" lon="0.94195">
        <ele>74.64</ele>
        <time>2015-01-17T15:54:36Z</time>
      </trkpt>
      <trkpt lat="44.50156" lon="0.94202">
        <ele>79.93</ele>
        <time>2015-01-17T15:54:49Z</time>
      </trkpt>
      <trkpt lat="44.50136" lon="0.94205">
        <ele>81.85</ele>
        <time>2015-01-17T15:54:56Z</time>
      </trkpt>
      <trkpt lat="44.50127" lon="0.94206">
        <ele>82.33</ele>
        <time>2015-01-17T15:55:01Z</time>
      </trkpt>
      <trkpt lat="44.50124" lon="0.94205">
        <ele>82.33</ele>
        <time>2015-01-17T15:55:03Z</time>
      </trkpt>
      <trkpt lat="44.50119" lon="0.94208">
        <ele>81.37</ele>
        <time>2015-01-17T15:55:18Z</time>
      </trkpt>
      <trkpt lat="44.50118" lon="0.94208">
        <ele>80.89</ele>
        <time>2015-01-17T15:55:32Z</time>
      </trkpt>
      <trkpt lat="44.50117" lon="0.94208">
        <ele>80.89</ele>
        <time>2015-01-17T15:55:56Z</time>
      </trkpt>
      <trkpt lat="44.50116" lon="0.94208">
        <ele>81.37</ele>
        <time>2015-01-17T15:55:57Z</time>
      </trkpt>
      <trkpt lat="44.50081" lon="0.94216">
        <ele>81.85</ele>
        <time>2015-01-17T15:56:09Z</time>
      </trkpt>
      <trkpt lat="44.50043" lon="0.94216">
        <ele>79.45</ele>
        <time>2015-01-17T15:56:17Z</time>
      </trkpt>
      <trkpt lat="44.5001" lon="0.94205">
        <ele>77.04</ele>
        <time>2015-01-17T15:56:25Z</time>
      </trkpt>
      <trkpt lat="44.49995" lon="0.94204">
        <ele>76.08</ele>
        <time>2015-01-17T15:56:28Z</time>
      </trkpt>
      <trkpt lat="44.4993" lon="0.94213">
        <ele>73.68</ele>
        <time>2015-01-17T15:56:41Z</time>
      </trkpt>
      <trkpt lat="44.49864" lon="0.94217">
        <ele>73.2</ele>
        <time>2015-01-17T15:56:57Z</time>
      </trkpt>
      <trkpt lat="44.49823" lon="0.94222">
        <ele>73.68</ele>
        <time>2015-01-17T15:57:08Z</time>
      </trkpt>
      <trkpt lat="44.49792" lon="0.94232">
        <ele>76.56</ele>
        <time>2015-01-17T15:57:18Z</time>
      </trkpt>
      <trkpt lat="44.4979" lon="0.9423">
        <ele>77.04</ele>
        <time>2015-01-17T15:57:19Z</time>
      </trkpt>
      <trkpt lat="44.49789" lon="0.94227">
        <ele>77.52</ele>
        <time>2015-01-17T15:57:20Z</time>
      </trkpt>
      <trkpt lat="44.49788" lon="0.94223">
        <ele>78</ele>
        <time>2015-01-17T15:57:21Z</time>
      </trkpt>
      <trkpt lat="44.49787" lon="0.94219">
        <ele>78</ele>
        <time>2015-01-17T15:57:22Z</time>
      </trkpt>
      <trkpt lat="44.49787" lon="0.94215">
        <ele>78</ele>
        <time>2015-01-17T15:57:23Z</time>
      </trkpt>
      <trkpt lat="44.49786" lon="0.94211">
        <ele>78</ele>
        <time>2015-01-17T15:57:24Z</time>
      </trkpt>
      <trkpt lat="44.49785" lon="0.94208">
        <ele>78</ele>
        <time>2015-01-17T15:57:25Z</time>
      </trkpt>
      <trkpt lat="44.49782" lon="0.94158">
        <ele>80.89</ele>
        <time>2015-01-17T15:57:38Z</time>
      </trkpt>
      <trkpt lat="44.49776" lon="0.94111">
        <ele>82.33</ele>
        <time>2015-01-17T15:57:50Z</time>
      </trkpt>
      <trkpt lat="44.49757" lon="0.94069">
        <ele>84.73</ele>
        <time>2015-01-17T15:58:02Z</time>
      </trkpt>
      <trkpt lat="44.4973" lon="0.94026">
        <ele>87.14</ele>
        <time>2015-01-17T15:58:16Z</time>
      </trkpt>
      <trkpt lat="44.49708" lon="0.93989">
        <ele>90.02</ele>
        <time>2015-01-17T15:58:28Z</time>
      </trkpt>
      <trkpt lat="44.49706" lon="0.93987">
        <ele>90.5</ele>
        <time>2015-01-17T15:58:29Z</time>
      </trkpt>
      <trkpt lat="44.49704" lon="0.93986">
        <ele>90.98</ele>
        <time>2015-01-17T15:58:30Z</time>
      </trkpt>
      <trkpt lat="44.49703" lon="0.93985">
        <ele>91.46</ele>
        <time>2015-01-17T15:58:31Z</time>
      </trkpt>
      <trkpt lat="44.49699" lon="0.93985">
        <ele>92.42</ele>
        <time>2015-01-17T15:58:46Z</time>
      </trkpt>
      <trkpt lat="44.49698" lon="0.93986">
        <ele>93.39</ele>
        <time>2015-01-17T15:59:16Z</time>
      </trkpt>
      <trkpt lat="44.49699" lon="0.93987">
        <ele>94.35</ele>
        <time>2015-01-17T15:59:36Z</time>
      </trkpt>
      <trkpt lat="44.49699" lon="0.93988">
        <ele>95.31</ele>
        <time>2015-01-17T15:59:58Z</time>
      </trkpt>
      <trkpt lat="44.49697" lon="0.93989">
        <ele>95.79</ele>
        <time>2015-01-17T16:00:26Z</time>
      </trkpt>
      <trkpt lat="44.49694" lon="0.93987">
        <ele>95.79</ele>
        <time>2015-01-17T16:00:35Z</time>
      </trkpt>
      <trkpt lat="44.49692" lon="0.93987">
        <ele>95.79</ele>
        <time>2015-01-17T16:00:36Z</time>
      </trkpt>
      <trkpt lat="44.49691" lon="0.93988">
        <ele>95.79</ele>
        <time>2015-01-17T16:00:37Z</time>
      </trkpt>
      <trkpt lat="44.49689" lon="0.9399">
        <ele>95.79</ele>
        <time>2015-01-17T16:00:38Z</time>
      </trkpt>
      <trkpt lat="44.49688" lon="0.93992">
        <ele>95.79</ele>
        <time>2015-01-17T16:00:39Z</time>
      </trkpt>
      <trkpt lat="44.49686" lon="0.93993">
        <ele>95.79</ele>
        <time>2015-01-17T16:00:40Z</time>
      </trkpt>
      <trkpt lat="44.49684" lon="0.93995">
        <ele>95.79</ele>
        <time>2015-01-17T16:00:41Z</time>
      </trkpt>
      <trkpt lat="44.49682" lon="0.93998">
        <ele>95.31</ele>
        <time>2015-01-17T16:00:42Z</time>
      </trkpt>
      <trkpt lat="44.49672" lon="0.9402">
        <ele>94.83</ele>
        <time>2015-01-17T16:00:47Z</time>
      </trkpt>
      <trkpt lat="44.4967" lon="0.94026">
        <ele>94.35</ele>
        <time>2015-01-17T16:00:48Z</time>
      </trkpt>
      <trkpt lat="44.49657" lon="0.9405">
        <ele>93.39</ele>
        <time>2015-01-17T16:00:52Z</time>
      </trkpt>
      <trkpt lat="44.4965" lon="0.94061">
        <ele>92.42</ele>
        <time>2015-01-17T16:00:54Z</time>
      </trkpt>
      <trkpt lat="44.49606" lon="0.94123">
        <ele>90.02</ele>
        <time>2015-01-17T16:01:07Z</time>
      </trkpt>
      <trkpt lat="44.49577" lon="0.94176">
        <ele>89.06</ele>
        <time>2015-01-17T16:01:17Z</time>
      </trkpt>
      <trkpt lat="44.49572" lon="0.94186">
        <ele>88.1</ele>
        <time>2015-01-17T16:01:19Z</time>
      </trkpt>
      <trkpt lat="44.49568" lon="0.94191">
        <ele>88.1</ele>
        <time>2015-01-17T16:01:20Z</time>
      </trkpt>
      <trkpt lat="44.49565" lon="0.94196">
        <ele>87.62</ele>
        <time>2015-01-17T16:01:21Z</time>
      </trkpt>
      <trkpt lat="44.49499" lon="0.94275">
        <ele>86.18</ele>
        <time>2015-01-17T16:01:35Z</time>
      </trkpt>
      <trkpt lat="44.49495" lon="0.94279">
        <ele>86.66</ele>
        <time>2015-01-17T16:01:36Z</time>
      </trkpt>
      <trkpt lat="44.4945" lon="0.94308">
        <ele>88.1</ele>
        <time>2015-01-17T16:01:48Z</time>
      </trkpt>
      <trkpt lat="44.49401" lon="0.94319">
        <ele>85.21</ele>
        <time>2015-01-17T16:01:57Z</time>
      </trkpt>
      <trkpt lat="44.49352" lon="0.94328">
        <ele>81.37</ele>
        <time>2015-01-17T16:02:03Z</time>
      </trkpt>
      <trkpt lat="44.49344" lon="0.94331">
        <ele>80.89</ele>
        <time>2015-01-17T16:02:04Z</time>
      </trkpt>
      <trkpt lat="44.49337" lon="0.94336">
        <ele>79.93</ele>
        <time>2015-01-17T16:02:05Z</time>
      </trkpt>
      <trkpt lat="44.49331" lon="0.94343">
        <ele>78.97</ele>
        <time>2015-01-17T16:02:06Z</time>
      </trkpt>
      <trkpt lat="44.49325" lon="0.94352">
        <ele>78</ele>
        <time>2015-01-17T16:02:07Z</time>
      </trkpt>
      <trkpt lat="44.49319" lon="0.94361">
        <ele>77.52</ele>
        <time>2015-01-17T16:02:08Z</time>
      </trkpt>
      <trkpt lat="44.49314" lon="0.94371">
        <ele>76.56</ele>
        <time>2015-01-17T16:02:09Z</time>
      </trkpt>
      <trkpt lat="44.49304" lon="0.94389">
        <ele>75.12</ele>
        <time>2015-01-17T16:02:11Z</time>
      </trkpt>
      <trkpt lat="44.49269" lon="0.94442">
        <ele>69.83</ele>
        <time>2015-01-17T16:02:17Z</time>
      </trkpt>
      <trkpt lat="44.49252" lon="0.9447">
        <ele>67.43</ele>
        <time>2015-01-17T16:02:24Z</time>
      </trkpt>
      <trkpt lat="44.49252" lon="0.94474">
        <ele>67.43</ele>
        <time>2015-01-17T16:02:25Z</time>
      </trkpt>
      <trkpt lat="44.49253" lon="0.94479">
        <ele>66.95</ele>
        <time>2015-01-17T16:02:26Z</time>
      </trkpt>
      <trkpt lat="44.49254" lon="0.94483">
        <ele>66.95</ele>
        <time>2015-01-17T16:02:27Z</time>
      </trkpt>
      <trkpt lat="44.49256" lon="0.94487">
        <ele>67.43</ele>
        <time>2015-01-17T16:02:28Z</time>
      </trkpt>
      <trkpt lat="44.49257" lon="0.94492">
        <ele>67.43</ele>
        <time>2015-01-17T16:02:29Z</time>
      </trkpt>
      <trkpt lat="44.49257" lon="0.94496">
        <ele>67.91</ele>
        <time>2015-01-17T16:02:30Z</time>
      </trkpt>
      <trkpt lat="44.49257" lon="0.945">
        <ele>67.91</ele>
        <time>2015-01-17T16:02:31Z</time>
      </trkpt>
      <trkpt lat="44.49257" lon="0.94505">
        <ele>68.39</ele>
        <time>2015-01-17T16:02:32Z</time>
      </trkpt>
      <trkpt lat="44.49256" lon="0.9451">
        <ele>68.87</ele>
        <time>2015-01-17T16:02:33Z</time>
      </trkpt>
      <trkpt lat="44.49254" lon="0.94513">
        <ele>68.87</ele>
        <time>2015-01-17T16:02:34Z</time>
      </trkpt>
      <trkpt lat="44.49251" lon="0.94515">
        <ele>69.83</ele>
        <time>2015-01-17T16:02:35Z</time>
      </trkpt>
      <trkpt lat="44.49248" lon="0.94516">
        <ele>69.83</ele>
        <time>2015-01-17T16:02:36Z</time>
      </trkpt>
      <trkpt lat="44.49245" lon="0.94518">
        <ele>69.83</ele>
        <time>2015-01-17T16:02:37Z</time>
      </trkpt>
      <trkpt lat="44.49242" lon="0.94519">
        <ele>70.31</ele>
        <time>2015-01-17T16:02:38Z</time>
      </trkpt>
      <trkpt lat="44.49239" lon="0.9452">
        <ele>70.31</ele>
        <time>2015-01-17T16:02:39Z</time>
      </trkpt>
      <trkpt lat="44.49206" lon="0.94528">
        <ele>70.31</ele>
        <time>2015-01-17T16:02:50Z</time>
      </trkpt>
      <trkpt lat="44.49176" lon="0.94536">
        <ele>72.24</ele>
        <time>2015-01-17T16:03:00Z</time>
      </trkpt>
      <trkpt lat="44.49146" lon="0.94544">
        <ele>72.72</ele>
        <time>2015-01-17T16:03:08Z</time>
      </trkpt>
      <trkpt lat="44.49142" lon="0.94543">
        <ele>72.72</ele>
        <time>2015-01-17T16:03:09Z</time>
      </trkpt>
      <trkpt lat="44.49138" lon="0.94543">
        <ele>72.72</ele>
        <time>2015-01-17T16:03:10Z</time>
      </trkpt>
      <trkpt lat="44.49098" lon="0.94541">
        <ele>75.12</ele>
        <time>2015-01-17T16:03:21Z</time>
      </trkpt>
      <trkpt lat="44.49053" lon="0.94544">
        <ele>81.85</ele>
        <time>2015-01-17T16:03:33Z</time>
      </trkpt>
      <trkpt lat="44.49021" lon="0.94551">
        <ele>83.29</ele>
        <time>2015-01-17T16:03:42Z</time>
      </trkpt>
      <trkpt lat="44.48983" lon="0.94565">
        <ele>79.93</ele>
        <time>2015-01-17T16:03:52Z</time>
      </trkpt>
      <trkpt lat="44.48944" lon="0.94585">
        <ele>75.12</ele>
        <time>2015-01-17T16:04:03Z</time>
      </trkpt>
      <trkpt lat="44.48931" lon="0.94589">
        <ele>73.2</ele>
        <time>2015-01-17T16:04:07Z</time>
      </trkpt>
      <trkpt lat="44.48921" lon="0.94581">
        <ele>72.24</ele>
        <time>2015-01-17T16:04:11Z</time>
      </trkpt>
      <trkpt lat="44.48912" lon="0.94552">
        <ele>71.76</ele>
        <time>2015-01-17T16:04:19Z</time>
      </trkpt>
      <trkpt lat="44.48909" lon="0.94551">
        <ele>72.72</ele>
        <time>2015-01-17T16:04:20Z</time>
      </trkpt>
      <trkpt lat="44.48907" lon="0.94551">
        <ele>73.2</ele>
        <time>2015-01-17T16:04:21Z</time>
      </trkpt>
      <trkpt lat="44.48905" lon="0.94551">
        <ele>74.16</ele>
        <time>2015-01-17T16:04:22Z</time>
      </trkpt>
      <trkpt lat="44.48902" lon="0.94551">
        <ele>74.64</ele>
        <time>2015-01-17T16:04:23Z</time>
      </trkpt>
      <trkpt lat="44.48898" lon="0.9455">
        <ele>75.6</ele>
        <time>2015-01-17T16:04:24Z</time>
      </trkpt>
      <trkpt lat="44.48887" lon="0.94551">
        <ele>77.04</ele>
        <time>2015-01-17T16:04:27Z</time>
      </trkpt>
      <trkpt lat="44.48884" lon="0.94554">
        <ele>77.04</ele>
        <time>2015-01-17T16:04:28Z</time>
      </trkpt>
      <trkpt lat="44.48881" lon="0.94557">
        <ele>77.52</ele>
        <time>2015-01-17T16:04:29Z</time>
      </trkpt>
      <trkpt lat="44.48879" lon="0.94559">
        <ele>77.52</ele>
        <time>2015-01-17T16:04:30Z</time>
      </trkpt>
      <trkpt lat="44.48877" lon="0.94559">
        <ele>77.52</ele>
        <time>2015-01-17T16:04:31Z</time>
      </trkpt>
      <trkpt lat="44.48875" lon="0.9456">
        <ele>77.52</ele>
        <time>2015-01-17T16:04:32Z</time>
      </trkpt>
      <trkpt lat="44.48874" lon="0.94562">
        <ele>77.52</ele>
        <time>2015-01-17T16:04:33Z</time>
      </trkpt>
      <trkpt lat="44.48872" lon="0.94565">
        <ele>77.04</ele>
        <time>2015-01-17T16:04:34Z</time>
      </trkpt>
      <trkpt lat="44.48859" lon="0.94574">
        <ele>75.12</ele>
        <time>2015-01-17T16:04:38Z</time>
      </trkpt>
      <trkpt lat="44.48857" lon="0.94574">
        <ele>75.12</ele>
        <time>2015-01-17T16:04:39Z</time>
      </trkpt>
      <trkpt lat="44.48856" lon="0.94573">
        <ele>72.24</ele>
        <time>2015-01-17T16:04:50Z</time>
      </trkpt>
      <trkpt lat="44.48856" lon="0.94572">
        <ele>71.27</ele>
        <time>2015-01-17T16:04:55Z</time>
      </trkpt>
      <trkpt lat="44.48854" lon="0.94573">
        <ele>70.79</ele>
        <time>2015-01-17T16:04:56Z</time>
      </trkpt>
      <trkpt lat="44.48852" lon="0.94575">
        <ele>70.79</ele>
        <time>2015-01-17T16:04:57Z</time>
      </trkpt>
      <trkpt lat="44.48833" lon="0.9459">
        <ele>67.91</ele>
        <time>2015-01-17T16:05:03Z</time>
      </trkpt>
      <trkpt lat="44.48829" lon="0.94592">
        <ele>67.91</ele>
        <time>2015-01-17T16:05:04Z</time>
      </trkpt>
      <trkpt lat="44.48825" lon="0.94593">
        <ele>67.91</ele>
        <time>2015-01-17T16:05:05Z</time>
      </trkpt>
      <trkpt lat="44.48821" lon="0.94593">
        <ele>67.91</ele>
        <time>2015-01-17T16:05:06Z</time>
      </trkpt>
      <trkpt lat="44.48803" lon="0.9459">
        <ele>67.43</ele>
        <time>2015-01-17T16:05:10Z</time>
      </trkpt>
      <trkpt lat="44.48779" lon="0.94575">
        <ele>67.43</ele>
        <time>2015-01-17T16:05:16Z</time>
      </trkpt>
      <trkpt lat="44.48742" lon="0.94524">
        <ele>69.35</ele>
        <time>2015-01-17T16:05:30Z</time>
      </trkpt>
      <trkpt lat="44.48734" lon="0.94522">
        <ele>70.31</ele>
        <time>2015-01-17T16:05:33Z</time>
      </trkpt>
      <trkpt lat="44.48723" lon="0.94535">
        <ele>71.27</ele>
        <time>2015-01-17T16:05:41Z</time>
      </trkpt>
      <trkpt lat="44.48715" lon="0.94532">
        <ele>71.27</ele>
        <time>2015-01-17T16:05:44Z</time>
      </trkpt>
      <trkpt lat="44.48712" lon="0.94532">
        <ele>71.76</ele>
        <time>2015-01-17T16:05:45Z</time>
      </trkpt>
      <trkpt lat="44.4871" lon="0.94532">
        <ele>71.27</ele>
        <time>2015-01-17T16:05:46Z</time>
      </trkpt>
      <trkpt lat="44.48707" lon="0.94533">
        <ele>71.27</ele>
        <time>2015-01-17T16:05:47Z</time>
      </trkpt>
      <trkpt lat="44.48704" lon="0.94534">
        <ele>71.27</ele>
        <time>2015-01-17T16:05:48Z</time>
      </trkpt>
      <trkpt lat="44.48701" lon="0.94535">
        <ele>71.27</ele>
        <time>2015-01-17T16:05:49Z</time>
      </trkpt>
      <trkpt lat="44.48681" lon="0.94539">
        <ele>70.31</ele>
        <time>2015-01-17T16:05:56Z</time>
      </trkpt>
      <trkpt lat="44.48678" lon="0.94537">
        <ele>70.31</ele>
        <time>2015-01-17T16:05:57Z</time>
      </trkpt>
      <trkpt lat="44.4864" lon="0.945">
        <ele>70.79</ele>
        <time>2015-01-17T16:06:10Z</time>
      </trkpt>
      <trkpt lat="44.48625" lon="0.94481">
        <ele>71.27</ele>
        <time>2015-01-17T16:06:15Z</time>
      </trkpt>
      <trkpt lat="44.48621" lon="0.9448">
        <ele>71.27</ele>
        <time>2015-01-17T16:06:16Z</time>
      </trkpt>
      <trkpt lat="44.48587" lon="0.94475">
        <ele>71.27</ele>
        <time>2015-01-17T16:06:26Z</time>
      </trkpt>
      <trkpt lat="44.48559" lon="0.94457">
        <ele>74.16</ele>
        <time>2015-01-17T16:06:37Z</time>
      </trkpt>
      <trkpt lat="44.48554" lon="0.94451">
        <ele>74.64</ele>
        <time>2015-01-17T16:06:47Z</time>
      </trkpt>
      <trkpt lat="44.48539" lon="0.94425">
        <ele>73.68</ele>
        <time>2015-01-17T16:06:59Z</time>
      </trkpt>
      <trkpt lat="44.48528" lon="0.94416">
        <ele>72.72</ele>
        <time>2015-01-17T16:07:05Z</time>
      </trkpt>
      <trkpt lat="44.48485" lon="0.94434">
        <ele>69.83</ele>
        <time>2015-01-17T16:07:17Z</time>
      </trkpt>
      <trkpt lat="44.48448" lon="0.94441">
        <ele>66.47</ele>
        <time>2015-01-17T16:07:27Z</time>
      </trkpt>
      <trkpt lat="44.4844" lon="0.94452">
        <ele>66.47</ele>
        <time>2015-01-17T16:07:37Z</time>
      </trkpt>
      <trkpt lat="44.4844" lon="0.94457">
        <ele>65.03</ele>
        <time>2015-01-17T16:07:51Z</time>
      </trkpt>
      <trkpt lat="44.48431" lon="0.94476">
        <ele>65.03</ele>
        <time>2015-01-17T16:08:03Z</time>
      </trkpt>
      <trkpt lat="44.48429" lon="0.94476">
        <ele>65.03</ele>
        <time>2015-01-17T16:08:04Z</time>
      </trkpt>
      <trkpt lat="44.48426" lon="0.94477">
        <ele>65.03</ele>
        <time>2015-01-17T16:08:05Z</time>
      </trkpt>
      <trkpt lat="44.48423" lon="0.94476">
        <ele>65.03</ele>
        <time>2015-01-17T16:08:06Z</time>
      </trkpt>
      <trkpt lat="44.48421" lon="0.94476">
        <ele>65.03</ele>
        <time>2015-01-17T16:08:07Z</time>
      </trkpt>
      <trkpt lat="44.48418" lon="0.94475">
        <ele>65.03</ele>
        <time>2015-01-17T16:08:08Z</time>
      </trkpt>
      <trkpt lat="44.48416" lon="0.94475">
        <ele>65.03</ele>
        <time>2015-01-17T16:08:09Z</time>
      </trkpt>
      <trkpt lat="44.48413" lon="0.94474">
        <ele>65.03</ele>
        <time>2015-01-17T16:08:10Z</time>
      </trkpt>
      <trkpt lat="44.48411" lon="0.94474">
        <ele>65.03</ele>
        <time>2015-01-17T16:08:11Z</time>
      </trkpt>
      <trkpt lat="44.48401" lon="0.94466">
        <ele>64.07</ele>
        <time>2015-01-17T16:08:17Z</time>
      </trkpt>
      <trkpt lat="44.48401" lon="0.94463">
        <ele>64.07</ele>
        <time>2015-01-17T16:08:18Z</time>
      </trkpt>
      <trkpt lat="44.48401" lon="0.94461">
        <ele>64.07</ele>
        <time>2015-01-17T16:08:19Z</time>
      </trkpt>
      <trkpt lat="44.484" lon="0.94458">
        <ele>64.07</ele>
        <time>2015-01-17T16:08:20Z</time>
      </trkpt>
      <trkpt lat="44.484" lon="0.94455">
        <ele>64.07</ele>
        <time>2015-01-17T16:08:21Z</time>
      </trkpt>
      <trkpt lat="44.48399" lon="0.94452">
        <ele>63.58</ele>
        <time>2015-01-17T16:08:22Z</time>
      </trkpt>
      <trkpt lat="44.48399" lon="0.94448">
        <ele>63.58</ele>
        <time>2015-01-17T16:08:23Z</time>
      </trkpt>
      <trkpt lat="44.48392" lon="0.94398">
        <ele>64.55</ele>
        <time>2015-01-17T16:08:36Z</time>
      </trkpt>
      <trkpt lat="44.4839" lon="0.94393">
        <ele>65.51</ele>
        <time>2015-01-17T16:08:47Z</time>
      </trkpt>
      <trkpt lat="44.4839" lon="0.94393">
        <ele>65.03</ele>
        <time>2015-01-17T16:09:10Z</time>
      </trkpt>
      <trkpt lat="44.48388" lon="0.9439">
        <ele>65.03</ele>
        <time>2015-01-17T16:09:22Z</time>
      </trkpt>
      <trkpt lat="44.48386" lon="0.94389">
        <ele>65.03</ele>
        <time>2015-01-17T16:09:23Z</time>
      </trkpt>
      <trkpt lat="44.48385" lon="0.94388">
        <ele>64.55</ele>
        <time>2015-01-17T16:09:24Z</time>
      </trkpt>
      <trkpt lat="44.48383" lon="0.94387">
        <ele>63.58</ele>
        <time>2015-01-17T16:09:25Z</time>
      </trkpt>
      <trkpt lat="44.48381" lon="0.94388">
        <ele>63.58</ele>
        <time>2015-01-17T16:09:26Z</time>
      </trkpt>
      <trkpt lat="44.48379" lon="0.94389">
        <ele>63.1</ele>
        <time>2015-01-17T16:09:27Z</time>
      </trkpt>
      <trkpt lat="44.48376" lon="0.94389">
        <ele>63.1</ele>
        <time>2015-01-17T16:09:28Z</time>
      </trkpt>
      <trkpt lat="44.48373" lon="0.9439">
        <ele>63.1</ele>
        <time>2015-01-17T16:09:29Z</time>
      </trkpt>
      <trkpt lat="44.4837" lon="0.94391">
        <ele>63.1</ele>
        <time>2015-01-17T16:09:30Z</time>
      </trkpt>
      <trkpt lat="44.48317" lon="0.94406">
        <ele>63.1</ele>
        <time>2015-01-17T16:09:44Z</time>
      </trkpt>
      <trkpt lat="44.48264" lon="0.9442">
        <ele>63.1</ele>
        <time>2015-01-17T16:09:58Z</time>
      </trkpt>
      <trkpt lat="44.48241" lon="0.94428">
        <ele>63.1</ele>
        <time>2015-01-17T16:10:05Z</time>
      </trkpt>
      <trkpt lat="44.4824" lon="0.94432">
        <ele>63.1</ele>
        <time>2015-01-17T16:10:06Z</time>
      </trkpt>
      <trkpt lat="44.4824" lon="0.94437">
        <ele>63.1</ele>
        <time>2015-01-17T16:10:07Z</time>
      </trkpt>
      <trkpt lat="44.48241" lon="0.94442">
        <ele>63.1</ele>
        <time>2015-01-17T16:10:08Z</time>
      </trkpt>
      <trkpt lat="44.48242" lon="0.94447">
        <ele>63.1</ele>
        <time>2015-01-17T16:10:09Z</time>
      </trkpt>
      <trkpt lat="44.48243" lon="0.94452">
        <ele>63.1</ele>
        <time>2015-01-17T16:10:10Z</time>
      </trkpt>
      <trkpt lat="44.48244" lon="0.94457">
        <ele>63.1</ele>
        <time>2015-01-17T16:10:11Z</time>
      </trkpt>
      <trkpt lat="44.48245" lon="0.94461">
        <ele>62.62</ele>
        <time>2015-01-17T16:10:12Z</time>
      </trkpt>
      <trkpt lat="44.48245" lon="0.94467">
        <ele>62.62</ele>
        <time>2015-01-17T16:10:13Z</time>
      </trkpt>
      <trkpt lat="44.48243" lon="0.94472">
        <ele>62.14</ele>
        <time>2015-01-17T16:10:14Z</time>
      </trkpt>
      <trkpt lat="44.48241" lon="0.94476">
        <ele>62.14</ele>
        <time>2015-01-17T16:10:15Z</time>
      </trkpt>
      <trkpt lat="44.48238" lon="0.9448">
        <ele>61.66</ele>
        <time>2015-01-17T16:10:16Z</time>
      </trkpt>
      <trkpt lat="44.48234" lon="0.94482">
        <ele>61.66</ele>
        <time>2015-01-17T16:10:17Z</time>
      </trkpt>
      <trkpt lat="44.4823" lon="0.94484">
        <ele>62.14</ele>
        <time>2015-01-17T16:10:18Z</time>
      </trkpt>
      <trkpt lat="44.48212" lon="0.94491">
        <ele>62.14</ele>
        <time>2015-01-17T16:10:22Z</time>
      </trkpt>
      <trkpt lat="44.48202" lon="0.94494">
        <ele>61.66</ele>
        <time>2015-01-17T16:10:24Z</time>
      </trkpt>
      <trkpt lat="44.48188" lon="0.94501">
        <ele>61.66</ele>
        <time>2015-01-17T16:10:27Z</time>
      </trkpt>
      <trkpt lat="44.48145" lon="0.9452">
        <ele>61.18</ele>
        <time>2015-01-17T16:10:40Z</time>
      </trkpt>
      <trkpt lat="44.48133" lon="0.94529">
        <ele>60.22</ele>
        <time>2015-01-17T16:10:54Z</time>
      </trkpt>
      <trkpt lat="44.48097" lon="0.94557">
        <ele>57.34</ele>
        <time>2015-01-17T16:11:06Z</time>
      </trkpt>
      <trkpt lat="44.48097" lon="0.94556">
        <ele>57.34</ele>
        <time>2015-01-17T16:11:09Z</time>
      </trkpt>
      <trkpt lat="44.48096" lon="0.94559">
        <ele>57.34</ele>
        <time>2015-01-17T16:11:10Z</time>
      </trkpt>
      <trkpt lat="44.48096" lon="0.94563">
        <ele>57.34</ele>
        <time>2015-01-17T16:11:11Z</time>
      </trkpt>
      <trkpt lat="44.48097" lon="0.94568">
        <ele>57.34</ele>
        <time>2015-01-17T16:11:12Z</time>
      </trkpt>
      <trkpt lat="44.48099" lon="0.94573">
        <ele>57.34</ele>
        <time>2015-01-17T16:11:13Z</time>
      </trkpt>
      <trkpt lat="44.48101" lon="0.94579">
        <ele>57.34</ele>
        <time>2015-01-17T16:11:14Z</time>
      </trkpt>
      <trkpt lat="44.48131" lon="0.94656">
        <ele>58.3</ele>
        <time>2015-01-17T16:11:28Z</time>
      </trkpt>
      <trkpt lat="44.48134" lon="0.94667">
        <ele>58.78</ele>
        <time>2015-01-17T16:11:30Z</time>
      </trkpt>
      <trkpt lat="44.48134" lon="0.94672">
        <ele>58.78</ele>
        <time>2015-01-17T16:11:31Z</time>
      </trkpt>
      <trkpt lat="44.48132" lon="0.94677">
        <ele>59.26</ele>
        <time>2015-01-17T16:11:32Z</time>
      </trkpt>
      <trkpt lat="44.48128" lon="0.9468">
        <ele>59.26</ele>
        <time>2015-01-17T16:11:33Z</time>
      </trkpt>
      <trkpt lat="44.48125" lon="0.94682">
        <ele>59.74</ele>
        <time>2015-01-17T16:11:34Z</time>
      </trkpt>
      <trkpt lat="44.48121" lon="0.94685">
        <ele>59.74</ele>
        <time>2015-01-17T16:11:35Z</time>
      </trkpt>
      <trkpt lat="44.48109" lon="0.94693">
        <ele>60.7</ele>
        <time>2015-01-17T16:11:38Z</time>
      </trkpt>
      <trkpt lat="44.48047" lon="0.94745">
        <ele>60.22</ele>
        <time>2015-01-17T16:11:55Z</time>
      </trkpt>
      <trkpt lat="44.48016" lon="0.94771">
        <ele>58.78</ele>
        <time>2015-01-17T16:12:07Z</time>
      </trkpt>
      <trkpt lat="44.4801" lon="0.94769">
        <ele>58.3</ele>
        <time>2015-01-17T16:12:19Z</time>
      </trkpt>
      <trkpt lat="44.48009" lon="0.94768">
        <ele>58.78</ele>
        <time>2015-01-17T16:12:26Z</time>
      </trkpt>
      <trkpt lat="44.48009" lon="0.94767">
        <ele>58.78</ele>
        <time>2015-01-17T16:12:27Z</time>
      </trkpt>
      <trkpt lat="44.48008" lon="0.94765">
        <ele>58.78</ele>
        <time>2015-01-17T16:12:28Z</time>
      </trkpt>
      <trkpt lat="44.48007" lon="0.94762">
        <ele>59.26</ele>
        <time>2015-01-17T16:12:29Z</time>
      </trkpt>
      <trkpt lat="44.48006" lon="0.9476">
        <ele>59.26</ele>
        <time>2015-01-17T16:12:30Z</time>
      </trkpt>
      <trkpt lat="44.48005" lon="0.94757">
        <ele>59.26</ele>
        <time>2015-01-17T16:12:31Z</time>
      </trkpt>
      <trkpt lat="44.48004" lon="0.94755">
        <ele>59.26</ele>
        <time>2015-01-17T16:12:32Z</time>
      </trkpt>
      <trkpt lat="44.47989" lon="0.94717">
        <ele>59.74</ele>
        <time>2015-01-17T16:12:43Z</time>
      </trkpt>
      <trkpt lat="44.47964" lon="0.94648">
        <ele>64.07</ele>
        <time>2015-01-17T16:12:58Z</time>
      </trkpt>
      <trkpt lat="44.47945" lon="0.94584">
        <ele>64.55</ele>
        <time>2015-01-17T16:13:13Z</time>
      </trkpt>
      <trkpt lat="44.47931" lon="0.94534">
        <ele>65.03</ele>
        <time>2015-01-17T16:13:24Z</time>
      </trkpt>
      <trkpt lat="44.47912" lon="0.94477">
        <ele>64.55</ele>
        <time>2015-01-17T16:13:37Z</time>
      </trkpt>
      <trkpt lat="44.47896" lon="0.9442">
        <ele>63.58</ele>
        <time>2015-01-17T16:13:49Z</time>
      </trkpt>
      <trkpt lat="44.47874" lon="0.94363">
        <ele>62.62</ele>
        <time>2015-01-17T16:14:01Z</time>
      </trkpt>
      <trkpt lat="44.47847" lon="0.94293">
        <ele>62.14</ele>
        <time>2015-01-17T16:14:16Z</time>
      </trkpt>
      <trkpt lat="44.47842" lon="0.94284">
        <ele>62.14</ele>
        <time>2015-01-17T16:14:18Z</time>
      </trkpt>
      <trkpt lat="44.47836" lon="0.9426">
        <ele>62.62</ele>
        <time>2015-01-17T16:14:22Z</time>
      </trkpt>
      <trkpt lat="44.47808" lon="0.94216">
        <ele>60.7</ele>
        <time>2015-01-17T16:14:34Z</time>
      </trkpt>
      <trkpt lat="44.47789" lon="0.94173">
        <ele>60.22</ele>
        <time>2015-01-17T16:14:44Z</time>
      </trkpt>
      <trkpt lat="44.47756" lon="0.9413">
        <ele>62.14</ele>
        <time>2015-01-17T16:14:56Z</time>
      </trkpt>
      <trkpt lat="44.47731" lon="0.94111">
        <ele>63.58</ele>
        <time>2015-01-17T16:15:05Z</time>
      </trkpt>
      <trkpt lat="44.47699" lon="0.9408">
        <ele>63.1</ele>
        <time>2015-01-17T16:15:18Z</time>
      </trkpt>
      <trkpt lat="44.47668" lon="0.94054">
        <ele>65.03</ele>
        <time>2015-01-17T16:15:30Z</time>
      </trkpt>
      <trkpt lat="44.47632" lon="0.94032">
        <ele>65.03</ele>
        <time>2015-01-17T16:15:42Z</time>
      </trkpt>
      <trkpt lat="44.47595" lon="0.94004">
        <ele>61.18</ele>
        <time>2015-01-17T16:15:54Z</time>
      </trkpt>
      <trkpt lat="44.47561" lon="0.93973">
        <ele>60.7</ele>
        <time>2015-01-17T16:16:05Z</time>
      </trkpt>
      <trkpt lat="44.47528" lon="0.93958">
        <ele>60.7</ele>
        <time>2015-01-17T16:16:17Z</time>
      </trkpt>
      <trkpt lat="44.47511" lon="0.93949">
        <ele>60.22</ele>
        <time>2015-01-17T16:16:23Z</time>
      </trkpt>
      <trkpt lat="44.47494" lon="0.93905">
        <ele>60.22</ele>
        <time>2015-01-17T16:16:34Z</time>
      </trkpt>
      <trkpt lat="44.47492" lon="0.93903">
        <ele>60.7</ele>
        <time>2015-01-17T16:16:35Z</time>
      </trkpt>
      <trkpt lat="44.4749" lon="0.93901">
        <ele>60.7</ele>
        <time>2015-01-17T16:16:36Z</time>
      </trkpt>
      <trkpt lat="44.47488" lon="0.93899">
        <ele>60.7</ele>
        <time>2015-01-17T16:16:37Z</time>
      </trkpt>
      <trkpt lat="44.47487" lon="0.93898">
        <ele>60.7</ele>
        <time>2015-01-17T16:16:38Z</time>
      </trkpt>
      <trkpt lat="44.47486" lon="0.93897">
        <ele>61.18</ele>
        <time>2015-01-17T16:16:39Z</time>
      </trkpt>
      <trkpt lat="44.47485" lon="0.93896">
        <ele>61.18</ele>
        <time>2015-01-17T16:16:40Z</time>
      </trkpt>
      <trkpt lat="44.47485" lon="0.93895">
        <ele>59.74</ele>
        <time>2015-01-17T16:16:52Z</time>
      </trkpt>
      <trkpt lat="44.47484" lon="0.93895">
        <ele>59.74</ele>
        <time>2015-01-17T16:16:58Z</time>
      </trkpt>
      <trkpt lat="44.47449" lon="0.93919">
        <ele>60.22</ele>
        <time>2015-01-17T16:17:10Z</time>
      </trkpt>
      <trkpt lat="44.47397" lon="0.93954">
        <ele>63.58</ele>
        <time>2015-01-17T16:17:26Z</time>
      </trkpt>
      <trkpt lat="44.47392" lon="0.93956">
        <ele>63.1</ele>
        <time>2015-01-17T16:17:29Z</time>
      </trkpt>
      <trkpt lat="44.47391" lon="0.93955">
        <ele>63.58</ele>
        <time>2015-01-17T16:17:30Z</time>
      </trkpt>
      <trkpt lat="44.47389" lon="0.93954">
        <ele>63.58</ele>
        <time>2015-01-17T16:17:31Z</time>
      </trkpt>
      <trkpt lat="44.47389" lon="0.9395">
        <ele>63.58</ele>
        <time>2015-01-17T16:17:32Z</time>
      </trkpt>
      <trkpt lat="44.47388" lon="0.93947">
        <ele>63.58</ele>
        <time>2015-01-17T16:17:33Z</time>
      </trkpt>
      <trkpt lat="44.47387" lon="0.93943">
        <ele>63.58</ele>
        <time>2015-01-17T16:17:34Z</time>
      </trkpt>
      <trkpt lat="44.47386" lon="0.9394">
        <ele>63.58</ele>
        <time>2015-01-17T16:17:35Z</time>
      </trkpt>
      <trkpt lat="44.47381" lon="0.9391">
        <ele>66.47</ele>
        <time>2015-01-17T16:17:44Z</time>
      </trkpt>
      <trkpt lat="44.4738" lon="0.93906">
        <ele>66.95</ele>
        <time>2015-01-17T16:17:45Z</time>
      </trkpt>
      <trkpt lat="44.4738" lon="0.93901">
        <ele>66.95</ele>
        <time>2015-01-17T16:17:46Z</time>
      </trkpt>
      <trkpt lat="44.47369" lon="0.93848">
        <ele>65.51</ele>
        <time>2015-01-17T16:17:58Z</time>
      </trkpt>
      <trkpt lat="44.47353" lon="0.93816">
        <ele>65.99</ele>
        <time>2015-01-17T16:18:08Z</time>
      </trkpt>
      <trkpt lat="44.47351" lon="0.93814">
        <ele>65.99</ele>
        <time>2015-01-17T16:18:09Z</time>
      </trkpt>
      <trkpt lat="44.47349" lon="0.93811">
        <ele>66.47</ele>
        <time>2015-01-17T16:18:10Z</time>
      </trkpt>
      <trkpt lat="44.47348" lon="0.93806">
        <ele>66.47</ele>
        <time>2015-01-17T16:18:11Z</time>
      </trkpt>
      <trkpt lat="44.47347" lon="0.93801">
        <ele>66.47</ele>
        <time>2015-01-17T16:18:12Z</time>
      </trkpt>
      <trkpt lat="44.47346" lon="0.93796">
        <ele>66.47</ele>
        <time>2015-01-17T16:18:13Z</time>
      </trkpt>
      <trkpt lat="44.47345" lon="0.93791">
        <ele>66.95</ele>
        <time>2015-01-17T16:18:14Z</time>
      </trkpt>
      <trkpt lat="44.47344" lon="0.93787">
        <ele>66.95</ele>
        <time>2015-01-17T16:18:15Z</time>
      </trkpt>
      <trkpt lat="44.47322" lon="0.93739">
        <ele>67.43</ele>
        <time>2015-01-17T16:18:27Z</time>
      </trkpt>
      <trkpt lat="44.47299" lon="0.93687">
        <ele>68.87</ele>
        <time>2015-01-17T16:18:39Z</time>
      </trkpt>
      <trkpt lat="44.47289" lon="0.93675">
        <ele>69.83</ele>
        <time>2015-01-17T16:18:43Z</time>
      </trkpt>
      <trkpt lat="44.47287" lon="0.93671">
        <ele>70.31</ele>
        <time>2015-01-17T16:18:44Z</time>
      </trkpt>
      <trkpt lat="44.47286" lon="0.93667">
        <ele>70.79</ele>
        <time>2015-01-17T16:18:45Z</time>
      </trkpt>
      <trkpt lat="44.47284" lon="0.93661">
        <ele>70.79</ele>
        <time>2015-01-17T16:18:46Z</time>
      </trkpt>
      <trkpt lat="44.47282" lon="0.93655">
        <ele>70.79</ele>
        <time>2015-01-17T16:18:47Z</time>
      </trkpt>
      <trkpt lat="44.47279" lon="0.9365">
        <ele>70.79</ele>
        <time>2015-01-17T16:18:48Z</time>
      </trkpt>
      <trkpt lat="44.47276" lon="0.93646">
        <ele>70.79</ele>
        <time>2015-01-17T16:18:49Z</time>
      </trkpt>
      <trkpt lat="44.47244" lon="0.93604">
        <ele>70.79</ele>
        <time>2015-01-17T16:19:00Z</time>
      </trkpt>
      <trkpt lat="44.47229" lon="0.93541">
        <ele>70.79</ele>
        <time>2015-01-17T16:19:13Z</time>
      </trkpt>
      <trkpt lat="44.47221" lon="0.93471">
        <ele>69.83</ele>
        <time>2015-01-17T16:19:26Z</time>
      </trkpt>
      <trkpt lat="44.47208" lon="0.93419">
        <ele>69.35</ele>
        <time>2015-01-17T16:19:38Z</time>
      </trkpt>
      <trkpt lat="44.47206" lon="0.93417">
        <ele>68.87</ele>
        <time>2015-01-17T16:19:48Z</time>
      </trkpt>
    </trkseg>
  </trk>
</gpx>